<?xml version="1.0" encoding="UTF-8" standalone="no" ?>
<gpx xmlns="http://www.topografix.com/GPX/1/1" xmlns:xsi="http://www.w3.org/2001/XMLSchema-instance" xsi:schemaLocation="http://www.topografix.com/GPX/1/1 http://www.topografix.com/GPX/1/1/gpx.xsd" version="1.1" creator="VisuGPX - https://www.visugpx.com">
  <metadata>
    <name>À vélo de Gaillac à Mazamet</name>
  </metadata>
  <trk>
    <name><![CDATA[À vélo de Gaillac à Mazamet]]></name>
    <trkseg>
      <trkpt lat="43.90562" lon="1.89521">
        <ele>144.45219</ele>
        <time>2022-05-03T13:31:30.881Z</time>
      </trkpt>
      <trkpt lat="43.90522" lon="1.89563">
        <ele>144.45219</ele>
        <time>2022-05-03T13:31:39.632Z</time>
      </trkpt>
      <trkpt lat="43.90502" lon="1.89582">
        <ele>144.45219</ele>
        <time>2022-05-03T13:31:43.971Z</time>
      </trkpt>
      <trkpt lat="43.90491" lon="1.89582">
        <ele>144.45219</ele>
        <time>2022-05-03T13:31:46.082Z</time>
      </trkpt>
      <trkpt lat="43.90481" lon="1.8958">
        <ele>144.466289</ele>
        <time>2022-05-03T13:31:47.731Z</time>
      </trkpt>
      <trkpt lat="43.90477" lon="1.89592">
        <ele>144.4946</ele>
        <time>2022-05-03T13:31:49.460Z</time>
      </trkpt>
      <trkpt lat="43.9048" lon="1.89597">
        <ele>144.507557</ele>
        <time>2022-05-03T13:31:50.294Z</time>
      </trkpt>
      <trkpt lat="43.90464" lon="1.89621">
        <ele>144.573771</ele>
        <time>2022-05-03T13:31:54.362Z</time>
      </trkpt>
      <trkpt lat="43.90455" lon="1.89603">
        <ele>144.620123</ele>
        <time>2022-05-03T13:31:57.444Z</time>
      </trkpt>
      <trkpt lat="43.90446" lon="1.89599">
        <ele>144.646264</ele>
        <time>2022-05-03T13:31:59.180Z</time>
      </trkpt>
      <trkpt lat="43.90345" lon="1.8958">
        <ele>144.939418</ele>
        <time>2022-05-03T13:32:19.035Z</time>
      </trkpt>
      <trkpt lat="43.90332" lon="1.89573">
        <ele>145.00094</ele>
        <time>2022-05-03T13:32:22.664Z</time>
      </trkpt>
      <trkpt lat="43.9032" lon="1.89566">
        <ele>145.10022</ele>
        <time>2022-05-03T13:32:26.294Z</time>
      </trkpt>
      <trkpt lat="43.90312" lon="1.8956">
        <ele>145.166326</ele>
        <time>2022-05-03T13:32:28.754Z</time>
      </trkpt>
      <trkpt lat="43.90329" lon="1.89548">
        <ele>145.309145</ele>
        <time>2022-05-03T13:32:32.930Z</time>
      </trkpt>
      <trkpt lat="43.90312" lon="1.8956">
        <ele>145.451964</ele>
        <time>2022-05-03T13:32:37.096Z</time>
      </trkpt>
      <trkpt lat="43.90296" lon="1.89573">
        <ele>145.593001</ele>
        <time>2022-05-03T13:32:41.056Z</time>
      </trkpt>
      <trkpt lat="43.90265" lon="1.89596">
        <ele>145.864373</ele>
        <time>2022-05-03T13:32:48.559Z</time>
      </trkpt>
      <trkpt lat="43.90186" lon="1.89657">
        <ele>146.35995</ele>
        <time>2022-05-03T13:33:06.793Z</time>
      </trkpt>
      <trkpt lat="43.9021" lon="1.89718">
        <ele>146.387856</ele>
        <time>2022-05-03T13:33:16.782Z</time>
      </trkpt>
      <trkpt lat="43.90232" lon="1.89771">
        <ele>146.412793</ele>
        <time>2022-05-03T13:33:25.040Z</time>
      </trkpt>
      <trkpt lat="43.90168" lon="1.89794">
        <ele>146.350032</ele>
        <time>2022-05-03T13:33:36.636Z</time>
      </trkpt>
      <trkpt lat="43.90149" lon="1.89806">
        <ele>146.082883</ele>
        <time>2022-05-03T13:33:40.124Z</time>
      </trkpt>
      <trkpt lat="43.90108" lon="1.89831">
        <ele>145.527942</ele>
        <time>2022-05-03T13:33:47.197Z</time>
      </trkpt>
      <trkpt lat="43.90065" lon="1.89847">
        <ele>144.95749</ele>
        <time>2022-05-03T13:33:54.059Z</time>
      </trkpt>
      <trkpt lat="43.90049" lon="1.89817">
        <ele>144.614797</ele>
        <time>2022-05-03T13:33:58.338Z</time>
      </trkpt>
      <trkpt lat="43.9001" lon="1.89878">
        <ele>143.739608</ele>
        <time>2022-05-03T13:34:06.993Z</time>
      </trkpt>
      <trkpt lat="43.90017" lon="1.89893">
        <ele>143.492877</ele>
        <time>2022-05-03T13:34:09.148Z</time>
      </trkpt>
      <trkpt lat="43.8998" lon="1.89906">
        <ele>142.801431</ele>
        <time>2022-05-03T13:34:16.590Z</time>
      </trkpt>
      <trkpt lat="43.89976" lon="1.89907">
        <ele>142.711296</ele>
        <time>2022-05-03T13:34:17.508Z</time>
      </trkpt>
      <trkpt lat="43.8997" lon="1.89886">
        <ele>142.404949</ele>
        <time>2022-05-03T13:34:19.808Z</time>
      </trkpt>
      <trkpt lat="43.89976" lon="1.89878">
        <ele>142.260626</ele>
        <time>2022-05-03T13:34:21.009Z</time>
      </trkpt>
      <trkpt lat="43.89973" lon="1.89863">
        <ele>142.049472</ele>
        <time>2022-05-03T13:34:22.635Z</time>
      </trkpt>
      <trkpt lat="43.89967" lon="1.89859">
        <ele>141.926759</ele>
        <time>2022-05-03T13:34:23.553Z</time>
      </trkpt>
      <trkpt lat="43.89959" lon="1.89864">
        <ele>141.763805</ele>
        <time>2022-05-03T13:34:24.729Z</time>
      </trkpt>
      <trkpt lat="43.8995" lon="1.89873">
        <ele>141.560389</ele>
        <time>2022-05-03T13:34:26.353Z</time>
      </trkpt>
      <trkpt lat="43.89943" lon="1.89879">
        <ele>141.40996</ele>
        <time>2022-05-03T13:34:27.514Z</time>
      </trkpt>
      <trkpt lat="43.89875" lon="1.89887">
        <ele>140.398977</ele>
        <time>2022-05-03T13:34:37.419Z</time>
      </trkpt>
      <trkpt lat="43.89836" lon="1.89887">
        <ele>139.920751</ele>
        <time>2022-05-03T13:34:43.466Z</time>
      </trkpt>
      <trkpt lat="43.89816" lon="1.89888">
        <ele>139.677329</ele>
        <time>2022-05-03T13:34:46.413Z</time>
      </trkpt>
      <trkpt lat="43.89786" lon="1.8989">
        <ele>139.303252</ele>
        <time>2022-05-03T13:34:51.100Z</time>
      </trkpt>
      <trkpt lat="43.89744" lon="1.89892">
        <ele>138.792585</ele>
        <time>2022-05-03T13:34:57.492Z</time>
      </trkpt>
      <trkpt lat="43.89724" lon="1.89893">
        <ele>138.578254</ele>
        <time>2022-05-03T13:35:00.536Z</time>
      </trkpt>
      <trkpt lat="43.89672" lon="1.8989">
        <ele>138.083378</ele>
        <time>2022-05-03T13:35:08.526Z</time>
      </trkpt>
      <trkpt lat="43.89656" lon="1.89881">
        <ele>137.921586</ele>
        <time>2022-05-03T13:35:11.212Z</time>
      </trkpt>
      <trkpt lat="43.89655" lon="1.89877">
        <ele>137.891305</ele>
        <time>2022-05-03T13:35:11.734Z</time>
      </trkpt>
      <trkpt lat="43.89646" lon="1.8987">
        <ele>137.788035</ele>
        <time>2022-05-03T13:35:13.436Z</time>
      </trkpt>
      <trkpt lat="43.89642" lon="1.89873">
        <ele>137.742502</ele>
        <time>2022-05-03T13:35:14.231Z</time>
      </trkpt>
      <trkpt lat="43.89639" lon="1.8988">
        <ele>137.691437</ele>
        <time>2022-05-03T13:35:15.091Z</time>
      </trkpt>
      <trkpt lat="43.89625" lon="1.89891">
        <ele>137.538676</ele>
        <time>2022-05-03T13:35:17.682Z</time>
      </trkpt>
      <trkpt lat="43.89576" lon="1.89946">
        <ele>136.956798</ele>
        <time>2022-05-03T13:35:27.492Z</time>
      </trkpt>
      <trkpt lat="43.8956" lon="1.8997">
        <ele>136.795645</ele>
        <time>2022-05-03T13:35:31.252Z</time>
      </trkpt>
      <trkpt lat="43.89525" lon="1.9004">
        <ele>136.384978</ele>
        <time>2022-05-03T13:35:40.803Z</time>
      </trkpt>
      <trkpt lat="43.89519" lon="1.90052">
        <ele>136.314777</ele>
        <time>2022-05-03T13:35:42.461Z</time>
      </trkpt>
      <trkpt lat="43.89495" lon="1.90124">
        <ele>135.929995</ele>
        <time>2022-05-03T13:35:51.795Z</time>
      </trkpt>
      <trkpt lat="43.89451" lon="1.90191">
        <ele>135.645565</ele>
        <time>2022-05-03T13:36:02.939Z</time>
      </trkpt>
      <trkpt lat="43.894" lon="1.9024">
        <ele>135.45204</ele>
        <time>2022-05-03T13:36:13.940Z</time>
      </trkpt>
      <trkpt lat="43.89348" lon="1.90288">
        <ele>135.256523</ele>
        <time>2022-05-03T13:36:24.756Z</time>
      </trkpt>
      <trkpt lat="43.89337" lon="1.90298">
        <ele>135.205442</ele>
        <time>2022-05-03T13:36:26.966Z</time>
      </trkpt>
      <trkpt lat="43.89288" lon="1.90342">
        <ele>133.824476</ele>
        <time>2022-05-03T13:36:35.939Z</time>
      </trkpt>
      <trkpt lat="43.89277" lon="1.90351">
        <ele>133.529796</ele>
        <time>2022-05-03T13:36:37.710Z</time>
      </trkpt>
      <trkpt lat="43.89209" lon="1.90413">
        <ele>131.608887</ele>
        <time>2022-05-03T13:36:48.540Z</time>
      </trkpt>
      <trkpt lat="43.89096" lon="1.90514">
        <ele>127.905533</ele>
        <time>2022-05-03T13:37:05.129Z</time>
      </trkpt>
      <trkpt lat="43.89083" lon="1.90526">
        <ele>127.469728</ele>
        <time>2022-05-03T13:37:07.135Z</time>
      </trkpt>
      <trkpt lat="43.89025" lon="1.9057">
        <ele>126.072164</ele>
        <time>2022-05-03T13:37:17.309Z</time>
      </trkpt>
      <trkpt lat="43.88923" lon="1.90613">
        <ele>128.9628</ele>
        <time>2022-05-03T13:37:43.454Z</time>
      </trkpt>
      <trkpt lat="43.88906" lon="1.90624">
        <ele>129.469524</ele>
        <time>2022-05-03T13:37:49.851Z</time>
      </trkpt>
      <trkpt lat="43.88899" lon="1.9063">
        <ele>129.686104</ele>
        <time>2022-05-03T13:37:52.516Z</time>
      </trkpt>
      <trkpt lat="43.88842" lon="1.90669">
        <ele>131.582583</ele>
        <time>2022-05-03T13:38:15.139Z</time>
      </trkpt>
      <trkpt lat="43.88788" lon="1.90708">
        <ele>133.643834</ele>
        <time>2022-05-03T13:38:34.175Z</time>
      </trkpt>
      <trkpt lat="43.88771" lon="1.90715">
        <ele>134.24622</ele>
        <time>2022-05-03T13:38:39.321Z</time>
      </trkpt>
      <trkpt lat="43.88768" lon="1.90712">
        <ele>134.360395</ele>
        <time>2022-05-03T13:38:40.229Z</time>
      </trkpt>
      <trkpt lat="43.88765" lon="1.90712">
        <ele>134.476544</ele>
        <time>2022-05-03T13:38:41.125Z</time>
      </trkpt>
      <trkpt lat="43.88764" lon="1.90719">
        <ele>134.645561</ele>
        <time>2022-05-03T13:38:42.391Z</time>
      </trkpt>
      <trkpt lat="43.88752" lon="1.90732">
        <ele>135.157356</ele>
        <time>2022-05-03T13:38:46.418Z</time>
      </trkpt>
      <trkpt lat="43.88546" lon="1.90873">
        <ele>139.396905</ele>
        <time>2022-05-03T13:39:38.644Z</time>
      </trkpt>
      <trkpt lat="43.88559" lon="1.909">
        <ele>139.531591</ele>
        <time>2022-05-03T13:39:44.636Z</time>
      </trkpt>
      <trkpt lat="43.88545" lon="1.90947">
        <ele>139.740566</ele>
        <time>2022-05-03T13:39:53.884Z</time>
      </trkpt>
      <trkpt lat="43.88524" lon="1.91009">
        <ele>140.02512</ele>
        <time>2022-05-03T13:40:06.212Z</time>
      </trkpt>
      <trkpt lat="43.88543" lon="1.91033">
        <ele>140.175527</ele>
        <time>2022-05-03T13:40:11.082Z</time>
      </trkpt>
      <trkpt lat="43.88583" lon="1.91083">
        <ele>140.386598</ele>
        <time>2022-05-03T13:40:21.900Z</time>
      </trkpt>
      <trkpt lat="43.88625" lon="1.91105">
        <ele>140.276152</ele>
        <time>2022-05-03T13:40:30.372Z</time>
      </trkpt>
      <trkpt lat="43.88658" lon="1.9115">
        <ele>140.162962</ele>
        <time>2022-05-03T13:40:38.474Z</time>
      </trkpt>
      <trkpt lat="43.88695" lon="1.91201">
        <ele>140.032544</ele>
        <time>2022-05-03T13:40:47.729Z</time>
      </trkpt>
      <trkpt lat="43.88725" lon="1.9115">
        <ele>139.682049</ele>
        <time>2022-05-03T13:40:55.188Z</time>
      </trkpt>
      <trkpt lat="43.88826" lon="1.91085">
        <ele>138.244329</ele>
        <time>2022-05-03T13:41:11.886Z</time>
      </trkpt>
      <trkpt lat="43.88848" lon="1.91073">
        <ele>137.946867</ele>
        <time>2022-05-03T13:41:15.177Z</time>
      </trkpt>
      <trkpt lat="43.88905" lon="1.91037">
        <ele>137.235516</ele>
        <time>2022-05-03T13:41:24.313Z</time>
      </trkpt>
      <trkpt lat="43.88919" lon="1.91024">
        <ele>137.056857</ele>
        <time>2022-05-03T13:41:26.858Z</time>
      </trkpt>
      <trkpt lat="43.88925" lon="1.91018">
        <ele>136.97643</ele>
        <time>2022-05-03T13:41:28.002Z</time>
      </trkpt>
      <trkpt lat="43.88935" lon="1.91008">
        <ele>136.853651</ele>
        <time>2022-05-03T13:41:29.730Z</time>
      </trkpt>
      <trkpt lat="43.88952" lon="1.91054">
        <ele>136.459983</ele>
        <time>2022-05-03T13:41:35.384Z</time>
      </trkpt>
      <trkpt lat="43.88959" lon="1.91071">
        <ele>136.312829</ele>
        <time>2022-05-03T13:41:37.533Z</time>
      </trkpt>
      <trkpt lat="43.88983" lon="1.9113">
        <ele>135.79843</ele>
        <time>2022-05-03T13:41:45.557Z</time>
      </trkpt>
      <trkpt lat="43.89039" lon="1.91221">
        <ele>135.821934</ele>
        <time>2022-05-03T13:42:00.915Z</time>
      </trkpt>
      <trkpt lat="43.89106" lon="1.91329">
        <ele>135.897472</ele>
        <time>2022-05-03T13:42:19.965Z</time>
      </trkpt>
      <trkpt lat="43.89141" lon="1.91405">
        <ele>136.076762</ele>
        <time>2022-05-03T13:42:31.976Z</time>
      </trkpt>
      <trkpt lat="43.89182" lon="1.91516">
        <ele>136.321619</ele>
        <time>2022-05-03T13:42:48.409Z</time>
      </trkpt>
      <trkpt lat="43.89217" lon="1.91601">
        <ele>136.891614</ele>
        <time>2022-05-03T13:43:02.373Z</time>
      </trkpt>
      <trkpt lat="43.89258" lon="1.91691">
        <ele>137.646099</ele>
        <time>2022-05-03T13:43:18.495Z</time>
      </trkpt>
      <trkpt lat="43.89407" lon="1.91932">
        <ele>140.423838</ele>
        <time>2022-05-03T13:44:09.893Z</time>
      </trkpt>
      <trkpt lat="43.89448" lon="1.92">
        <ele>140.49825</ele>
        <time>2022-05-03T13:44:21.806Z</time>
      </trkpt>
      <trkpt lat="43.89546" lon="1.92115">
        <ele>140.581288</ele>
        <time>2022-05-03T13:44:43.660Z</time>
      </trkpt>
      <trkpt lat="43.89569" lon="1.92156">
        <ele>140.562893</ele>
        <time>2022-05-03T13:44:50.128Z</time>
      </trkpt>
      <trkpt lat="43.89576" lon="1.92186">
        <ele>140.551561</ele>
        <time>2022-05-03T13:44:54.101Z</time>
      </trkpt>
      <trkpt lat="43.89598" lon="1.92213">
        <ele>140.537101</ele>
        <time>2022-05-03T13:44:59.576Z</time>
      </trkpt>
      <trkpt lat="43.89631" lon="1.92292">
        <ele>140.504546</ele>
        <time>2022-05-03T13:45:11.797Z</time>
      </trkpt>
      <trkpt lat="43.89688" lon="1.92387">
        <ele>140.329576</ele>
        <time>2022-05-03T13:45:28.465Z</time>
      </trkpt>
      <trkpt lat="43.8988" lon="1.92725">
        <ele>139.43118</ele>
        <time>2022-05-03T13:46:22.376Z</time>
      </trkpt>
      <trkpt lat="43.90159" lon="1.93247">
        <ele>139.490863</ele>
        <time>2022-05-03T13:47:49.398Z</time>
      </trkpt>
      <trkpt lat="43.90219" lon="1.93359">
        <ele>139.811648</ele>
        <time>2022-05-03T13:48:09.672Z</time>
      </trkpt>
      <trkpt lat="43.90297" lon="1.93512">
        <ele>140.417774</ele>
        <time>2022-05-03T13:48:36.735Z</time>
      </trkpt>
      <trkpt lat="43.90311" lon="1.93564">
        <ele>140.500555</ele>
        <time>2022-05-03T13:48:44.465Z</time>
      </trkpt>
      <trkpt lat="43.90342" lon="1.93734">
        <ele>140.758607</ele>
        <time>2022-05-03T13:49:08.396Z</time>
      </trkpt>
      <trkpt lat="43.90357" lon="1.93787">
        <ele>140.774254</ele>
        <time>2022-05-03T13:49:16.110Z</time>
      </trkpt>
      <trkpt lat="43.90469" lon="1.94109">
        <ele>140.866957</ele>
        <time>2022-05-03T13:50:03.783Z</time>
      </trkpt>
      <trkpt lat="43.90493" lon="1.94167">
        <ele>140.895163</ele>
        <time>2022-05-03T13:50:12.852Z</time>
      </trkpt>
      <trkpt lat="43.90704" lon="1.94581">
        <ele>141.946022</ele>
        <time>2022-05-03T13:51:24.391Z</time>
      </trkpt>
      <trkpt lat="43.90711" lon="1.94606">
        <ele>141.988169</ele>
        <time>2022-05-03T13:51:28.060Z</time>
      </trkpt>
      <trkpt lat="43.90707" lon="1.94653">
        <ele>142.023604</ele>
        <time>2022-05-03T13:51:34.591Z</time>
      </trkpt>
      <trkpt lat="43.90692" lon="1.94699">
        <ele>142.060791</ele>
        <time>2022-05-03T13:51:41.299Z</time>
      </trkpt>
      <trkpt lat="43.90643" lon="1.94897">
        <ele>142.185457</ele>
        <time>2022-05-03T13:52:09.483Z</time>
      </trkpt>
      <trkpt lat="43.90566" lon="1.95041">
        <ele>142.241115</ele>
        <time>2022-05-03T13:52:33.465Z</time>
      </trkpt>
      <trkpt lat="43.90476" lon="1.95236">
        <ele>142.564813</ele>
        <time>2022-05-03T13:53:05.451Z</time>
      </trkpt>
      <trkpt lat="43.90363" lon="1.95421">
        <ele>143.183902</ele>
        <time>2022-05-03T13:53:40.046Z</time>
      </trkpt>
      <trkpt lat="43.90334" lon="1.95479">
        <ele>143.269884</ele>
        <time>2022-05-03T13:53:50.271Z</time>
      </trkpt>
      <trkpt lat="43.90307" lon="1.95537">
        <ele>143.289816</ele>
        <time>2022-05-03T13:53:59.778Z</time>
      </trkpt>
      <trkpt lat="43.90294" lon="1.95603">
        <ele>143.309598</ele>
        <time>2022-05-03T13:54:08.732Z</time>
      </trkpt>
      <trkpt lat="43.90287" lon="1.95688">
        <ele>143.306497</ele>
        <time>2022-05-03T13:54:19.604Z</time>
      </trkpt>
      <trkpt lat="43.90284" lon="1.95829">
        <ele>143.109436</ele>
        <time>2022-05-03T13:54:37.651Z</time>
      </trkpt>
      <trkpt lat="43.90276" lon="1.96244">
        <ele>143.370244</ele>
        <time>2022-05-03T13:55:32.837Z</time>
      </trkpt>
      <trkpt lat="43.90248" lon="1.96372">
        <ele>144.126506</ele>
        <time>2022-05-03T13:55:53.363Z</time>
      </trkpt>
      <trkpt lat="43.9024" lon="1.96517">
        <ele>145.931445</ele>
        <time>2022-05-03T13:56:18.353Z</time>
      </trkpt>
      <trkpt lat="43.90206" lon="1.96773">
        <ele>149.968972</ele>
        <time>2022-05-03T13:57:07.999Z</time>
      </trkpt>
      <trkpt lat="43.90186" lon="1.96835">
        <ele>151.057641</ele>
        <time>2022-05-03T13:57:20.765Z</time>
      </trkpt>
      <trkpt lat="43.90161" lon="1.96878">
        <ele>151.947071</ele>
        <time>2022-05-03T13:57:30.730Z</time>
      </trkpt>
      <trkpt lat="43.90133" lon="1.96904">
        <ele>152.39011</ele>
        <time>2022-05-03T13:57:38.778Z</time>
      </trkpt>
      <trkpt lat="43.9009" lon="1.96924">
        <ele>152.842742</ele>
        <time>2022-05-03T13:57:49.323Z</time>
      </trkpt>
      <trkpt lat="43.90053" lon="1.97021">
        <ele>153.626806</ele>
        <time>2022-05-03T13:58:05.894Z</time>
      </trkpt>
      <trkpt lat="43.90003" lon="1.97105">
        <ele>154.072583</ele>
        <time>2022-05-03T13:58:20.975Z</time>
      </trkpt>
      <trkpt lat="43.89889" lon="1.97263">
        <ele>154.620967</ele>
        <time>2022-05-03T13:58:52.250Z</time>
      </trkpt>
      <trkpt lat="43.89829" lon="1.97436">
        <ele>155.342734</ele>
        <time>2022-05-03T13:59:20.515Z</time>
      </trkpt>
      <trkpt lat="43.89735" lon="1.97599">
        <ele>155.787713</ele>
        <time>2022-05-03T13:59:50.315Z</time>
      </trkpt>
      <trkpt lat="43.89704" lon="1.97635">
        <ele>155.89846</ele>
        <time>2022-05-03T13:59:57.615Z</time>
      </trkpt>
      <trkpt lat="43.89653" lon="1.97657">
        <ele>155.857841</ele>
        <time>2022-05-03T14:00:07.544Z</time>
      </trkpt>
      <trkpt lat="43.89616" lon="1.97683">
        <ele>155.823046</ele>
        <time>2022-05-03T14:00:14.986Z</time>
      </trkpt>
      <trkpt lat="43.89609" lon="1.97697">
        <ele>155.812667</ele>
        <time>2022-05-03T14:00:17.106Z</time>
      </trkpt>
      <trkpt lat="43.89467" lon="1.97648">
        <ele>155.663029</ele>
        <time>2022-05-03T14:00:43.871Z</time>
      </trkpt>
      <trkpt lat="43.89464" lon="1.97664">
        <ele>155.648669</ele>
        <time>2022-05-03T14:00:46.123Z</time>
      </trkpt>
      <trkpt lat="43.89313" lon="1.97544">
        <ele>155.356678</ele>
        <time>2022-05-03T14:01:16.150Z</time>
      </trkpt>
      <trkpt lat="43.89214" lon="1.97544">
        <ele>155.130521</ele>
        <time>2022-05-03T14:01:32.924Z</time>
      </trkpt>
      <trkpt lat="43.89155" lon="1.97523">
        <ele>155.028697</ele>
        <time>2022-05-03T14:01:43.425Z</time>
      </trkpt>
      <trkpt lat="43.89104" lon="1.97492">
        <ele>154.93809</ele>
        <time>2022-05-03T14:01:53.000Z</time>
      </trkpt>
      <trkpt lat="43.8904" lon="1.97732">
        <ele>154.856779</ele>
        <time>2022-05-03T14:02:25.298Z</time>
      </trkpt>
      <trkpt lat="43.89014" lon="1.97822">
        <ele>154.931536</ele>
        <time>2022-05-03T14:02:37.936Z</time>
      </trkpt>
      <trkpt lat="43.88965" lon="1.97925">
        <ele>155.560802</ele>
        <time>2022-05-03T14:02:55.417Z</time>
      </trkpt>
      <trkpt lat="43.88943" lon="1.98008">
        <ele>156.010606</ele>
        <time>2022-05-03T14:03:08.532Z</time>
      </trkpt>
      <trkpt lat="43.8894" lon="1.98022">
        <ele>156.0854</ele>
        <time>2022-05-03T14:03:10.765Z</time>
      </trkpt>
      <trkpt lat="43.88937" lon="1.98044">
        <ele>156.221769</ele>
        <time>2022-05-03T14:03:14.344Z</time>
      </trkpt>
      <trkpt lat="43.88915" lon="1.98093">
        <ele>156.619466</ele>
        <time>2022-05-03T14:03:23.115Z</time>
      </trkpt>
      <trkpt lat="43.88845" lon="1.9822">
        <ele>157.734542</ele>
        <time>2022-05-03T14:03:47.652Z</time>
      </trkpt>
      <trkpt lat="43.88729" lon="1.98471">
        <ele>158.806794</ele>
        <time>2022-05-03T14:04:28.914Z</time>
      </trkpt>
      <trkpt lat="43.88709" lon="1.98506">
        <ele>158.889917</ele>
        <time>2022-05-03T14:04:34.932Z</time>
      </trkpt>
      <trkpt lat="43.88689" lon="1.98596">
        <ele>159.063071</ele>
        <time>2022-05-03T14:04:47.310Z</time>
      </trkpt>
      <trkpt lat="43.88692" lon="1.98632">
        <ele>159.129112</ele>
        <time>2022-05-03T14:04:52.030Z</time>
      </trkpt>
      <trkpt lat="43.88713" lon="1.98666">
        <ele>159.213242</ele>
        <time>2022-05-03T14:04:58.040Z</time>
      </trkpt>
      <trkpt lat="43.88723" lon="1.98673">
        <ele>159.260592</ele>
        <time>2022-05-03T14:04:59.972Z</time>
      </trkpt>
      <trkpt lat="43.88818" lon="1.98663">
        <ele>159.723582</ele>
        <time>2022-05-03T14:05:18.148Z</time>
      </trkpt>
      <trkpt lat="43.88785" lon="1.98804">
        <ele>160.32159</ele>
        <time>2022-05-03T14:05:40.209Z</time>
      </trkpt>
      <trkpt lat="43.88782" lon="1.98817">
        <ele>160.388978</ele>
        <time>2022-05-03T14:05:42.374Z</time>
      </trkpt>
      <trkpt lat="43.88749" lon="1.98914">
        <ele>160.951395</ele>
        <time>2022-05-03T14:05:58.873Z</time>
      </trkpt>
      <trkpt lat="43.88646" lon="1.99303">
        <ele>162.058643</ele>
        <time>2022-05-03T14:06:59.214Z</time>
      </trkpt>
      <trkpt lat="43.88712" lon="1.99321">
        <ele>161.799988</ele>
        <time>2022-05-03T14:07:10.233Z</time>
      </trkpt>
      <trkpt lat="43.88735" lon="1.99327">
        <ele>161.709115</ele>
        <time>2022-05-03T14:07:13.953Z</time>
      </trkpt>
      <trkpt lat="43.88821" lon="1.99403">
        <ele>160.787509</ele>
        <time>2022-05-03T14:07:29.294Z</time>
      </trkpt>
      <trkpt lat="43.88874" lon="1.99428">
        <ele>160.146453</ele>
        <time>2022-05-03T14:07:37.827Z</time>
      </trkpt>
      <trkpt lat="43.88917" lon="1.9944">
        <ele>159.652243</ele>
        <time>2022-05-03T14:07:44.438Z</time>
      </trkpt>
      <trkpt lat="43.88977" lon="1.99436">
        <ele>159.089774</ele>
        <time>2022-05-03T14:07:53.574Z</time>
      </trkpt>
      <trkpt lat="43.89179" lon="1.99486">
        <ele>157.650139</ele>
        <time>2022-05-03T14:08:25.936Z</time>
      </trkpt>
      <trkpt lat="43.89231" lon="1.995">
        <ele>157.453656</ele>
        <time>2022-05-03T14:08:35.120Z</time>
      </trkpt>
      <trkpt lat="43.89267" lon="1.99501">
        <ele>157.319868</ele>
        <time>2022-05-03T14:08:41.586Z</time>
      </trkpt>
      <trkpt lat="43.8932" lon="1.99473">
        <ele>157.294508</ele>
        <time>2022-05-03T14:08:51.901Z</time>
      </trkpt>
      <trkpt lat="43.89405" lon="1.99406">
        <ele>157.367478</ele>
        <time>2022-05-03T14:09:09.995Z</time>
      </trkpt>
      <trkpt lat="43.89491" lon="1.99313">
        <ele>157.208664</ele>
        <time>2022-05-03T14:09:28.847Z</time>
      </trkpt>
      <trkpt lat="43.89582" lon="1.99231">
        <ele>156.909911</ele>
        <time>2022-05-03T14:09:47.100Z</time>
      </trkpt>
      <trkpt lat="43.89654" lon="1.99144">
        <ele>156.717878</ele>
        <time>2022-05-03T14:10:02.926Z</time>
      </trkpt>
      <trkpt lat="43.89677" lon="1.99132">
        <ele>156.667944</ele>
        <time>2022-05-03T14:10:07.107Z</time>
      </trkpt>
      <trkpt lat="43.89681" lon="1.9913">
        <ele>156.65909</ele>
        <time>2022-05-03T14:10:07.886Z</time>
      </trkpt>
      <trkpt lat="43.89718" lon="1.99109">
        <ele>156.579372</ele>
        <time>2022-05-03T14:10:14.880Z</time>
      </trkpt>
      <trkpt lat="43.89791" lon="1.99029">
        <ele>156.757365</ele>
        <time>2022-05-03T14:10:32.396Z</time>
      </trkpt>
      <trkpt lat="43.89817" lon="1.99014">
        <ele>156.839131</ele>
        <time>2022-05-03T14:10:37.744Z</time>
      </trkpt>
      <trkpt lat="43.89837" lon="1.99018">
        <ele>156.897208</ele>
        <time>2022-05-03T14:10:41.497Z</time>
      </trkpt>
      <trkpt lat="43.89851" lon="1.99038">
        <ele>156.95519</ele>
        <time>2022-05-03T14:10:45.232Z</time>
      </trkpt>
      <trkpt lat="43.89854" lon="1.99044">
        <ele>156.970289</ele>
        <time>2022-05-03T14:10:46.193Z</time>
      </trkpt>
      <trkpt lat="43.89871" lon="1.99044">
        <ele>157.018087</ele>
        <time>2022-05-03T14:10:49.380Z</time>
      </trkpt>
      <trkpt lat="43.89987" lon="1.9914">
        <ele>157.272807</ele>
        <time>2022-05-03T14:11:15.049Z</time>
      </trkpt>
      <trkpt lat="43.90035" lon="1.99197">
        <ele>157.300436</ele>
        <time>2022-05-03T14:11:26.040Z</time>
      </trkpt>
      <trkpt lat="43.90045" lon="1.99213">
        <ele>157.026104</ele>
        <time>2022-05-03T14:11:28.600Z</time>
      </trkpt>
      <trkpt lat="43.90061" lon="1.99273">
        <ele>156.189244</ele>
        <time>2022-05-03T14:11:36.518Z</time>
      </trkpt>
      <trkpt lat="43.90085" lon="1.99338">
        <ele>155.229889</ele>
        <time>2022-05-03T14:11:44.484Z</time>
      </trkpt>
      <trkpt lat="43.90091" lon="1.99327">
        <ele>155.048411</ele>
        <time>2022-05-03T14:11:45.892Z</time>
      </trkpt>
      <trkpt lat="43.90089" lon="1.99318">
        <ele>154.927578</ele>
        <time>2022-05-03T14:11:46.836Z</time>
      </trkpt>
      <trkpt lat="43.9007" lon="1.99286">
        <ele>154.375847</ele>
        <time>2022-05-03T14:11:50.872Z</time>
      </trkpt>
      <trkpt lat="43.90056" lon="1.99228">
        <ele>152.697527</ele>
        <time>2022-05-03T14:11:56.548Z</time>
      </trkpt>
      <trkpt lat="43.90056" lon="1.99198">
        <ele>151.680265</ele>
        <time>2022-05-03T14:11:59.221Z</time>
      </trkpt>
      <trkpt lat="43.90068" lon="1.99177">
        <ele>150.741851</ele>
        <time>2022-05-03T14:12:01.695Z</time>
      </trkpt>
      <trkpt lat="43.90101" lon="1.9914">
        <ele>148.67479</ele>
        <time>2022-05-03T14:12:07.057Z</time>
      </trkpt>
      <trkpt lat="43.90113" lon="1.99125">
        <ele>147.927425</ele>
        <time>2022-05-03T14:12:08.977Z</time>
      </trkpt>
      <trkpt lat="43.90115" lon="1.99121">
        <ele>147.750479</ele>
        <time>2022-05-03T14:12:09.418Z</time>
      </trkpt>
      <trkpt lat="43.90142" lon="1.99066">
        <ele>145.442419</ele>
        <time>2022-05-03T14:12:15.474Z</time>
      </trkpt>
      <trkpt lat="43.90171" lon="1.98952">
        <ele>143.545071</ele>
        <time>2022-05-03T14:12:27.044Z</time>
      </trkpt>
      <trkpt lat="43.90178" lon="1.98943">
        <ele>143.335002</ele>
        <time>2022-05-03T14:12:28.418Z</time>
      </trkpt>
      <trkpt lat="43.90187" lon="1.98943">
        <ele>143.145403</ele>
        <time>2022-05-03T14:12:29.800Z</time>
      </trkpt>
      <trkpt lat="43.90228" lon="1.99014">
        <ele>141.711086</ele>
        <time>2022-05-03T14:12:41.542Z</time>
      </trkpt>
      <trkpt lat="43.90226" lon="1.99023">
        <ele>141.574661</ele>
        <time>2022-05-03T14:12:42.836Z</time>
      </trkpt>
      <trkpt lat="43.9023" lon="1.99029">
        <ele>141.543442</ele>
        <time>2022-05-03T14:12:44.023Z</time>
      </trkpt>
      <trkpt lat="43.90235" lon="1.99029">
        <ele>141.570421</ele>
        <time>2022-05-03T14:12:45.108Z</time>
      </trkpt>
      <trkpt lat="43.90239" lon="1.9902">
        <ele>141.61063</ele>
        <time>2022-05-03T14:12:46.616Z</time>
      </trkpt>
      <trkpt lat="43.90247" lon="1.99019">
        <ele>141.651125</ele>
        <time>2022-05-03T14:12:48.212Z</time>
      </trkpt>
      <trkpt lat="43.90326" lon="1.98943">
        <ele>142.149632</ele>
        <time>2022-05-03T14:13:08.566Z</time>
      </trkpt>
      <trkpt lat="43.90336" lon="1.98926">
        <ele>142.232254</ele>
        <time>2022-05-03T14:13:12.000Z</time>
      </trkpt>
      <trkpt lat="43.90347" lon="1.98878">
        <ele>142.422563</ele>
        <time>2022-05-03T14:13:19.193Z</time>
      </trkpt>
      <trkpt lat="43.9036" lon="1.98858">
        <ele>142.487366</ele>
        <time>2022-05-03T14:13:22.759Z</time>
      </trkpt>
      <trkpt lat="43.9043" lon="1.98812">
        <ele>142.662065</ele>
        <time>2022-05-03T14:13:37.306Z</time>
      </trkpt>
      <trkpt lat="43.90463" lon="1.98797">
        <ele>142.740276</ele>
        <time>2022-05-03T14:13:43.870Z</time>
      </trkpt>
      <trkpt lat="43.9057" lon="1.98776">
        <ele>143.124972</ele>
        <time>2022-05-03T14:14:05.034Z</time>
      </trkpt>
      <trkpt lat="43.90683" lon="1.98776">
        <ele>143.67916</ele>
        <time>2022-05-03T14:14:28.231Z</time>
      </trkpt>
      <trkpt lat="43.90756" lon="1.98836">
        <ele>144.046612</ele>
        <time>2022-05-03T14:14:45.270Z</time>
      </trkpt>
      <trkpt lat="43.90764" lon="1.98842">
        <ele>144.087128</ele>
        <time>2022-05-03T14:14:47.242Z</time>
      </trkpt>
      <trkpt lat="43.90801" lon="1.98866">
        <ele>144.2601</ele>
        <time>2022-05-03T14:14:55.318Z</time>
      </trkpt>
      <trkpt lat="43.90812" lon="1.98969">
        <ele>144.509284</ele>
        <time>2022-05-03T14:15:10.073Z</time>
      </trkpt>
      <trkpt lat="43.90815" lon="1.99049">
        <ele>144.502961</ele>
        <time>2022-05-03T14:15:20.799Z</time>
      </trkpt>
      <trkpt lat="43.90805" lon="1.99096">
        <ele>144.499033</ele>
        <time>2022-05-03T14:15:27.242Z</time>
      </trkpt>
      <trkpt lat="43.9079" lon="1.99171">
        <ele>144.492868</ele>
        <time>2022-05-03T14:15:37.299Z</time>
      </trkpt>
      <trkpt lat="43.90761" lon="1.99259">
        <ele>144.513492</ele>
        <time>2022-05-03T14:15:50.008Z</time>
      </trkpt>
      <trkpt lat="43.90734" lon="1.99375">
        <ele>144.549102</ele>
        <time>2022-05-03T14:16:06.385Z</time>
      </trkpt>
      <trkpt lat="43.90738" lon="1.99423">
        <ele>144.563276</ele>
        <time>2022-05-03T14:16:13.078Z</time>
      </trkpt>
      <trkpt lat="43.90757" lon="1.99492">
        <ele>144.619424</ele>
        <time>2022-05-03T14:16:23.500Z</time>
      </trkpt>
      <trkpt lat="43.90756" lon="1.99506">
        <ele>144.630161</ele>
        <time>2022-05-03T14:16:25.457Z</time>
      </trkpt>
      <trkpt lat="43.90744" lon="1.99533">
        <ele>144.655258</ele>
        <time>2022-05-03T14:16:29.873Z</time>
      </trkpt>
      <trkpt lat="43.90701" lon="1.99576">
        <ele>144.711667</ele>
        <time>2022-05-03T14:16:39.764Z</time>
      </trkpt>
      <trkpt lat="43.90673" lon="1.99618">
        <ele>144.756798</ele>
        <time>2022-05-03T14:16:47.462Z</time>
      </trkpt>
      <trkpt lat="43.90652" lon="1.99698">
        <ele>144.899703</ele>
        <time>2022-05-03T14:16:58.471Z</time>
      </trkpt>
      <trkpt lat="43.90637" lon="1.99817">
        <ele>145.10512</ele>
        <time>2022-05-03T14:17:14.968Z</time>
      </trkpt>
      <trkpt lat="43.90621" lon="1.99829">
        <ele>145.147778</ele>
        <time>2022-05-03T14:17:18.495Z</time>
      </trkpt>
      <trkpt lat="43.90565" lon="1.99818">
        <ele>146.104638</ele>
        <time>2022-05-03T14:17:31.055Z</time>
      </trkpt>
      <trkpt lat="43.9053" lon="1.99828">
        <ele>146.901007</ele>
        <time>2022-05-03T14:17:39.390Z</time>
      </trkpt>
      <trkpt lat="43.9051" lon="1.9986">
        <ele>147.584267</ele>
        <time>2022-05-03T14:17:47.650Z</time>
      </trkpt>
      <trkpt lat="43.90509" lon="1.99906">
        <ele>148.32681</ele>
        <time>2022-05-03T14:17:57.157Z</time>
      </trkpt>
      <trkpt lat="43.90508" lon="1.99967">
        <ele>149.344272</ele>
        <time>2022-05-03T14:18:10.246Z</time>
      </trkpt>
      <trkpt lat="43.90506" lon="2.00036">
        <ele>150.931514</ele>
        <time>2022-05-03T14:18:24.011Z</time>
      </trkpt>
      <trkpt lat="43.90506" lon="2.00065">
        <ele>151.60952</ele>
        <time>2022-05-03T14:18:30.780Z</time>
      </trkpt>
      <trkpt lat="43.905" lon="2.00155">
        <ele>153.692816</ele>
        <time>2022-05-03T14:18:49.900Z</time>
      </trkpt>
      <trkpt lat="43.90508" lon="2.00211">
        <ele>154.979127</ele>
        <time>2022-05-03T14:19:01.595Z</time>
      </trkpt>
      <trkpt lat="43.90507" lon="2.00233">
        <ele>155.256475</ele>
        <time>2022-05-03T14:19:05.537Z</time>
      </trkpt>
      <trkpt lat="43.90496" lon="2.00255">
        <ele>155.583891</ele>
        <time>2022-05-03T14:19:11.189Z</time>
      </trkpt>
      <trkpt lat="43.90482" lon="2.00265">
        <ele>155.859406</ele>
        <time>2022-05-03T14:19:15.223Z</time>
      </trkpt>
      <trkpt lat="43.90465" lon="2.00383">
        <ele>157.374254</ele>
        <time>2022-05-03T14:19:34.429Z</time>
      </trkpt>
      <trkpt lat="43.90451" lon="2.0055">
        <ele>158.679568</ele>
        <time>2022-05-03T14:19:59.684Z</time>
      </trkpt>
      <trkpt lat="43.90418" lon="2.00644">
        <ele>159.246534</ele>
        <time>2022-05-03T14:20:14.516Z</time>
      </trkpt>
      <trkpt lat="43.90406" lon="2.00688">
        <ele>159.473118</ele>
        <time>2022-05-03T14:20:21.107Z</time>
      </trkpt>
      <trkpt lat="43.90401" lon="2.00714">
        <ele>159.565539</ele>
        <time>2022-05-03T14:20:24.953Z</time>
      </trkpt>
      <trkpt lat="43.90392" lon="2.00752">
        <ele>159.700933</ele>
        <time>2022-05-03T14:20:30.516Z</time>
      </trkpt>
      <trkpt lat="43.90389" lon="2.00771">
        <ele>159.765501</ele>
        <time>2022-05-03T14:20:33.196Z</time>
      </trkpt>
      <trkpt lat="43.90377" lon="2.00839">
        <ele>160.001179</ele>
        <time>2022-05-03T14:20:43.003Z</time>
      </trkpt>
      <trkpt lat="43.90366" lon="2.00903">
        <ele>160.224479</ele>
        <time>2022-05-03T14:20:52.199Z</time>
      </trkpt>
      <trkpt lat="43.90361" lon="2.00936">
        <ele>160.282264</ele>
        <time>2022-05-03T14:20:56.636Z</time>
      </trkpt>
      <trkpt lat="43.90352" lon="2.0102">
        <ele>160.344649</ele>
        <time>2022-05-03T14:21:07.791Z</time>
      </trkpt>
      <trkpt lat="43.90338" lon="2.01135">
        <ele>160.429014</ele>
        <time>2022-05-03T14:21:22.906Z</time>
      </trkpt>
      <trkpt lat="43.90317" lon="2.01269">
        <ele>160.301496</ele>
        <time>2022-05-03T14:21:40.072Z</time>
      </trkpt>
      <trkpt lat="43.90305" lon="2.01295">
        <ele>160.259287</ele>
        <time>2022-05-03T14:21:43.935Z</time>
      </trkpt>
      <trkpt lat="43.90289" lon="2.01315">
        <ele>160.219881</ele>
        <time>2022-05-03T14:21:47.607Z</time>
      </trkpt>
      <trkpt lat="43.90307" lon="2.0139">
        <ele>160.113701</ele>
        <time>2022-05-03T14:21:57.263Z</time>
      </trkpt>
      <trkpt lat="43.90324" lon="2.015">
        <ele>159.728266</ele>
        <time>2022-05-03T14:22:11.158Z</time>
      </trkpt>
      <trkpt lat="43.90346" lon="2.01602">
        <ele>159.360385</ele>
        <time>2022-05-03T14:22:23.877Z</time>
      </trkpt>
      <trkpt lat="43.9039" lon="2.017">
        <ele>158.083203</ele>
        <time>2022-05-03T14:22:36.642Z</time>
      </trkpt>
      <trkpt lat="43.9044" lon="2.01673">
        <ele>157.049494</ele>
        <time>2022-05-03T14:22:44.727Z</time>
      </trkpt>
      <trkpt lat="43.9046" lon="2.01671">
        <ele>156.667507</ele>
        <time>2022-05-03T14:22:47.565Z</time>
      </trkpt>
      <trkpt lat="43.90474" lon="2.01673">
        <ele>156.394494</ele>
        <time>2022-05-03T14:22:49.546Z</time>
      </trkpt>
      <trkpt lat="43.9054" lon="2.01724">
        <ele>154.579521</ele>
        <time>2022-05-03T14:22:59.998Z</time>
      </trkpt>
      <trkpt lat="43.90558" lon="2.01731">
        <ele>154.079375</ele>
        <time>2022-05-03T14:23:02.489Z</time>
      </trkpt>
      <trkpt lat="43.906" lon="2.01747">
        <ele>152.887469</ele>
        <time>2022-05-03T14:23:08.481Z</time>
      </trkpt>
      <trkpt lat="43.90634" lon="2.01752">
        <ele>151.975649</ele>
        <time>2022-05-03T14:23:13.246Z</time>
      </trkpt>
      <trkpt lat="43.90673" lon="2.01745">
        <ele>150.928649</ele>
        <time>2022-05-03T14:23:18.830Z</time>
      </trkpt>
      <trkpt lat="43.90836" lon="2.01754">
        <ele>149.142402</ele>
        <time>2022-05-03T14:23:44.893Z</time>
      </trkpt>
      <trkpt lat="43.90839" lon="2.0186">
        <ele>148.889204</ele>
        <time>2022-05-03T14:23:58.981Z</time>
      </trkpt>
      <trkpt lat="43.90846" lon="2.019">
        <ele>148.851032</ele>
        <time>2022-05-03T14:24:04.368Z</time>
      </trkpt>
      <trkpt lat="43.90931" lon="2.02027">
        <ele>148.773275</ele>
        <time>2022-05-03T14:24:27.177Z</time>
      </trkpt>
      <trkpt lat="43.9098" lon="2.02099">
        <ele>148.852568</ele>
        <time>2022-05-03T14:24:40.550Z</time>
      </trkpt>
      <trkpt lat="43.91143" lon="2.02368">
        <ele>149.464715</ele>
        <time>2022-05-03T14:25:30.075Z</time>
      </trkpt>
      <trkpt lat="43.91207" lon="2.02517">
        <ele>149.663855</ele>
        <time>2022-05-03T14:25:53.823Z</time>
      </trkpt>
      <trkpt lat="43.91228" lon="2.02547">
        <ele>149.712433</ele>
        <time>2022-05-03T14:25:59.486Z</time>
      </trkpt>
      <trkpt lat="43.91262" lon="2.0257">
        <ele>149.778357</ele>
        <time>2022-05-03T14:26:06.566Z</time>
      </trkpt>
      <trkpt lat="43.91318" lon="2.02575">
        <ele>149.890423</ele>
        <time>2022-05-03T14:26:16.974Z</time>
      </trkpt>
      <trkpt lat="43.91399" lon="2.02561">
        <ele>150.055457</ele>
        <time>2022-05-03T14:26:32.408Z</time>
      </trkpt>
      <trkpt lat="43.9141" lon="2.02564">
        <ele>150.077303</ele>
        <time>2022-05-03T14:26:34.482Z</time>
      </trkpt>
      <trkpt lat="43.91453" lon="2.0264">
        <ele>150.084722</ele>
        <time>2022-05-03T14:26:46.906Z</time>
      </trkpt>
      <trkpt lat="43.91462" lon="2.02659">
        <ele>150.076242</ele>
        <time>2022-05-03T14:26:49.783Z</time>
      </trkpt>
      <trkpt lat="43.91471" lon="2.02804">
        <ele>150.020935</ele>
        <time>2022-05-03T14:27:08.084Z</time>
      </trkpt>
      <trkpt lat="43.91474" lon="2.02832">
        <ele>150.044282</ele>
        <time>2022-05-03T14:27:11.599Z</time>
      </trkpt>
      <trkpt lat="43.91469" lon="2.02946">
        <ele>150.194191</ele>
        <time>2022-05-03T14:27:25.827Z</time>
      </trkpt>
      <trkpt lat="43.91484" lon="2.02947">
        <ele>150.221597</ele>
        <time>2022-05-03T14:27:28.650Z</time>
      </trkpt>
      <trkpt lat="43.91518" lon="2.02948">
        <ele>150.28414</ele>
        <time>2022-05-03T14:27:35.259Z</time>
      </trkpt>
      <trkpt lat="43.91534" lon="2.02949">
        <ele>150.313715</ele>
        <time>2022-05-03T14:27:38.465Z</time>
      </trkpt>
      <trkpt lat="43.91552" lon="2.02952">
        <ele>150.3474</ele>
        <time>2022-05-03T14:27:42.340Z</time>
      </trkpt>
      <trkpt lat="43.91563" lon="2.02953">
        <ele>150.393564</ele>
        <time>2022-05-03T14:27:44.592Z</time>
      </trkpt>
      <trkpt lat="43.91571" lon="2.02954">
        <ele>150.426601</ele>
        <time>2022-05-03T14:27:46.097Z</time>
      </trkpt>
      <trkpt lat="43.91696" lon="2.02964">
        <ele>150.96317</ele>
        <time>2022-05-03T14:28:10.437Z</time>
      </trkpt>
      <trkpt lat="43.91701" lon="2.02964">
        <ele>150.986752</ele>
        <time>2022-05-03T14:28:11.495Z</time>
      </trkpt>
      <trkpt lat="43.91754" lon="2.02968">
        <ele>151.063225</ele>
        <time>2022-05-03T14:28:20.986Z</time>
      </trkpt>
      <trkpt lat="43.91778" lon="2.02969">
        <ele>151.005453</ele>
        <time>2022-05-03T14:28:25.150Z</time>
      </trkpt>
      <trkpt lat="43.91782" lon="2.02976">
        <ele>150.989633</ele>
        <time>2022-05-03T14:28:26.275Z</time>
      </trkpt>
      <trkpt lat="43.91819" lon="2.03045">
        <ele>150.838202</ele>
        <time>2022-05-03T14:28:36.820Z</time>
      </trkpt>
      <trkpt lat="43.91838" lon="2.0309">
        <ele>150.747384</ele>
        <time>2022-05-03T14:28:42.864Z</time>
      </trkpt>
      <trkpt lat="43.91847" lon="2.03114">
        <ele>150.699963</ele>
        <time>2022-05-03T14:28:46.069Z</time>
      </trkpt>
      <trkpt lat="43.91849" lon="2.03172">
        <ele>150.575657</ele>
        <time>2022-05-03T14:28:52.957Z</time>
      </trkpt>
      <trkpt lat="43.91849" lon="2.03187">
        <ele>150.541616</ele>
        <time>2022-05-03T14:28:54.753Z</time>
      </trkpt>
      <trkpt lat="43.91845" lon="2.03275">
        <ele>150.342539</ele>
        <time>2022-05-03T14:29:05.478Z</time>
      </trkpt>
      <trkpt lat="43.91839" lon="2.03385">
        <ele>150.115989</ele>
        <time>2022-05-03T14:29:19.159Z</time>
      </trkpt>
      <trkpt lat="43.91843" lon="2.03408">
        <ele>150.116</ele>
        <time>2022-05-03T14:29:22.066Z</time>
      </trkpt>
      <trkpt lat="43.91913" lon="2.03544">
        <ele>150.11608</ele>
        <time>2022-05-03T14:29:43.115Z</time>
      </trkpt>
      <trkpt lat="43.91932" lon="2.036">
        <ele>150.164764</ele>
        <time>2022-05-03T14:29:51.453Z</time>
      </trkpt>
      <trkpt lat="43.9194" lon="2.03643">
        <ele>150.336009</ele>
        <time>2022-05-03T14:29:57.759Z</time>
      </trkpt>
      <trkpt lat="43.91943" lon="2.03694">
        <ele>150.529407</ele>
        <time>2022-05-03T14:30:05.159Z</time>
      </trkpt>
      <trkpt lat="43.91941" lon="2.03753">
        <ele>150.752464</ele>
        <time>2022-05-03T14:30:13.589Z</time>
      </trkpt>
      <trkpt lat="43.91925" lon="2.03827">
        <ele>151.044666</ele>
        <time>2022-05-03T14:30:24.555Z</time>
      </trkpt>
      <trkpt lat="43.91914" lon="2.03887">
        <ele>150.982955</ele>
        <time>2022-05-03T14:30:33.189Z</time>
      </trkpt>
      <trkpt lat="43.91906" lon="2.03982">
        <ele>150.851018</ele>
        <time>2022-05-03T14:30:45.437Z</time>
      </trkpt>
      <trkpt lat="43.91893" lon="2.0406">
        <ele>150.739871</ele>
        <time>2022-05-03T14:30:54.681Z</time>
      </trkpt>
      <trkpt lat="43.91896" lon="2.04084">
        <ele>150.664562</ele>
        <time>2022-05-03T14:30:57.457Z</time>
      </trkpt>
      <trkpt lat="43.91909" lon="2.04095">
        <ele>150.527376</ele>
        <time>2022-05-03T14:30:59.756Z</time>
      </trkpt>
      <trkpt lat="43.91958" lon="2.04109">
        <ele>150.07031</ele>
        <time>2022-05-03T14:31:07.397Z</time>
      </trkpt>
      <trkpt lat="43.91981" lon="2.04127">
        <ele>149.827386</ele>
        <time>2022-05-03T14:31:11.462Z</time>
      </trkpt>
      <trkpt lat="43.91989" lon="2.04146">
        <ele>149.686435</ele>
        <time>2022-05-03T14:31:13.829Z</time>
      </trkpt>
      <trkpt lat="43.91989" lon="2.04179">
        <ele>149.467349</ele>
        <time>2022-05-03T14:31:17.531Z</time>
      </trkpt>
      <trkpt lat="43.91997" lon="2.04235">
        <ele>149.093211</ele>
        <time>2022-05-03T14:31:23.884Z</time>
      </trkpt>
      <trkpt lat="43.92027" lon="2.04336">
        <ele>149.153613</ele>
        <time>2022-05-03T14:31:36.998Z</time>
      </trkpt>
      <trkpt lat="43.92061" lon="2.04428">
        <ele>149.231363</ele>
        <time>2022-05-03T14:31:51.620Z</time>
      </trkpt>
      <trkpt lat="43.92081" lon="2.04489">
        <ele>149.369324</ele>
        <time>2022-05-03T14:32:01.331Z</time>
      </trkpt>
      <trkpt lat="43.9211" lon="2.04587">
        <ele>149.785927</ele>
        <time>2022-05-03T14:32:16.840Z</time>
      </trkpt>
      <trkpt lat="43.92161" lon="2.04721">
        <ele>150.221153</ele>
        <time>2022-05-03T14:32:37.498Z</time>
      </trkpt>
      <trkpt lat="43.92216" lon="2.04868">
        <ele>150.105037</ele>
        <time>2022-05-03T14:32:58.126Z</time>
      </trkpt>
      <trkpt lat="43.92227" lon="2.04923">
        <ele>150.065555</ele>
        <time>2022-05-03T14:33:04.952Z</time>
      </trkpt>
      <trkpt lat="43.92243" lon="2.05128">
        <ele>149.935085</ele>
        <time>2022-05-03T14:33:30.740Z</time>
      </trkpt>
      <trkpt lat="43.92253" lon="2.05184">
        <ele>149.954303</ele>
        <time>2022-05-03T14:33:38.416Z</time>
      </trkpt>
      <trkpt lat="43.92323" lon="2.055">
        <ele>150.600978</ele>
        <time>2022-05-03T14:34:22.974Z</time>
      </trkpt>
      <trkpt lat="43.92325" lon="2.05515">
        <ele>150.632547</ele>
        <time>2022-05-03T14:34:24.931Z</time>
      </trkpt>
      <trkpt lat="43.92333" lon="2.05515">
        <ele>150.655796</ele>
        <time>2022-05-03T14:34:26.402Z</time>
      </trkpt>
      <trkpt lat="43.92352" lon="2.05543">
        <ele>150.738609</ele>
        <time>2022-05-03T14:34:31.844Z</time>
      </trkpt>
      <trkpt lat="43.92431" lon="2.05701">
        <ele>151.332374</ele>
        <time>2022-05-03T14:34:59.074Z</time>
      </trkpt>
      <trkpt lat="43.92526" lon="2.05988">
        <ele>152.628429</ele>
        <time>2022-05-03T14:35:46.083Z</time>
      </trkpt>
      <trkpt lat="43.9255" lon="2.06058">
        <ele>152.953136</ele>
        <time>2022-05-03T14:35:57.262Z</time>
      </trkpt>
      <trkpt lat="43.9259" lon="2.06195">
        <ele>153.244101</ele>
        <time>2022-05-03T14:36:18.317Z</time>
      </trkpt>
      <trkpt lat="43.92644" lon="2.06425">
        <ele>153.679996</ele>
        <time>2022-05-03T14:36:51.234Z</time>
      </trkpt>
      <trkpt lat="43.92671" lon="2.06494">
        <ele>153.810696</ele>
        <time>2022-05-03T14:37:02.143Z</time>
      </trkpt>
      <trkpt lat="43.92711" lon="2.06591">
        <ele>154.179015</ele>
        <time>2022-05-03T14:37:18.536Z</time>
      </trkpt>
      <trkpt lat="43.92744" lon="2.06667">
        <ele>154.515691</ele>
        <time>2022-05-03T14:37:31.248Z</time>
      </trkpt>
      <trkpt lat="43.92763" lon="2.0671">
        <ele>154.708707</ele>
        <time>2022-05-03T14:37:38.727Z</time>
      </trkpt>
      <trkpt lat="43.92767" lon="2.06722">
        <ele>154.759024</ele>
        <time>2022-05-03T14:37:40.658Z</time>
      </trkpt>
      <trkpt lat="43.92784" lon="2.06782">
        <ele>154.994606</ele>
        <time>2022-05-03T14:37:50.263Z</time>
      </trkpt>
      <trkpt lat="43.92788" lon="2.06797">
        <ele>155.049866</ele>
        <time>2022-05-03T14:37:52.536Z</time>
      </trkpt>
      <trkpt lat="43.92809" lon="2.06878">
        <ele>155.356924</ele>
        <time>2022-05-03T14:38:05.251Z</time>
      </trkpt>
      <trkpt lat="43.92844" lon="2.06984">
        <ele>155.734518</ele>
        <time>2022-05-03T14:38:21.679Z</time>
      </trkpt>
      <trkpt lat="43.92847" lon="2.07011">
        <ele>155.782425</ele>
        <time>2022-05-03T14:38:25.396Z</time>
      </trkpt>
      <trkpt lat="43.92846" lon="2.0703">
        <ele>155.815005</ele>
        <time>2022-05-03T14:38:28.028Z</time>
      </trkpt>
      <trkpt lat="43.92823" lon="2.0714">
        <ele>156.014774</ele>
        <time>2022-05-03T14:38:44.171Z</time>
      </trkpt>
      <trkpt lat="43.92806" lon="2.07208">
        <ele>156.133473</ele>
        <time>2022-05-03T14:38:54.401Z</time>
      </trkpt>
      <trkpt lat="43.92807" lon="2.07211">
        <ele>156.134592</ele>
        <time>2022-05-03T14:38:54.815Z</time>
      </trkpt>
      <trkpt lat="43.92847" lon="2.07357">
        <ele>156.192897</ele>
        <time>2022-05-03T14:39:15.085Z</time>
      </trkpt>
      <trkpt lat="43.92855" lon="2.07374">
        <ele>156.200199</ele>
        <time>2022-05-03T14:39:17.626Z</time>
      </trkpt>
      <trkpt lat="43.92898" lon="2.07486">
        <ele>156.107186</ele>
        <time>2022-05-03T14:39:33.725Z</time>
      </trkpt>
      <trkpt lat="43.92917" lon="2.07594">
        <ele>155.891456</ele>
        <time>2022-05-03T14:39:47.033Z</time>
      </trkpt>
      <trkpt lat="43.92855" lon="2.07598">
        <ele>155.736949</ele>
        <time>2022-05-03T14:39:57.877Z</time>
      </trkpt>
      <trkpt lat="43.92838" lon="2.07599">
        <ele>155.72459</ele>
        <time>2022-05-03T14:40:00.878Z</time>
      </trkpt>
      <trkpt lat="43.92811" lon="2.07603">
        <ele>155.704806</ele>
        <time>2022-05-03T14:40:05.744Z</time>
      </trkpt>
      <trkpt lat="43.92788" lon="2.07607">
        <ele>155.687632</ele>
        <time>2022-05-03T14:40:09.967Z</time>
      </trkpt>
      <trkpt lat="43.92716" lon="2.07666">
        <ele>155.626269</ele>
        <time>2022-05-03T14:40:25.408Z</time>
      </trkpt>
      <trkpt lat="43.92664" lon="2.077">
        <ele>155.758771</ele>
        <time>2022-05-03T14:40:36.177Z</time>
      </trkpt>
      <trkpt lat="43.92579" lon="2.07738">
        <ele>156.145439</ele>
        <time>2022-05-03T14:40:54.266Z</time>
      </trkpt>
      <trkpt lat="43.92558" lon="2.07742">
        <ele>156.236401</ele>
        <time>2022-05-03T14:40:58.535Z</time>
      </trkpt>
      <trkpt lat="43.92518" lon="2.07755">
        <ele>156.403227</ele>
        <time>2022-05-03T14:41:06.962Z</time>
      </trkpt>
      <trkpt lat="43.92499" lon="2.07758">
        <ele>156.452075</ele>
        <time>2022-05-03T14:41:11.943Z</time>
      </trkpt>
      <trkpt lat="43.9249" lon="2.0776">
        <ele>156.474052</ele>
        <time>2022-05-03T14:41:14.142Z</time>
      </trkpt>
      <trkpt lat="43.9249" lon="2.07766">
        <ele>156.486056</ele>
        <time>2022-05-03T14:41:15.086Z</time>
      </trkpt>
      <trkpt lat="43.92494" lon="2.07827">
        <ele>156.594951</ele>
        <time>2022-05-03T14:41:23.401Z</time>
      </trkpt>
      <trkpt lat="43.92497" lon="2.07854">
        <ele>156.644315</ele>
        <time>2022-05-03T14:41:27.066Z</time>
      </trkpt>
      <trkpt lat="43.92509" lon="2.07933">
        <ele>156.7882</ele>
        <time>2022-05-03T14:41:37.677Z</time>
      </trkpt>
      <trkpt lat="43.92527" lon="2.08055">
        <ele>156.634357</ele>
        <time>2022-05-03T14:41:53.238Z</time>
      </trkpt>
      <trkpt lat="43.9253" lon="2.08111">
        <ele>156.517641</ele>
        <time>2022-05-03T14:42:00.051Z</time>
      </trkpt>
      <trkpt lat="43.92526" lon="2.0816">
        <ele>156.416279</ele>
        <time>2022-05-03T14:42:05.860Z</time>
      </trkpt>
      <trkpt lat="43.92511" lon="2.08237">
        <ele>156.314446</ele>
        <time>2022-05-03T14:42:15.320Z</time>
      </trkpt>
      <trkpt lat="43.92506" lon="2.08297">
        <ele>156.300871</ele>
        <time>2022-05-03T14:42:22.945Z</time>
      </trkpt>
      <trkpt lat="43.92511" lon="2.08441">
        <ele>156.268758</ele>
        <time>2022-05-03T14:42:41.670Z</time>
      </trkpt>
      <trkpt lat="43.92512" lon="2.08529">
        <ele>156.438821</ele>
        <time>2022-05-03T14:42:53.428Z</time>
      </trkpt>
      <trkpt lat="43.92512" lon="2.08577">
        <ele>156.547623</ele>
        <time>2022-05-03T14:42:59.908Z</time>
      </trkpt>
      <trkpt lat="43.92499" lon="2.08708">
        <ele>156.830692</ele>
        <time>2022-05-03T14:43:18.262Z</time>
      </trkpt>
      <trkpt lat="43.92497" lon="2.08722">
        <ele>156.832882</ele>
        <time>2022-05-03T14:43:20.405Z</time>
      </trkpt>
      <trkpt lat="43.925" lon="2.08948">
        <ele>156.86562</ele>
        <time>2022-05-03T14:43:48.987Z</time>
      </trkpt>
      <trkpt lat="43.92508" lon="2.09084">
        <ele>156.91255</ele>
        <time>2022-05-03T14:44:06.037Z</time>
      </trkpt>
      <trkpt lat="43.9251" lon="2.09151">
        <ele>156.935847</ele>
        <time>2022-05-03T14:44:14.802Z</time>
      </trkpt>
      <trkpt lat="43.92543" lon="2.09431">
        <ele>157.43501</ele>
        <time>2022-05-03T14:44:53.876Z</time>
      </trkpt>
      <trkpt lat="43.92571" lon="2.09661">
        <ele>157.261806</ele>
        <time>2022-05-03T14:45:22.421Z</time>
      </trkpt>
      <trkpt lat="43.92582" lon="2.09799">
        <ele>157.50153</ele>
        <time>2022-05-03T14:45:40.281Z</time>
      </trkpt>
      <trkpt lat="43.92586" lon="2.09913">
        <ele>157.786825</ele>
        <time>2022-05-03T14:45:56.377Z</time>
      </trkpt>
      <trkpt lat="43.92582" lon="2.10069">
        <ele>158.393201</ele>
        <time>2022-05-03T14:46:19.082Z</time>
      </trkpt>
      <trkpt lat="43.92577" lon="2.10213">
        <ele>158.977241</ele>
        <time>2022-05-03T14:46:39.059Z</time>
      </trkpt>
      <trkpt lat="43.92578" lon="2.1034">
        <ele>159.424492</ele>
        <time>2022-05-03T14:46:56.550Z</time>
      </trkpt>
      <trkpt lat="43.92607" lon="2.10867">
        <ele>161.762785</ele>
        <time>2022-05-03T14:48:12.110Z</time>
      </trkpt>
      <trkpt lat="43.92615" lon="2.11035">
        <ele>161.962731</ele>
        <time>2022-05-03T14:48:35.771Z</time>
      </trkpt>
      <trkpt lat="43.92617" lon="2.11097">
        <ele>161.888062</ele>
        <time>2022-05-03T14:48:43.612Z</time>
      </trkpt>
      <trkpt lat="43.92888" lon="2.11006">
        <ele>160.391561</ele>
        <time>2022-05-03T14:49:28.802Z</time>
      </trkpt>
      <trkpt lat="43.9288" lon="2.11083">
        <ele>160.699722</ele>
        <time>2022-05-03T14:49:39.530Z</time>
      </trkpt>
      <trkpt lat="43.92881" lon="2.11158">
        <ele>160.998584</ele>
        <time>2022-05-03T14:49:51.074Z</time>
      </trkpt>
      <trkpt lat="43.92877" lon="2.11174">
        <ele>161.065887</ele>
        <time>2022-05-03T14:49:53.971Z</time>
      </trkpt>
      <trkpt lat="43.9287" lon="2.11188">
        <ele>161.133104</ele>
        <time>2022-05-03T14:49:56.917Z</time>
      </trkpt>
      <trkpt lat="43.92866" lon="2.11193">
        <ele>161.16191</ele>
        <time>2022-05-03T14:49:58.047Z</time>
      </trkpt>
      <trkpt lat="43.92843" lon="2.11219">
        <ele>161.742018</ele>
        <time>2022-05-03T14:50:05.669Z</time>
      </trkpt>
      <trkpt lat="43.92838" lon="2.11228">
        <ele>161.934854</ele>
        <time>2022-05-03T14:50:07.616Z</time>
      </trkpt>
      <trkpt lat="43.92834" lon="2.11237">
        <ele>162.119366</ele>
        <time>2022-05-03T14:50:09.586Z</time>
      </trkpt>
      <trkpt lat="43.92827" lon="2.11358">
        <ele>164.187846</ele>
        <time>2022-05-03T14:50:33.019Z</time>
      </trkpt>
      <trkpt lat="43.92818" lon="2.11402">
        <ele>164.971472</ele>
        <time>2022-05-03T14:50:42.138Z</time>
      </trkpt>
      <trkpt lat="43.92802" lon="2.11447">
        <ele>165.758106</ele>
        <time>2022-05-03T14:50:51.768Z</time>
      </trkpt>
      <trkpt lat="43.92795" lon="2.11467">
        <ele>166.055026</ele>
        <time>2022-05-03T14:50:55.943Z</time>
      </trkpt>
      <trkpt lat="43.92764" lon="2.11587">
        <ele>167.818928</ele>
        <time>2022-05-03T14:51:19.325Z</time>
      </trkpt>
      <trkpt lat="43.92741" lon="2.11695">
        <ele>169.02214</ele>
        <time>2022-05-03T14:51:37.599Z</time>
      </trkpt>
      <trkpt lat="43.92729" lon="2.1175">
        <ele>169.214032</ele>
        <time>2022-05-03T14:51:46.312Z</time>
      </trkpt>
      <trkpt lat="43.9272" lon="2.118">
        <ele>169.383136</ele>
        <time>2022-05-03T14:51:53.677Z</time>
      </trkpt>
      <trkpt lat="43.927" lon="2.11906">
        <ele>169.739927</ele>
        <time>2022-05-03T14:52:08.379Z</time>
      </trkpt>
      <trkpt lat="43.92688" lon="2.12003">
        <ele>169.763197</ele>
        <time>2022-05-03T14:52:20.873Z</time>
      </trkpt>
      <trkpt lat="43.92666" lon="2.12162">
        <ele>169.851874</ele>
        <time>2022-05-03T14:52:42.730Z</time>
      </trkpt>
      <trkpt lat="43.92633" lon="2.12343">
        <ele>170.656243</ele>
        <time>2022-05-03T14:53:10.460Z</time>
      </trkpt>
      <trkpt lat="43.92613" lon="2.12352">
        <ele>170.782235</ele>
        <time>2022-05-03T14:53:14.816Z</time>
      </trkpt>
      <trkpt lat="43.9262" lon="2.12373">
        <ele>170.885035</ele>
        <time>2022-05-03T14:53:18.331Z</time>
      </trkpt>
      <trkpt lat="43.9262" lon="2.12384">
        <ele>170.930503</ele>
        <time>2022-05-03T14:53:19.834Z</time>
      </trkpt>
      <trkpt lat="43.92616" lon="2.12408">
        <ele>171.041306</ele>
        <time>2022-05-03T14:53:23.513Z</time>
      </trkpt>
      <trkpt lat="43.92615" lon="2.12542">
        <ele>171.63797</ele>
        <time>2022-05-03T14:53:42.675Z</time>
      </trkpt>
      <trkpt lat="43.92614" lon="2.12609">
        <ele>171.937476</ele>
        <time>2022-05-03T14:53:52.009Z</time>
      </trkpt>
      <trkpt lat="43.92616" lon="2.12826">
        <ele>172.569172</ele>
        <time>2022-05-03T14:54:21.913Z</time>
      </trkpt>
      <trkpt lat="43.92616" lon="2.12836">
        <ele>172.596945</ele>
        <time>2022-05-03T14:54:23.294Z</time>
      </trkpt>
      <trkpt lat="43.92617" lon="2.12846">
        <ele>172.625609</ele>
        <time>2022-05-03T14:54:24.732Z</time>
      </trkpt>
      <trkpt lat="43.92619" lon="2.12985">
        <ele>172.8638</ele>
        <time>2022-05-03T14:54:43.318Z</time>
      </trkpt>
      <trkpt lat="43.92619" lon="2.1302">
        <ele>172.914899</ele>
        <time>2022-05-03T14:54:47.897Z</time>
      </trkpt>
      <trkpt lat="43.92619" lon="2.13024">
        <ele>172.921281</ele>
        <time>2022-05-03T14:54:48.456Z</time>
      </trkpt>
      <trkpt lat="43.92618" lon="2.13051">
        <ele>172.960991</ele>
        <time>2022-05-03T14:54:51.992Z</time>
      </trkpt>
      <trkpt lat="43.9261" lon="2.13058">
        <ele>172.981668</ele>
        <time>2022-05-03T14:54:53.799Z</time>
      </trkpt>
      <trkpt lat="43.92606" lon="2.13068">
        <ele>172.99845</ele>
        <time>2022-05-03T14:54:55.259Z</time>
      </trkpt>
      <trkpt lat="43.92608" lon="2.13082">
        <ele>173.020485</ele>
        <time>2022-05-03T14:54:57.139Z</time>
      </trkpt>
      <trkpt lat="43.92619" lon="2.13087">
        <ele>173.043117</ele>
        <time>2022-05-03T14:54:59.132Z</time>
      </trkpt>
      <trkpt lat="43.92645" lon="2.13315">
        <ele>173.544395</ele>
        <time>2022-05-03T14:55:29.801Z</time>
      </trkpt>
      <trkpt lat="43.92662" lon="2.13413">
        <ele>173.692501</ele>
        <time>2022-05-03T14:55:44.237Z</time>
      </trkpt>
      <trkpt lat="43.9267" lon="2.13449">
        <ele>173.735176</ele>
        <time>2022-05-03T14:55:49.792Z</time>
      </trkpt>
      <trkpt lat="43.92691" lon="2.1355">
        <ele>173.852272</ele>
        <time>2022-05-03T14:56:04.195Z</time>
      </trkpt>
      <trkpt lat="43.92705" lon="2.13677">
        <ele>172.655627</ele>
        <time>2022-05-03T14:56:18.859Z</time>
      </trkpt>
      <trkpt lat="43.92708" lon="2.13703">
        <ele>172.294322</ele>
        <time>2022-05-03T14:56:21.777Z</time>
      </trkpt>
      <trkpt lat="43.92707" lon="2.13727">
        <ele>171.972006</ele>
        <time>2022-05-03T14:56:24.182Z</time>
      </trkpt>
      <trkpt lat="43.92702" lon="2.13826">
        <ele>170.612736</ele>
        <time>2022-05-03T14:56:34.575Z</time>
      </trkpt>
      <trkpt lat="43.92729" lon="2.13865">
        <ele>169.83471</ele>
        <time>2022-05-03T14:56:39.986Z</time>
      </trkpt>
      <trkpt lat="43.92691" lon="2.13895">
        <ele>168.971055</ele>
        <time>2022-05-03T14:56:45.811Z</time>
      </trkpt>
      <trkpt lat="43.92684" lon="2.1391">
        <ele>168.714459</ele>
        <time>2022-05-03T14:56:47.561Z</time>
      </trkpt>
      <trkpt lat="43.92686" lon="2.13925">
        <ele>168.491286</ele>
        <time>2022-05-03T14:56:49.273Z</time>
      </trkpt>
      <trkpt lat="43.92694" lon="2.13932">
        <ele>168.302316</ele>
        <time>2022-05-03T14:56:50.645Z</time>
      </trkpt>
      <trkpt lat="43.92715" lon="2.13935">
        <ele>167.887124</ele>
        <time>2022-05-03T14:56:53.703Z</time>
      </trkpt>
      <trkpt lat="43.92729" lon="2.13924">
        <ele>167.561382</ele>
        <time>2022-05-03T14:56:56.355Z</time>
      </trkpt>
      <trkpt lat="43.92742" lon="2.13901">
        <ele>167.14081</ele>
        <time>2022-05-03T14:56:59.731Z</time>
      </trkpt>
      <trkpt lat="43.92765" lon="2.13929">
        <ele>167.317894</ele>
        <time>2022-05-03T14:57:05.638Z</time>
      </trkpt>
      <trkpt lat="43.92781" lon="2.13948">
        <ele>167.754802</ele>
        <time>2022-05-03T14:57:10.283Z</time>
      </trkpt>
      <trkpt lat="43.92785" lon="2.13965">
        <ele>168.04592</ele>
        <time>2022-05-03T14:57:12.793Z</time>
      </trkpt>
      <trkpt lat="43.92793" lon="2.13981">
        <ele>168.333197</ele>
        <time>2022-05-03T14:57:16.106Z</time>
      </trkpt>
      <trkpt lat="43.92793" lon="2.14">
        <ele>168.635521</ele>
        <time>2022-05-03T14:57:19.370Z</time>
      </trkpt>
      <trkpt lat="43.92775" lon="2.14097">
        <ele>170.195815</ele>
        <time>2022-05-03T14:57:38.522Z</time>
      </trkpt>
      <trkpt lat="43.9278" lon="2.14098">
        <ele>170.307479</ele>
        <time>2022-05-03T14:57:39.976Z</time>
      </trkpt>
      <trkpt lat="43.92782" lon="2.14109">
        <ele>170.480714</ele>
        <time>2022-05-03T14:57:42.648Z</time>
      </trkpt>
      <trkpt lat="43.92788" lon="2.14106">
        <ele>170.609581</ele>
        <time>2022-05-03T14:57:50.078Z</time>
      </trkpt>
      <trkpt lat="43.92795" lon="2.14132">
        <ele>171.219071</ele>
        <time>2022-05-03T14:57:56.351Z</time>
      </trkpt>
      <trkpt lat="43.92806" lon="2.14175">
        <ele>172.473207</ele>
        <time>2022-05-03T14:58:07.664Z</time>
      </trkpt>
      <trkpt lat="43.92809" lon="2.14186">
        <ele>172.796135</ele>
        <time>2022-05-03T14:58:10.425Z</time>
      </trkpt>
      <trkpt lat="43.92822" lon="2.14186">
        <ele>173.301081</ele>
        <time>2022-05-03T14:58:14.592Z</time>
      </trkpt>
      <trkpt lat="43.92816" lon="2.14228">
        <ele>174.454098</ele>
        <time>2022-05-03T14:58:24.335Z</time>
      </trkpt>
      <trkpt lat="43.92817" lon="2.14366">
        <ele>177.897033</ele>
        <time>2022-05-03T14:58:53.797Z</time>
      </trkpt>
      <trkpt lat="43.92851" lon="2.14366">
        <ele>178.462949</ele>
        <time>2022-05-03T14:59:02.554Z</time>
      </trkpt>
      <trkpt lat="43.92855" lon="2.14366">
        <ele>178.530532</ele>
        <time>2022-05-03T14:59:03.519Z</time>
      </trkpt>
      <trkpt lat="43.92851" lon="2.14366">
        <ele>178.598114</ele>
        <time>2022-05-03T14:59:04.507Z</time>
      </trkpt>
      <trkpt lat="43.92851" lon="2.14398">
        <ele>178.991383</ele>
        <time>2022-05-03T14:59:20.697Z</time>
      </trkpt>
      <trkpt lat="43.9285" lon="2.14404">
        <ele>179.065126</ele>
        <time>2022-05-03T14:59:23.710Z</time>
      </trkpt>
      <trkpt lat="43.92831" lon="2.14405">
        <ele>179.399686</ele>
        <time>2022-05-03T14:59:37.503Z</time>
      </trkpt>
      <trkpt lat="43.92831" lon="2.14436">
        <ele>179.78418</ele>
        <time>2022-05-03T14:59:53.281Z</time>
      </trkpt>
      <trkpt lat="43.92831" lon="2.14439">
        <ele>179.813428</ele>
        <time>2022-05-03T14:59:54.499Z</time>
      </trkpt>
      <trkpt lat="43.92833" lon="2.14498">
        <ele>180.539117</ele>
        <time>2022-05-03T15:00:24.370Z</time>
      </trkpt>
      <trkpt lat="43.92834" lon="2.14534">
        <ele>180.588173</ele>
        <time>2022-05-03T15:00:42.193Z</time>
      </trkpt>
      <trkpt lat="43.92834" lon="2.14551">
        <ele>180.53658</ele>
        <time>2022-05-03T15:00:50.834Z</time>
      </trkpt>
      <trkpt lat="43.92802" lon="2.14542">
        <ele>180.398699</ele>
        <time>2022-05-03T15:00:57.076Z</time>
      </trkpt>
      <trkpt lat="43.92786" lon="2.14533">
        <ele>180.330626</ele>
        <time>2022-05-03T15:00:59.879Z</time>
      </trkpt>
      <trkpt lat="43.9278" lon="2.1457">
        <ele>180.219164</ele>
        <time>2022-05-03T15:01:04.677Z</time>
      </trkpt>
      <trkpt lat="43.92767" lon="2.14595">
        <ele>180.127279</ele>
        <time>2022-05-03T15:01:08.393Z</time>
      </trkpt>
      <trkpt lat="43.92751" lon="2.14601">
        <ele>180.059144</ele>
        <time>2022-05-03T15:01:11.022Z</time>
      </trkpt>
      <trkpt lat="43.92745" lon="2.14623">
        <ele>179.99108</ele>
        <time>2022-05-03T15:01:13.644Z</time>
      </trkpt>
      <trkpt lat="43.92713" lon="2.14615">
        <ele>179.639891</ele>
        <time>2022-05-03T15:01:18.536Z</time>
      </trkpt>
      <trkpt lat="43.92693" lon="2.14611">
        <ele>179.25626</ele>
        <time>2022-05-03T15:01:21.503Z</time>
      </trkpt>
      <trkpt lat="43.92676" lon="2.14604">
        <ele>178.918724</ele>
        <time>2022-05-03T15:01:24.083Z</time>
      </trkpt>
      <trkpt lat="43.92666" lon="2.146">
        <ele>178.716089</ele>
        <time>2022-05-03T15:01:25.573Z</time>
      </trkpt>
      <trkpt lat="43.92658" lon="2.1461">
        <ele>178.510693</ele>
        <time>2022-05-03T15:01:27.146Z</time>
      </trkpt>
      <trkpt lat="43.92647" lon="2.14603">
        <ele>178.280563</ele>
        <time>2022-05-03T15:01:28.848Z</time>
      </trkpt>
      <trkpt lat="43.9257" lon="2.14565">
        <ele>176.738398</ele>
        <time>2022-05-03T15:01:40.013Z</time>
      </trkpt>
      <trkpt lat="43.92568" lon="2.1455">
        <ele>176.523551</ele>
        <time>2022-05-03T15:01:41.587Z</time>
      </trkpt>
      <trkpt lat="43.92577" lon="2.14519">
        <ele>176.37954</ele>
        <time>2022-05-03T15:01:45.058Z</time>
      </trkpt>
      <trkpt lat="43.92588" lon="2.14475">
        <ele>176.201976</ele>
        <time>2022-05-03T15:01:50.017Z</time>
      </trkpt>
      <trkpt lat="43.9259" lon="2.14468">
        <ele>176.172057</ele>
        <time>2022-05-03T15:01:50.860Z</time>
      </trkpt>
      <trkpt lat="43.92476" lon="2.14477">
        <ele>175.567886</ele>
        <time>2022-05-03T15:03:09.799Z</time>
      </trkpt>
      <trkpt lat="43.92471" lon="2.14477">
        <ele>175.546293</ele>
        <time>2022-05-03T15:03:13.356Z</time>
      </trkpt>
      <trkpt lat="43.92414" lon="2.14486">
        <ele>175.954619</ele>
        <time>2022-05-03T15:03:28.696Z</time>
      </trkpt>
      <trkpt lat="43.92355" lon="2.14495">
        <ele>176.37006</ele>
        <time>2022-05-03T15:03:44.201Z</time>
      </trkpt>
      <trkpt lat="43.92346" lon="2.14496">
        <ele>176.432427</ele>
        <time>2022-05-03T15:03:46.452Z</time>
      </trkpt>
      <trkpt lat="43.92332" lon="2.14537">
        <ele>176.659236</ele>
        <time>2022-05-03T15:03:54.672Z</time>
      </trkpt>
      <trkpt lat="43.92319" lon="2.145">
        <ele>176.83134</ele>
        <time>2022-05-03T15:04:02.241Z</time>
      </trkpt>
      <trkpt lat="43.92271" lon="2.14508">
        <ele>176.958244</ele>
        <time>2022-05-03T15:04:14.298Z</time>
      </trkpt>
      <trkpt lat="43.92268" lon="2.14457">
        <ele>177.054875</ele>
        <time>2022-05-03T15:04:21.097Z</time>
      </trkpt>
      <trkpt lat="43.92267" lon="2.14442">
        <ele>177.083466</ele>
        <time>2022-05-03T15:04:23.044Z</time>
      </trkpt>
      <trkpt lat="43.92254" lon="2.14432">
        <ele>177.123398</ele>
        <time>2022-05-03T15:04:41.713Z</time>
      </trkpt>
      <trkpt lat="43.92223" lon="2.1442">
        <ele>177.206724</ele>
        <time>2022-05-03T15:04:47.413Z</time>
      </trkpt>
      <trkpt lat="43.92176" lon="2.1442">
        <ele>177.347196</ele>
        <time>2022-05-03T15:04:56.096Z</time>
      </trkpt>
      <trkpt lat="43.92172" lon="2.1442">
        <ele>177.359264</ele>
        <time>2022-05-03T15:04:56.801Z</time>
      </trkpt>
      <trkpt lat="43.92125" lon="2.14404">
        <ele>177.526002</ele>
        <time>2022-05-03T15:05:05.657Z</time>
      </trkpt>
      <trkpt lat="43.92065" lon="2.14369">
        <ele>177.75228</ele>
        <time>2022-05-03T15:05:18.512Z</time>
      </trkpt>
      <trkpt lat="43.92025" lon="2.14351">
        <ele>177.896186</ele>
        <time>2022-05-03T15:05:26.506Z</time>
      </trkpt>
      <trkpt lat="43.92019" lon="2.14345">
        <ele>177.905525</ele>
        <time>2022-05-03T15:05:27.856Z</time>
      </trkpt>
      <trkpt lat="43.92012" lon="2.14341">
        <ele>177.907404</ele>
        <time>2022-05-03T15:05:29.386Z</time>
      </trkpt>
      <trkpt lat="43.91902" lon="2.14279">
        <ele>177.935929</ele>
        <time>2022-05-03T15:05:51.586Z</time>
      </trkpt>
      <trkpt lat="43.91895" lon="2.14275">
        <ele>177.937923</ele>
        <time>2022-05-03T15:05:52.985Z</time>
      </trkpt>
      <trkpt lat="43.91869" lon="2.14258">
        <ele>177.944838</ele>
        <time>2022-05-03T15:05:58.224Z</time>
      </trkpt>
      <trkpt lat="43.91864" lon="2.14256">
        <ele>177.946156</ele>
        <time>2022-05-03T15:05:59.115Z</time>
      </trkpt>
      <trkpt lat="43.91803" lon="2.14223">
        <ele>177.772199</ele>
        <time>2022-05-03T15:06:10.465Z</time>
      </trkpt>
      <trkpt lat="43.91731" lon="2.14203">
        <ele>177.548359</ele>
        <time>2022-05-03T15:06:23.197Z</time>
      </trkpt>
      <trkpt lat="43.917" lon="2.14197">
        <ele>177.453112</ele>
        <time>2022-05-03T15:06:28.571Z</time>
      </trkpt>
      <trkpt lat="43.91521" lon="2.1416">
        <ele>177.599205</ele>
        <time>2022-05-03T15:07:02.689Z</time>
      </trkpt>
      <trkpt lat="43.91515" lon="2.14144">
        <ele>177.614663</ele>
        <time>2022-05-03T15:07:05.329Z</time>
      </trkpt>
      <trkpt lat="43.91529" lon="2.13991">
        <ele>178.319069</ele>
        <time>2022-05-03T15:07:28.336Z</time>
      </trkpt>
      <trkpt lat="43.91515" lon="2.13972">
        <ele>178.44332</ele>
        <time>2022-05-03T15:07:32.373Z</time>
      </trkpt>
      <trkpt lat="43.91484" lon="2.13934">
        <ele>178.710306</ele>
        <time>2022-05-03T15:07:41.231Z</time>
      </trkpt>
      <trkpt lat="43.9144" lon="2.13877">
        <ele>178.80124</ele>
        <time>2022-05-03T15:07:53.503Z</time>
      </trkpt>
      <trkpt lat="43.91418" lon="2.13861">
        <ele>178.81253</ele>
        <time>2022-05-03T15:07:58.416Z</time>
      </trkpt>
      <trkpt lat="43.91359" lon="2.13841">
        <ele>178.839413</ele>
        <time>2022-05-03T15:08:09.209Z</time>
      </trkpt>
      <trkpt lat="43.91332" lon="2.13831">
        <ele>178.85209</ele>
        <time>2022-05-03T15:08:14.142Z</time>
      </trkpt>
      <trkpt lat="43.91306" lon="2.13824">
        <ele>178.795722</ele>
        <time>2022-05-03T15:08:18.667Z</time>
      </trkpt>
      <trkpt lat="43.91298" lon="2.13805">
        <ele>178.689672</ele>
        <time>2022-05-03T15:08:21.363Z</time>
      </trkpt>
      <trkpt lat="43.91295" lon="2.13793">
        <ele>178.624655</ele>
        <time>2022-05-03T15:08:23.047Z</time>
      </trkpt>
      <trkpt lat="43.91281" lon="2.13736">
        <ele>178.332389</ele>
        <time>2022-05-03T15:08:30.321Z</time>
      </trkpt>
      <trkpt lat="43.9128" lon="2.13732">
        <ele>178.31642</ele>
        <time>2022-05-03T15:08:30.715Z</time>
      </trkpt>
      <trkpt lat="43.91274" lon="2.1371">
        <ele>178.199567</ele>
        <time>2022-05-03T15:08:33.528Z</time>
      </trkpt>
      <trkpt lat="43.91261" lon="2.13655">
        <ele>177.922076</ele>
        <time>2022-05-03T15:08:40.046Z</time>
      </trkpt>
      <trkpt lat="43.91261" lon="2.13652">
        <ele>177.906783</ele>
        <time>2022-05-03T15:08:40.424Z</time>
      </trkpt>
      <trkpt lat="43.91255" lon="2.13629">
        <ele>177.785179</ele>
        <time>2022-05-03T15:08:43.346Z</time>
      </trkpt>
      <trkpt lat="43.91242" lon="2.13577">
        <ele>177.853642</ele>
        <time>2022-05-03T15:08:49.988Z</time>
      </trkpt>
      <trkpt lat="43.91241" lon="2.13573">
        <ele>177.887183</ele>
        <time>2022-05-03T15:08:50.534Z</time>
      </trkpt>
      <trkpt lat="43.91231" lon="2.13522">
        <ele>178.294462</ele>
        <time>2022-05-03T15:08:57.750Z</time>
      </trkpt>
      <trkpt lat="43.91243" lon="2.13479">
        <ele>178.65145</ele>
        <time>2022-05-03T15:09:05.194Z</time>
      </trkpt>
      <trkpt lat="43.9122" lon="2.13461">
        <ele>178.931164</ele>
        <time>2022-05-03T15:09:11.533Z</time>
      </trkpt>
      <trkpt lat="43.91176" lon="2.13452">
        <ele>179.416151</ele>
        <time>2022-05-03T15:09:22.318Z</time>
      </trkpt>
      <trkpt lat="43.91138" lon="2.13445">
        <ele>180.143747</ele>
        <time>2022-05-03T15:09:32.390Z</time>
      </trkpt>
      <trkpt lat="43.91122" lon="2.13455">
        <ele>180.554317</ele>
        <time>2022-05-03T15:09:37.198Z</time>
      </trkpt>
      <trkpt lat="43.91098" lon="2.13497">
        <ele>181.497439</ele>
        <time>2022-05-03T15:09:48.026Z</time>
      </trkpt>
      <trkpt lat="43.91097" lon="2.13499">
        <ele>181.544697</ele>
        <time>2022-05-03T15:09:48.552Z</time>
      </trkpt>
      <trkpt lat="43.91087" lon="2.13484">
        <ele>181.897656</ele>
        <time>2022-05-03T15:09:52.384Z</time>
      </trkpt>
      <trkpt lat="43.91089" lon="2.13419">
        <ele>183.044111</ele>
        <time>2022-05-03T15:10:04.903Z</time>
      </trkpt>
      <trkpt lat="43.91055" lon="2.13399">
        <ele>183.964783</ele>
        <time>2022-05-03T15:10:16.551Z</time>
      </trkpt>
      <trkpt lat="43.91051" lon="2.13443">
        <ele>184.140472</ele>
        <time>2022-05-03T15:10:24.079Z</time>
      </trkpt>
      <trkpt lat="43.91044" lon="2.13557">
        <ele>184.545998</ele>
        <time>2022-05-03T15:10:40.326Z</time>
      </trkpt>
      <trkpt lat="43.91026" lon="2.13615">
        <ele>184.77003</ele>
        <time>2022-05-03T15:10:48.586Z</time>
      </trkpt>
      <trkpt lat="43.91012" lon="2.13656">
        <ele>184.891022</ele>
        <time>2022-05-03T15:10:54.094Z</time>
      </trkpt>
      <trkpt lat="43.90999" lon="2.13693">
        <ele>184.938788</ele>
        <time>2022-05-03T15:10:59.178Z</time>
      </trkpt>
      <trkpt lat="43.90963" lon="2.13787">
        <ele>185.063536</ele>
        <time>2022-05-03T15:11:13.393Z</time>
      </trkpt>
      <trkpt lat="43.90945" lon="2.13817">
        <ele>185.109152</ele>
        <time>2022-05-03T15:11:18.917Z</time>
      </trkpt>
      <trkpt lat="43.90892" lon="2.13877">
        <ele>185.717213</ele>
        <time>2022-05-03T15:11:33.660Z</time>
      </trkpt>
      <trkpt lat="43.90865" lon="2.13897">
        <ele>186.216228</ele>
        <time>2022-05-03T15:11:40.963Z</time>
      </trkpt>
      <trkpt lat="43.90838" lon="2.13915">
        <ele>186.6896</ele>
        <time>2022-05-03T15:11:48.076Z</time>
      </trkpt>
      <trkpt lat="43.90833" lon="2.13919">
        <ele>186.776126</ele>
        <time>2022-05-03T15:11:49.396Z</time>
      </trkpt>
      <trkpt lat="43.90752" lon="2.13975">
        <ele>188.296681</ele>
        <time>2022-05-03T15:12:11.873Z</time>
      </trkpt>
      <trkpt lat="43.90616" lon="2.14055">
        <ele>191.464751</ele>
        <time>2022-05-03T15:12:49.609Z</time>
      </trkpt>
      <trkpt lat="43.90587" lon="2.14053">
        <ele>192.119849</ele>
        <time>2022-05-03T15:12:56.999Z</time>
      </trkpt>
      <trkpt lat="43.90548" lon="2.14075">
        <ele>193.119861</ele>
        <time>2022-05-03T15:13:07.585Z</time>
      </trkpt>
      <trkpt lat="43.90508" lon="2.14079">
        <ele>194.072307</ele>
        <time>2022-05-03T15:13:17.708Z</time>
      </trkpt>
      <trkpt lat="43.90503" lon="2.14079">
        <ele>194.19437</ele>
        <time>2022-05-03T15:13:19.099Z</time>
      </trkpt>
      <trkpt lat="43.9048" lon="2.14148">
        <ele>195.509761</ele>
        <time>2022-05-03T15:13:32.722Z</time>
      </trkpt>
      <trkpt lat="43.90356" lon="2.14272">
        <ele>201.000891</ele>
        <time>2022-05-03T15:14:18.027Z</time>
      </trkpt>
      <trkpt lat="43.90323" lon="2.14286">
        <ele>202.346369</ele>
        <time>2022-05-03T15:14:29.334Z</time>
      </trkpt>
      <trkpt lat="43.90263" lon="2.14321">
        <ele>204.818077</ele>
        <time>2022-05-03T15:14:52.779Z</time>
      </trkpt>
      <trkpt lat="43.90214" lon="2.14375">
        <ele>207.147826</ele>
        <time>2022-05-03T15:15:14.203Z</time>
      </trkpt>
      <trkpt lat="43.90158" lon="2.14386">
        <ele>209.243768</ele>
        <time>2022-05-03T15:15:30.199Z</time>
      </trkpt>
      <trkpt lat="43.90141" lon="2.14371">
        <ele>209.83052</ele>
        <time>2022-05-03T15:15:35.887Z</time>
      </trkpt>
      <trkpt lat="43.90039" lon="2.14531">
        <ele>208.087873</ele>
        <time>2022-05-03T15:16:00.871Z</time>
      </trkpt>
      <trkpt lat="43.90031" lon="2.14537">
        <ele>207.978423</ele>
        <time>2022-05-03T15:16:02.893Z</time>
      </trkpt>
      <trkpt lat="43.90003" lon="2.14601">
        <ele>206.149465</ele>
        <time>2022-05-03T15:16:14.922Z</time>
      </trkpt>
      <trkpt lat="43.89983" lon="2.14634">
        <ele>204.852163</ele>
        <time>2022-05-03T15:16:21.896Z</time>
      </trkpt>
      <trkpt lat="43.89953" lon="2.14665">
        <ele>203.266497</ele>
        <time>2022-05-03T15:16:30.518Z</time>
      </trkpt>
      <trkpt lat="43.89928" lon="2.14675">
        <ele>202.188904</ele>
        <time>2022-05-03T15:16:36.099Z</time>
      </trkpt>
      <trkpt lat="43.89902" lon="2.14695">
        <ele>200.968472</ele>
        <time>2022-05-03T15:16:42.657Z</time>
      </trkpt>
      <trkpt lat="43.89898" lon="2.14709">
        <ele>200.512221</ele>
        <time>2022-05-03T15:16:45.253Z</time>
      </trkpt>
      <trkpt lat="43.8993" lon="2.14774">
        <ele>199.149853</ele>
        <time>2022-05-03T15:16:58.300Z</time>
      </trkpt>
      <trkpt lat="43.89934" lon="2.14793">
        <ele>198.837468</ele>
        <time>2022-05-03T15:17:01.664Z</time>
      </trkpt>
      <trkpt lat="43.8993" lon="2.14803">
        <ele>198.654565</ele>
        <time>2022-05-03T15:17:03.655Z</time>
      </trkpt>
      <trkpt lat="43.89893" lon="2.14834">
        <ele>197.671996</ele>
        <time>2022-05-03T15:17:14.202Z</time>
      </trkpt>
      <trkpt lat="43.89843" lon="2.14868">
        <ele>196.424267</ele>
        <time>2022-05-03T15:17:29.561Z</time>
      </trkpt>
      <trkpt lat="43.89789" lon="2.14906">
        <ele>196.501048</ele>
        <time>2022-05-03T15:17:40.402Z</time>
      </trkpt>
      <trkpt lat="43.89611" lon="2.1505">
        <ele>197.375585</ele>
        <time>2022-05-03T15:18:24.114Z</time>
      </trkpt>
      <trkpt lat="43.89535" lon="2.15106">
        <ele>197.737525</ele>
        <time>2022-05-03T15:18:40.430Z</time>
      </trkpt>
      <trkpt lat="43.89546" lon="2.15137">
        <ele>197.826196</ele>
        <time>2022-05-03T15:18:44.553Z</time>
      </trkpt>
      <trkpt lat="43.89507" lon="2.15152">
        <ele>197.939094</ele>
        <time>2022-05-03T15:18:51.783Z</time>
      </trkpt>
      <trkpt lat="43.89152" lon="2.15262">
        <ele>200.206172</ele>
        <time>2022-05-03T15:20:01.055Z</time>
      </trkpt>
      <trkpt lat="43.89087" lon="2.15282">
        <ele>201.620536</ele>
        <time>2022-05-03T15:20:17.831Z</time>
      </trkpt>
      <trkpt lat="43.88856" lon="2.15353">
        <ele>208.670954</ele>
        <time>2022-05-03T15:21:26.396Z</time>
      </trkpt>
      <trkpt lat="43.88746" lon="2.15388">
        <ele>210.945445</ele>
        <time>2022-05-03T15:21:53.990Z</time>
      </trkpt>
      <trkpt lat="43.88724" lon="2.15395">
        <ele>211.385323</ele>
        <time>2022-05-03T15:21:58.990Z</time>
      </trkpt>
      <trkpt lat="43.88717" lon="2.15402">
        <ele>211.546697</ele>
        <time>2022-05-03T15:22:00.784Z</time>
      </trkpt>
      <trkpt lat="43.88713" lon="2.15424">
        <ele>211.877652</ele>
        <time>2022-05-03T15:22:04.713Z</time>
      </trkpt>
      <trkpt lat="43.88707" lon="2.15426">
        <ele>211.987328</ele>
        <time>2022-05-03T15:22:05.906Z</time>
      </trkpt>
      <trkpt lat="43.88694" lon="2.15426">
        <ele>212.250408</ele>
        <time>2022-05-03T15:22:09.574Z</time>
      </trkpt>
      <trkpt lat="43.88691" lon="2.15431">
        <ele>212.341399</ele>
        <time>2022-05-03T15:22:10.889Z</time>
      </trkpt>
      <trkpt lat="43.88658" lon="2.15519">
        <ele>213.637914</ele>
        <time>2022-05-03T15:22:31.087Z</time>
      </trkpt>
      <trkpt lat="43.88638" lon="2.15599">
        <ele>214.728849</ele>
        <time>2022-05-03T15:22:46.372Z</time>
      </trkpt>
      <trkpt lat="43.88629" lon="2.15654">
        <ele>215.459678</ele>
        <time>2022-05-03T15:22:57.412Z</time>
      </trkpt>
      <trkpt lat="43.88617" lon="2.15868">
        <ele>218.969415</ele>
        <time>2022-05-03T15:23:40.933Z</time>
      </trkpt>
      <trkpt lat="43.88605" lon="2.1596">
        <ele>219.869024</ele>
        <time>2022-05-03T15:23:57.492Z</time>
      </trkpt>
      <trkpt lat="43.88574" lon="2.16066">
        <ele>220.347015</ele>
        <time>2022-05-03T15:24:15.097Z</time>
      </trkpt>
      <trkpt lat="43.88531" lon="2.16158">
        <ele>220.791225</ele>
        <time>2022-05-03T15:24:30.322Z</time>
      </trkpt>
      <trkpt lat="43.88468" lon="2.16245">
        <ele>221.231004</ele>
        <time>2022-05-03T15:24:48.331Z</time>
      </trkpt>
      <trkpt lat="43.8844" lon="2.16273">
        <ele>221.403479</ele>
        <time>2022-05-03T15:24:56.104Z</time>
      </trkpt>
      <trkpt lat="43.88351" lon="2.16336">
        <ele>222.484253</ele>
        <time>2022-05-03T15:25:19.551Z</time>
      </trkpt>
      <trkpt lat="43.88308" lon="2.16358">
        <ele>223.139753</ele>
        <time>2022-05-03T15:25:31.004Z</time>
      </trkpt>
      <trkpt lat="43.88222" lon="2.16372">
        <ele>224.42385</ele>
        <time>2022-05-03T15:25:52.852Z</time>
      </trkpt>
      <trkpt lat="43.88081" lon="2.1637">
        <ele>226.809532</ele>
        <time>2022-05-03T15:26:26.798Z</time>
      </trkpt>
      <trkpt lat="43.88022" lon="2.16388">
        <ele>228.376024</ele>
        <time>2022-05-03T15:26:43.854Z</time>
      </trkpt>
      <trkpt lat="43.87944" lon="2.16442">
        <ele>231.160878</ele>
        <time>2022-05-03T15:27:10.869Z</time>
      </trkpt>
      <trkpt lat="43.8792" lon="2.16466">
        <ele>232.122504</ele>
        <time>2022-05-03T15:27:20.185Z</time>
      </trkpt>
      <trkpt lat="43.87878" lon="2.16538">
        <ele>233.826482</ele>
        <time>2022-05-03T15:27:41.184Z</time>
      </trkpt>
      <trkpt lat="43.87765" lon="2.16792">
        <ele>237.534637</ele>
        <time>2022-05-03T15:28:35.151Z</time>
      </trkpt>
      <trkpt lat="43.8774" lon="2.1683">
        <ele>237.862269</ele>
        <time>2022-05-03T15:28:42.509Z</time>
      </trkpt>
      <trkpt lat="43.87681" lon="2.16885">
        <ele>238.513981</ele>
        <time>2022-05-03T15:28:57.145Z</time>
      </trkpt>
      <trkpt lat="43.8765" lon="2.16905">
        <ele>239.065957</ele>
        <time>2022-05-03T15:29:04.623Z</time>
      </trkpt>
      <trkpt lat="43.87296" lon="2.17045">
        <ele>245.851522</ele>
        <time>2022-05-03T15:30:40.678Z</time>
      </trkpt>
      <trkpt lat="43.87098" lon="2.17131">
        <ele>250.35844</ele>
        <time>2022-05-03T15:31:35.863Z</time>
      </trkpt>
      <trkpt lat="43.87038" lon="2.17176">
        <ele>251.942784</ele>
        <time>2022-05-03T15:31:54.296Z</time>
      </trkpt>
      <trkpt lat="43.86955" lon="2.17274">
        <ele>254.74868</ele>
        <time>2022-05-03T15:32:25.365Z</time>
      </trkpt>
      <trkpt lat="43.86886" lon="2.1736">
        <ele>257.234346</ele>
        <time>2022-05-03T15:32:51.542Z</time>
      </trkpt>
      <trkpt lat="43.86766" lon="2.17523">
        <ele>261.945023</ele>
        <time>2022-05-03T15:33:39.821Z</time>
      </trkpt>
      <trkpt lat="43.86735" lon="2.17607">
        <ele>263.966119</ele>
        <time>2022-05-03T15:33:59.753Z</time>
      </trkpt>
      <trkpt lat="43.86724" lon="2.17653">
        <ele>265.027246</ele>
        <time>2022-05-03T15:34:09.826Z</time>
      </trkpt>
      <trkpt lat="43.86717" lon="2.17732">
        <ele>266.803363</ele>
        <time>2022-05-03T15:34:26.771Z</time>
      </trkpt>
      <trkpt lat="43.86716" lon="2.18029">
        <ele>273.512195</ele>
        <time>2022-05-03T15:35:31.467Z</time>
      </trkpt>
      <trkpt lat="43.86721" lon="2.18228">
        <ele>276.533862</ele>
        <time>2022-05-03T15:36:11.779Z</time>
      </trkpt>
      <trkpt lat="43.86715" lon="2.1837">
        <ele>276.809748</ele>
        <time>2022-05-03T15:36:34.043Z</time>
      </trkpt>
      <trkpt lat="43.86708" lon="2.18416">
        <ele>276.340077</ele>
        <time>2022-05-03T15:36:39.747Z</time>
      </trkpt>
      <trkpt lat="43.86687" lon="2.18488">
        <ele>275.574643</ele>
        <time>2022-05-03T15:36:48.217Z</time>
      </trkpt>
      <trkpt lat="43.86649" lon="2.18565">
        <ele>274.289369</ele>
        <time>2022-05-03T15:36:58.370Z</time>
      </trkpt>
      <trkpt lat="43.86596" lon="2.18629">
        <ele>272.454218</ele>
        <time>2022-05-03T15:37:09.144Z</time>
      </trkpt>
      <trkpt lat="43.86572" lon="2.18647">
        <ele>271.765654</ele>
        <time>2022-05-03T15:37:13.174Z</time>
      </trkpt>
      <trkpt lat="43.8648" lon="2.18693">
        <ele>269.60004</ele>
        <time>2022-05-03T15:37:28.150Z</time>
      </trkpt>
      <trkpt lat="43.86467" lon="2.18687">
        <ele>269.364304</ele>
        <time>2022-05-03T15:37:30.342Z</time>
      </trkpt>
      <trkpt lat="43.86463" lon="2.18691">
        <ele>269.267395</ele>
        <time>2022-05-03T15:37:31.144Z</time>
      </trkpt>
      <trkpt lat="43.8645" lon="2.18698">
        <ele>269.02761</ele>
        <time>2022-05-03T15:37:33.322Z</time>
      </trkpt>
      <trkpt lat="43.86427" lon="2.18703">
        <ele>268.6103</ele>
        <time>2022-05-03T15:37:36.967Z</time>
      </trkpt>
      <trkpt lat="43.86381" lon="2.18698">
        <ele>267.806174</ele>
        <time>2022-05-03T15:37:44.275Z</time>
      </trkpt>
      <trkpt lat="43.86349" lon="2.1869">
        <ele>267.232807</ele>
        <time>2022-05-03T15:37:49.311Z</time>
      </trkpt>
      <trkpt lat="43.86303" lon="2.18666">
        <ele>266.148871</ele>
        <time>2022-05-03T15:37:56.851Z</time>
      </trkpt>
      <trkpt lat="43.86246" lon="2.18613">
        <ele>264.661232</ele>
        <time>2022-05-03T15:38:06.985Z</time>
      </trkpt>
      <trkpt lat="43.86066" lon="2.18409">
        <ele>258.498718</ele>
        <time>2022-05-03T15:38:39.110Z</time>
      </trkpt>
      <trkpt lat="43.86023" lon="2.18377">
        <ele>257.81107</ele>
        <time>2022-05-03T15:38:46.251Z</time>
      </trkpt>
      <trkpt lat="43.85979" lon="2.18357">
        <ele>257.319862</ele>
        <time>2022-05-03T15:38:53.531Z</time>
      </trkpt>
      <trkpt lat="43.85953" lon="2.18352">
        <ele>257.037819</ele>
        <time>2022-05-03T15:38:57.906Z</time>
      </trkpt>
      <trkpt lat="43.85951" lon="2.18352">
        <ele>257.018584</ele>
        <time>2022-05-03T15:38:58.233Z</time>
      </trkpt>
      <trkpt lat="43.85947" lon="2.18351">
        <ele>256.967401</ele>
        <time>2022-05-03T15:38:59.123Z</time>
      </trkpt>
      <trkpt lat="43.85917" lon="2.18347">
        <ele>256.654686</ele>
        <time>2022-05-03T15:39:04.667Z</time>
      </trkpt>
      <trkpt lat="43.85846" lon="2.18357">
        <ele>256.201458</ele>
        <time>2022-05-03T15:39:18.847Z</time>
      </trkpt>
      <trkpt lat="43.8563" lon="2.18471">
        <ele>254.625309</ele>
        <time>2022-05-03T15:40:02.127Z</time>
      </trkpt>
      <trkpt lat="43.85594" lon="2.1848">
        <ele>254.136461</ele>
        <time>2022-05-03T15:40:08.079Z</time>
      </trkpt>
      <trkpt lat="43.85552" lon="2.18483">
        <ele>253.594746</ele>
        <time>2022-05-03T15:40:14.529Z</time>
      </trkpt>
      <trkpt lat="43.85483" lon="2.18467">
        <ele>252.010603</ele>
        <time>2022-05-03T15:40:25.247Z</time>
      </trkpt>
      <trkpt lat="43.8535" lon="2.18418">
        <ele>248.778998</ele>
        <time>2022-05-03T15:40:46.311Z</time>
      </trkpt>
      <trkpt lat="43.85204" lon="2.18368">
        <ele>246.20455</ele>
        <time>2022-05-03T15:41:10.901Z</time>
      </trkpt>
      <trkpt lat="43.8515" lon="2.18358">
        <ele>245.354682</ele>
        <time>2022-05-03T15:41:20.101Z</time>
      </trkpt>
      <trkpt lat="43.85075" lon="2.18361">
        <ele>244.216018</ele>
        <time>2022-05-03T15:41:32.733Z</time>
      </trkpt>
      <trkpt lat="43.84685" lon="2.18402">
        <ele>237.508808</ele>
        <time>2022-05-03T15:42:35.880Z</time>
      </trkpt>
      <trkpt lat="43.84462" lon="2.18433">
        <ele>234.354863</ele>
        <time>2022-05-03T15:43:13.034Z</time>
      </trkpt>
      <trkpt lat="43.84381" lon="2.18452">
        <ele>233.867286</ele>
        <time>2022-05-03T15:43:27.965Z</time>
      </trkpt>
      <trkpt lat="43.84314" lon="2.18476">
        <ele>233.461218</ele>
        <time>2022-05-03T15:43:40.910Z</time>
      </trkpt>
      <trkpt lat="43.84199" lon="2.18535">
        <ele>233.243823</ele>
        <time>2022-05-03T15:44:04.974Z</time>
      </trkpt>
      <trkpt lat="43.84057" lon="2.18631">
        <ele>232.796724</ele>
        <time>2022-05-03T15:44:35.276Z</time>
      </trkpt>
      <trkpt lat="43.84036" lon="2.18637">
        <ele>232.70741</ele>
        <time>2022-05-03T15:44:39.151Z</time>
      </trkpt>
      <trkpt lat="43.84023" lon="2.18651">
        <ele>232.635273</ele>
        <time>2022-05-03T15:44:42.315Z</time>
      </trkpt>
      <trkpt lat="43.84002" lon="2.18671">
        <ele>232.525285</ele>
        <time>2022-05-03T15:44:46.982Z</time>
      </trkpt>
      <trkpt lat="43.83964" lon="2.18695">
        <ele>232.290814</ele>
        <time>2022-05-03T15:44:54.469Z</time>
      </trkpt>
      <trkpt lat="43.8376" lon="2.18775">
        <ele>230.040312</ele>
        <time>2022-05-03T15:45:31.252Z</time>
      </trkpt>
      <trkpt lat="43.83623" lon="2.18901">
        <ele>227.517052</ele>
        <time>2022-05-03T15:45:58.596Z</time>
      </trkpt>
      <trkpt lat="43.83587" lon="2.18925">
        <ele>226.529163</ele>
        <time>2022-05-03T15:46:04.871Z</time>
      </trkpt>
      <trkpt lat="43.83368" lon="2.19005">
        <ele>221.371007</ele>
        <time>2022-05-03T15:46:38.913Z</time>
      </trkpt>
      <trkpt lat="43.83344" lon="2.19006">
        <ele>220.876521</ele>
        <time>2022-05-03T15:46:42.672Z</time>
      </trkpt>
      <trkpt lat="43.83332" lon="2.19012">
        <ele>220.592779</ele>
        <time>2022-05-03T15:46:44.864Z</time>
      </trkpt>
      <trkpt lat="43.83306" lon="2.19034">
        <ele>219.982829</ele>
        <time>2022-05-03T15:46:49.918Z</time>
      </trkpt>
      <trkpt lat="43.83153" lon="2.1909">
        <ele>220.916831</ele>
        <time>2022-05-03T15:47:24.068Z</time>
      </trkpt>
      <trkpt lat="43.83128" lon="2.191">
        <ele>221.134566</ele>
        <time>2022-05-03T15:47:30.935Z</time>
      </trkpt>
      <trkpt lat="43.83066" lon="2.19113">
        <ele>222.330694</ele>
        <time>2022-05-03T15:47:47.724Z</time>
      </trkpt>
      <trkpt lat="43.8306" lon="2.19114">
        <ele>222.463101</ele>
        <time>2022-05-03T15:47:49.542Z</time>
      </trkpt>
      <trkpt lat="43.83029" lon="2.19114">
        <ele>223.053451</ele>
        <time>2022-05-03T15:47:57.888Z</time>
      </trkpt>
      <trkpt lat="43.82945" lon="2.19088">
        <ele>224.586449</ele>
        <time>2022-05-03T15:48:20.172Z</time>
      </trkpt>
      <trkpt lat="43.82898" lon="2.19052">
        <ele>225.097527</ele>
        <time>2022-05-03T15:48:32.555Z</time>
      </trkpt>
      <trkpt lat="43.82854" lon="2.19007">
        <ele>225.623685</ele>
        <time>2022-05-03T15:48:44.073Z</time>
      </trkpt>
      <trkpt lat="43.82654" lon="2.18786">
        <ele>226.898952</ele>
        <time>2022-05-03T15:49:34.340Z</time>
      </trkpt>
      <trkpt lat="43.82621" lon="2.18759">
        <ele>227.045075</ele>
        <time>2022-05-03T15:49:41.620Z</time>
      </trkpt>
      <trkpt lat="43.82509" lon="2.18638">
        <ele>227.565294</ele>
        <time>2022-05-03T15:50:09.981Z</time>
      </trkpt>
      <trkpt lat="43.82481" lon="2.18608">
        <ele>227.628003</ele>
        <time>2022-05-03T15:50:16.843Z</time>
      </trkpt>
      <trkpt lat="43.8237" lon="2.18489">
        <ele>227.776733</ele>
        <time>2022-05-03T15:50:42.653Z</time>
      </trkpt>
      <trkpt lat="43.82296" lon="2.18401">
        <ele>227.136319</ele>
        <time>2022-05-03T15:50:58.408Z</time>
      </trkpt>
      <trkpt lat="43.82267" lon="2.18344">
        <ele>226.806423</ele>
        <time>2022-05-03T15:51:06.149Z</time>
      </trkpt>
      <trkpt lat="43.82241" lon="2.1827">
        <ele>226.206916</ele>
        <time>2022-05-03T15:51:15.254Z</time>
      </trkpt>
      <trkpt lat="43.82115" lon="2.17803">
        <ele>221.897817</ele>
        <time>2022-05-03T15:52:09.418Z</time>
      </trkpt>
      <trkpt lat="43.81946" lon="2.17204">
        <ele>217.363171</ele>
        <time>2022-05-03T15:53:20.816Z</time>
      </trkpt>
      <trkpt lat="43.81894" lon="2.17072">
        <ele>216.902041</ele>
        <time>2022-05-03T15:53:39.409Z</time>
      </trkpt>
      <trkpt lat="43.81832" lon="2.16972">
        <ele>216.696313</ele>
        <time>2022-05-03T15:53:56.100Z</time>
      </trkpt>
      <trkpt lat="43.81819" lon="2.16955">
        <ele>216.643295</ele>
        <time>2022-05-03T15:54:00.353Z</time>
      </trkpt>
      <trkpt lat="43.81802" lon="2.16928">
        <ele>216.524777</ele>
        <time>2022-05-03T15:54:06.268Z</time>
      </trkpt>
      <trkpt lat="43.81419" lon="2.16388">
        <ele>213.875071</ele>
        <time>2022-05-03T15:55:46.745Z</time>
      </trkpt>
      <trkpt lat="43.81392" lon="2.1636">
        <ele>213.687296</ele>
        <time>2022-05-03T15:55:52.804Z</time>
      </trkpt>
      <trkpt lat="43.81237" lon="2.16245">
        <ele>212.45259</ele>
        <time>2022-05-03T15:56:24.741Z</time>
      </trkpt>
      <trkpt lat="43.81153" lon="2.16147">
        <ele>211.442873</ele>
        <time>2022-05-03T15:56:43.817Z</time>
      </trkpt>
      <trkpt lat="43.80761" lon="2.15639">
        <ele>202.815822</ele>
        <time>2022-05-03T15:58:11.330Z</time>
      </trkpt>
      <trkpt lat="43.80705" lon="2.15571">
        <ele>202.083109</ele>
        <time>2022-05-03T15:58:24.058Z</time>
      </trkpt>
      <trkpt lat="43.80614" lon="2.15484">
        <ele>201.053222</ele>
        <time>2022-05-03T15:58:43.811Z</time>
      </trkpt>
      <trkpt lat="43.8036" lon="2.15271">
        <ele>200.842798</ele>
        <time>2022-05-03T15:59:41.047Z</time>
      </trkpt>
      <trkpt lat="43.80281" lon="2.15198">
        <ele>201.162958</ele>
        <time>2022-05-03T16:00:00.488Z</time>
      </trkpt>
      <trkpt lat="43.80271" lon="2.1519">
        <ele>201.245228</ele>
        <time>2022-05-03T16:00:03.070Z</time>
      </trkpt>
      <trkpt lat="43.80256" lon="2.15176">
        <ele>201.374981</ele>
        <time>2022-05-03T16:00:06.960Z</time>
      </trkpt>
      <trkpt lat="43.8018" lon="2.15104">
        <ele>202.015072</ele>
        <time>2022-05-03T16:00:26.402Z</time>
      </trkpt>
      <trkpt lat="43.80069" lon="2.14981">
        <ele>202.574854</ele>
        <time>2022-05-03T16:00:54.733Z</time>
      </trkpt>
      <trkpt lat="43.80002" lon="2.14894">
        <ele>202.755759</ele>
        <time>2022-05-03T16:01:11.911Z</time>
      </trkpt>
      <trkpt lat="43.79911" lon="2.1476">
        <ele>202.626463</ele>
        <time>2022-05-03T16:01:37.853Z</time>
      </trkpt>
      <trkpt lat="43.79701" lon="2.14421">
        <ele>201.863481</ele>
        <time>2022-05-03T16:02:38.630Z</time>
      </trkpt>
      <trkpt lat="43.79633" lon="2.14318">
        <ele>201.727486</ele>
        <time>2022-05-03T16:02:58.753Z</time>
      </trkpt>
      <trkpt lat="43.796" lon="2.14277">
        <ele>201.69099</ele>
        <time>2022-05-03T16:03:07.768Z</time>
      </trkpt>
      <trkpt lat="43.79404" lon="2.14065">
        <ele>201.367663</ele>
        <time>2022-05-03T16:03:55.523Z</time>
      </trkpt>
      <trkpt lat="43.78999" lon="2.13655">
        <ele>201.331665</ele>
        <time>2022-05-03T16:05:34.738Z</time>
      </trkpt>
      <trkpt lat="43.78947" lon="2.1362">
        <ele>201.31018</ele>
        <time>2022-05-03T16:05:46.033Z</time>
      </trkpt>
      <trkpt lat="43.78903" lon="2.13607">
        <ele>201.141001</ele>
        <time>2022-05-03T16:05:54.778Z</time>
      </trkpt>
      <trkpt lat="43.7882" lon="2.13604">
        <ele>200.807208</ele>
        <time>2022-05-03T16:06:10.509Z</time>
      </trkpt>
      <trkpt lat="43.78774" lon="2.13614">
        <ele>200.620609</ele>
        <time>2022-05-03T16:06:18.997Z</time>
      </trkpt>
      <trkpt lat="43.78739" lon="2.13628">
        <ele>200.275199</ele>
        <time>2022-05-03T16:06:25.387Z</time>
      </trkpt>
      <trkpt lat="43.78434" lon="2.13841">
        <ele>195.899826</ele>
        <time>2022-05-03T16:07:23.156Z</time>
      </trkpt>
      <trkpt lat="43.78362" lon="2.13883">
        <ele>194.239832</ele>
        <time>2022-05-03T16:07:35.163Z</time>
      </trkpt>
      <trkpt lat="43.783" lon="2.139">
        <ele>192.88258</ele>
        <time>2022-05-03T16:07:44.912Z</time>
      </trkpt>
      <trkpt lat="43.78264" lon="2.139">
        <ele>192.237597</ele>
        <time>2022-05-03T16:07:50.625Z</time>
      </trkpt>
      <trkpt lat="43.78217" lon="2.13889">
        <ele>191.949089</ele>
        <time>2022-05-03T16:07:58.345Z</time>
      </trkpt>
      <trkpt lat="43.7818" lon="2.13879">
        <ele>191.719201</ele>
        <time>2022-05-03T16:08:05.010Z</time>
      </trkpt>
      <trkpt lat="43.7813" lon="2.13868">
        <ele>191.412585</ele>
        <time>2022-05-03T16:08:14.943Z</time>
      </trkpt>
      <trkpt lat="43.78052" lon="2.13847">
        <ele>191.770777</ele>
        <time>2022-05-03T16:08:32.759Z</time>
      </trkpt>
      <trkpt lat="43.77992" lon="2.13829">
        <ele>192.562139</ele>
        <time>2022-05-03T16:08:48.020Z</time>
      </trkpt>
      <trkpt lat="43.77852" lon="2.13754">
        <ele>194.781843</ele>
        <time>2022-05-03T16:09:24.729Z</time>
      </trkpt>
      <trkpt lat="43.77592" lon="2.13603">
        <ele>199.369239</ele>
        <time>2022-05-03T16:10:36.645Z</time>
      </trkpt>
      <trkpt lat="43.77283" lon="2.13427">
        <ele>200.943646</ele>
        <time>2022-05-03T16:11:46.824Z</time>
      </trkpt>
      <trkpt lat="43.77273" lon="2.13421">
        <ele>200.982508</ele>
        <time>2022-05-03T16:11:48.845Z</time>
      </trkpt>
      <trkpt lat="43.76711" lon="2.13102">
        <ele>204.063846</ele>
        <time>2022-05-03T16:13:45.949Z</time>
      </trkpt>
      <trkpt lat="43.76686" lon="2.13091">
        <ele>204.340196</ele>
        <time>2022-05-03T16:13:51.537Z</time>
      </trkpt>
      <trkpt lat="43.7663" lon="2.13079">
        <ele>204.964343</ele>
        <time>2022-05-03T16:14:03.964Z</time>
      </trkpt>
      <trkpt lat="43.76584" lon="2.13082">
        <ele>205.458093</ele>
        <time>2022-05-03T16:14:14.189Z</time>
      </trkpt>
      <trkpt lat="43.76094" lon="2.13143">
        <ele>213.021875</ele>
        <time>2022-05-03T16:16:05.971Z</time>
      </trkpt>
      <trkpt lat="43.75902" lon="2.13176">
        <ele>215.895974</ele>
        <time>2022-05-03T16:16:50.271Z</time>
      </trkpt>
      <trkpt lat="43.7585" lon="2.132">
        <ele>216.576366</ele>
        <time>2022-05-03T16:17:01.993Z</time>
      </trkpt>
      <trkpt lat="43.75712" lon="2.13282">
        <ele>217.945329</ele>
        <time>2022-05-03T16:17:32.639Z</time>
      </trkpt>
      <trkpt lat="43.75645" lon="2.13313">
        <ele>218.703767</ele>
        <time>2022-05-03T16:17:47.225Z</time>
      </trkpt>
      <trkpt lat="43.75353" lon="2.13377">
        <ele>222.058083</ele>
        <time>2022-05-03T16:18:51.254Z</time>
      </trkpt>
      <trkpt lat="43.75308" lon="2.134">
        <ele>222.429436</ele>
        <time>2022-05-03T16:19:01.405Z</time>
      </trkpt>
      <trkpt lat="43.75248" lon="2.13445">
        <ele>222.936902</ele>
        <time>2022-05-03T16:19:15.305Z</time>
      </trkpt>
      <trkpt lat="43.74898" lon="2.13866">
        <ele>225.208908</ele>
        <time>2022-05-03T16:20:43.167Z</time>
      </trkpt>
      <trkpt lat="43.74868" lon="2.13892">
        <ele>225.598493</ele>
        <time>2022-05-03T16:20:50.486Z</time>
      </trkpt>
      <trkpt lat="43.74792" lon="2.13932">
        <ele>226.483716</ele>
        <time>2022-05-03T16:21:08.249Z</time>
      </trkpt>
      <trkpt lat="43.74534" lon="2.14007">
        <ele>230.598774</ele>
        <time>2022-05-03T16:22:11.246Z</time>
      </trkpt>
      <trkpt lat="43.74494" lon="2.14032">
        <ele>230.994262</ele>
        <time>2022-05-03T16:22:20.432Z</time>
      </trkpt>
      <trkpt lat="43.74267" lon="2.14262">
        <ele>231.924832</ele>
        <time>2022-05-03T16:23:10.551Z</time>
      </trkpt>
      <trkpt lat="43.74053" lon="2.14501">
        <ele>233.396501</ele>
        <time>2022-05-03T16:24:05.913Z</time>
      </trkpt>
      <trkpt lat="43.73691" lon="2.14916">
        <ele>233.354238</ele>
        <time>2022-05-03T16:25:29.596Z</time>
      </trkpt>
      <trkpt lat="43.73626" lon="2.14977">
        <ele>232.873035</ele>
        <time>2022-05-03T16:25:41.796Z</time>
      </trkpt>
      <trkpt lat="43.73516" lon="2.15065">
        <ele>232.203366</ele>
        <time>2022-05-03T16:26:01.627Z</time>
      </trkpt>
      <trkpt lat="43.73476" lon="2.15106">
        <ele>231.969581</ele>
        <time>2022-05-03T16:26:09.909Z</time>
      </trkpt>
      <trkpt lat="43.73444" lon="2.15154">
        <ele>231.75405</ele>
        <time>2022-05-03T16:26:17.765Z</time>
      </trkpt>
      <trkpt lat="43.73351" lon="2.15356">
        <ele>233.158062</ele>
        <time>2022-05-03T16:26:53.171Z</time>
      </trkpt>
      <trkpt lat="43.73315" lon="2.15415">
        <ele>233.816345</ele>
        <time>2022-05-03T16:27:06.438Z</time>
      </trkpt>
      <trkpt lat="43.73277" lon="2.15455">
        <ele>234.425006</ele>
        <time>2022-05-03T16:27:17.288Z</time>
      </trkpt>
      <trkpt lat="43.73202" lon="2.15506">
        <ele>235.498284</ele>
        <time>2022-05-03T16:27:36.051Z</time>
      </trkpt>
      <trkpt lat="43.7303" lon="2.15624">
        <ele>235.782128</ele>
        <time>2022-05-03T16:28:10.119Z</time>
      </trkpt>
      <trkpt lat="43.72986" lon="2.15678">
        <ele>235.7787</ele>
        <time>2022-05-03T16:28:20.048Z</time>
      </trkpt>
      <trkpt lat="43.72673" lon="2.16187">
        <ele>235.726378</ele>
        <time>2022-05-03T16:29:46.575Z</time>
      </trkpt>
      <trkpt lat="43.72629" lon="2.16248">
        <ele>235.444964</ele>
        <time>2022-05-03T16:29:57.277Z</time>
      </trkpt>
      <trkpt lat="43.72543" lon="2.16324">
        <ele>234.982152</ele>
        <time>2022-05-03T16:30:13.731Z</time>
      </trkpt>
      <trkpt lat="43.72376" lon="2.16407">
        <ele>234.153053</ele>
        <time>2022-05-03T16:30:42.044Z</time>
      </trkpt>
      <trkpt lat="43.7211" lon="2.16518">
        <ele>235.549027</ele>
        <time>2022-05-03T16:31:37.233Z</time>
      </trkpt>
      <trkpt lat="43.71936" lon="2.16612">
        <ele>236.227382</ele>
        <time>2022-05-03T16:32:13.817Z</time>
      </trkpt>
      <trkpt lat="43.71558" lon="2.16817">
        <ele>235.329549</ele>
        <time>2022-05-03T16:33:22.594Z</time>
      </trkpt>
      <trkpt lat="43.7133" lon="2.16941">
        <ele>234.396849</ele>
        <time>2022-05-03T16:34:02.913Z</time>
      </trkpt>
      <trkpt lat="43.7127" lon="2.1697">
        <ele>234.388891</ele>
        <time>2022-05-03T16:34:14.326Z</time>
      </trkpt>
      <trkpt lat="43.71231" lon="2.16983">
        <ele>234.383816</ele>
        <time>2022-05-03T16:34:21.592Z</time>
      </trkpt>
      <trkpt lat="43.71157" lon="2.1698">
        <ele>234.370965</ele>
        <time>2022-05-03T16:34:35.012Z</time>
      </trkpt>
      <trkpt lat="43.71097" lon="2.16955">
        <ele>234.353579</ele>
        <time>2022-05-03T16:34:46.535Z</time>
      </trkpt>
      <trkpt lat="43.71059" lon="2.16928">
        <ele>234.34182</ele>
        <time>2022-05-03T16:34:54.123Z</time>
      </trkpt>
      <trkpt lat="43.70991" lon="2.16848">
        <ele>234.25379</ele>
        <time>2022-05-03T16:35:09.188Z</time>
      </trkpt>
      <trkpt lat="43.70765" lon="2.16531">
        <ele>233.672772</ele>
        <time>2022-05-03T16:36:05.094Z</time>
      </trkpt>
      <trkpt lat="43.70733" lon="2.16477">
        <ele>233.444334</ele>
        <time>2022-05-03T16:36:13.510Z</time>
      </trkpt>
      <trkpt lat="43.70709" lon="2.16413">
        <ele>233.206159</ele>
        <time>2022-05-03T16:36:22.082Z</time>
      </trkpt>
      <trkpt lat="43.70694" lon="2.16352">
        <ele>232.992528</ele>
        <time>2022-05-03T16:36:29.790Z</time>
      </trkpt>
      <trkpt lat="43.70689" lon="2.1628">
        <ele>232.698851</ele>
        <time>2022-05-03T16:36:38.294Z</time>
      </trkpt>
      <trkpt lat="43.70692" lon="2.16213">
        <ele>232.361293</ele>
        <time>2022-05-03T16:36:45.938Z</time>
      </trkpt>
      <trkpt lat="43.70699" lon="2.1617">
        <ele>232.138853</ele>
        <time>2022-05-03T16:36:51.038Z</time>
      </trkpt>
      <trkpt lat="43.70721" lon="2.16097">
        <ele>231.73615</ele>
        <time>2022-05-03T16:37:00.367Z</time>
      </trkpt>
      <trkpt lat="43.70777" lon="2.15944">
        <ele>230.66182</ele>
        <time>2022-05-03T16:37:19.772Z</time>
      </trkpt>
      <trkpt lat="43.70797" lon="2.15867">
        <ele>230.128699</ele>
        <time>2022-05-03T16:37:28.888Z</time>
      </trkpt>
      <trkpt lat="43.70802" lon="2.15755">
        <ele>229.583174</ele>
        <time>2022-05-03T16:37:41.538Z</time>
      </trkpt>
      <trkpt lat="43.7079" lon="2.15685">
        <ele>229.265609</ele>
        <time>2022-05-03T16:37:49.862Z</time>
      </trkpt>
      <trkpt lat="43.7077" lon="2.15611">
        <ele>228.912487</ele>
        <time>2022-05-03T16:37:59.840Z</time>
      </trkpt>
      <trkpt lat="43.70698" lon="2.15465">
        <ele>227.485305</ele>
        <time>2022-05-03T16:38:20.706Z</time>
      </trkpt>
      <trkpt lat="43.70514" lon="2.1509">
        <ele>220.629121</ele>
        <time>2022-05-03T16:39:05.384Z</time>
      </trkpt>
      <trkpt lat="43.70506" lon="2.15075">
        <ele>220.342714</ele>
        <time>2022-05-03T16:39:07.246Z</time>
      </trkpt>
      <trkpt lat="43.70466" lon="2.15004">
        <ele>218.997203</ele>
        <time>2022-05-03T16:39:17.566Z</time>
      </trkpt>
      <trkpt lat="43.70427" lon="2.14949">
        <ele>218.531571</ele>
        <time>2022-05-03T16:39:27.028Z</time>
      </trkpt>
      <trkpt lat="43.70341" lon="2.14854">
        <ele>218.004295</ele>
        <time>2022-05-03T16:39:48.317Z</time>
      </trkpt>
      <trkpt lat="43.7029" lon="2.14794">
        <ele>217.456501</ele>
        <time>2022-05-03T16:40:01.828Z</time>
      </trkpt>
      <trkpt lat="43.70263" lon="2.14751">
        <ele>217.030245</ele>
        <time>2022-05-03T16:40:09.295Z</time>
      </trkpt>
      <trkpt lat="43.70241" lon="2.14696">
        <ele>216.561086</ele>
        <time>2022-05-03T16:40:17.082Z</time>
      </trkpt>
      <trkpt lat="43.70227" lon="2.14652">
        <ele>216.195856</ele>
        <time>2022-05-03T16:40:22.820Z</time>
      </trkpt>
      <trkpt lat="43.7018" lon="2.14419">
        <ele>212.340175</ele>
        <time>2022-05-03T16:40:49.687Z</time>
      </trkpt>
      <trkpt lat="43.7014" lon="2.14315">
        <ele>210.762641</ele>
        <time>2022-05-03T16:41:03.089Z</time>
      </trkpt>
      <trkpt lat="43.70125" lon="2.14288">
        <ele>210.345643</ele>
        <time>2022-05-03T16:41:07.919Z</time>
      </trkpt>
      <trkpt lat="43.70085" lon="2.14231">
        <ele>209.38063</ele>
        <time>2022-05-03T16:41:17.499Z</time>
      </trkpt>
      <trkpt lat="43.70044" lon="2.14188">
        <ele>208.601533</ele>
        <time>2022-05-03T16:41:26.213Z</time>
      </trkpt>
      <trkpt lat="43.70004" lon="2.14158">
        <ele>208.086935</ele>
        <time>2022-05-03T16:41:33.907Z</time>
      </trkpt>
      <trkpt lat="43.69959" lon="2.14134">
        <ele>207.540257</ele>
        <time>2022-05-03T16:41:42.102Z</time>
      </trkpt>
      <trkpt lat="43.69923" lon="2.14122">
        <ele>207.124955</ele>
        <time>2022-05-03T16:41:48.260Z</time>
      </trkpt>
      <trkpt lat="43.69864" lon="2.14115">
        <ele>206.603106</ele>
        <time>2022-05-03T16:41:58.843Z</time>
      </trkpt>
      <trkpt lat="43.69834" lon="2.14117">
        <ele>206.446361</ele>
        <time>2022-05-03T16:42:04.236Z</time>
      </trkpt>
      <trkpt lat="43.69775" lon="2.14134">
        <ele>206.131676</ele>
        <time>2022-05-03T16:42:15.195Z</time>
      </trkpt>
      <trkpt lat="43.69731" lon="2.1415">
        <ele>205.891274</ele>
        <time>2022-05-03T16:42:23.823Z</time>
      </trkpt>
      <trkpt lat="43.69556" lon="2.14242">
        <ele>205.416259</ele>
        <time>2022-05-03T16:42:59.627Z</time>
      </trkpt>
      <trkpt lat="43.6938" lon="2.14326">
        <ele>205.132098</ele>
        <time>2022-05-03T16:43:35.403Z</time>
      </trkpt>
      <trkpt lat="43.69342" lon="2.14335">
        <ele>205.053762</ele>
        <time>2022-05-03T16:43:42.990Z</time>
      </trkpt>
      <trkpt lat="43.69221" lon="2.14342">
        <ele>204.796139</ele>
        <time>2022-05-03T16:44:06.729Z</time>
      </trkpt>
      <trkpt lat="43.69122" lon="2.14355">
        <ele>203.575677</ele>
        <time>2022-05-03T16:44:24.480Z</time>
      </trkpt>
      <trkpt lat="43.68705" lon="2.1444">
        <ele>195.959408</ele>
        <time>2022-05-03T16:45:32.396Z</time>
      </trkpt>
      <trkpt lat="43.68632" lon="2.14461">
        <ele>193.91378</ele>
        <time>2022-05-03T16:45:43.189Z</time>
      </trkpt>
      <trkpt lat="43.68485" lon="2.14535">
        <ele>188.798247</ele>
        <time>2022-05-03T16:46:05.733Z</time>
      </trkpt>
      <trkpt lat="43.68467" lon="2.14544">
        <ele>188.614386</ele>
        <time>2022-05-03T16:46:08.573Z</time>
      </trkpt>
      <trkpt lat="43.68319" lon="2.14624">
        <ele>187.201488</ele>
        <time>2022-05-03T16:46:37.364Z</time>
      </trkpt>
      <trkpt lat="43.68293" lon="2.14638">
        <ele>187.550901</ele>
        <time>2022-05-03T16:46:44.423Z</time>
      </trkpt>
      <trkpt lat="43.68063" lon="2.14759">
        <ele>189.758784</ele>
        <time>2022-05-03T16:47:45.290Z</time>
      </trkpt>
      <trkpt lat="43.67923" lon="2.1481">
        <ele>189.801423</ele>
        <time>2022-05-03T16:48:10.348Z</time>
      </trkpt>
      <trkpt lat="43.67785" lon="2.14856">
        <ele>189.795408</ele>
        <time>2022-05-03T16:48:36.955Z</time>
      </trkpt>
      <trkpt lat="43.67755" lon="2.14866">
        <ele>190.369003</ele>
        <time>2022-05-03T16:48:44.813Z</time>
      </trkpt>
      <trkpt lat="43.67671" lon="2.14894">
        <ele>191.941254</ele>
        <time>2022-05-03T16:49:08.453Z</time>
      </trkpt>
      <trkpt lat="43.67659" lon="2.14898">
        <ele>192.167888</ele>
        <time>2022-05-03T16:49:12.055Z</time>
      </trkpt>
      <trkpt lat="43.67581" lon="2.1493">
        <ele>193.747152</ele>
        <time>2022-05-03T16:49:35.536Z</time>
      </trkpt>
      <trkpt lat="43.67554" lon="2.14947">
        <ele>194.345764</ele>
        <time>2022-05-03T16:49:43.569Z</time>
      </trkpt>
      <trkpt lat="43.67513" lon="2.14982">
        <ele>195.298135</ele>
        <time>2022-05-03T16:49:55.641Z</time>
      </trkpt>
      <trkpt lat="43.67481" lon="2.15021">
        <ele>196.145569</ele>
        <time>2022-05-03T16:50:05.805Z</time>
      </trkpt>
      <trkpt lat="43.67454" lon="2.15067">
        <ele>196.708131</ele>
        <time>2022-05-03T16:50:15.555Z</time>
      </trkpt>
      <trkpt lat="43.67432" lon="2.15119">
        <ele>197.281321</ele>
        <time>2022-05-03T16:50:25.610Z</time>
      </trkpt>
      <trkpt lat="43.67339" lon="2.15385">
        <ele>200.239019</ele>
        <time>2022-05-03T16:51:18.187Z</time>
      </trkpt>
      <trkpt lat="43.67292" lon="2.1548">
        <ele>201.356172</ele>
        <time>2022-05-03T16:51:38.381Z</time>
      </trkpt>
      <trkpt lat="43.67168" lon="2.15687">
        <ele>203.566198</ele>
        <time>2022-05-03T16:52:22.878Z</time>
      </trkpt>
      <trkpt lat="43.67144" lon="2.15744">
        <ele>204.238813</ele>
        <time>2022-05-03T16:52:33.969Z</time>
      </trkpt>
      <trkpt lat="43.67125" lon="2.1582">
        <ele>205.068375</ele>
        <time>2022-05-03T16:52:48.256Z</time>
      </trkpt>
      <trkpt lat="43.67111" lon="2.15981">
        <ele>207.719307</ele>
        <time>2022-05-03T16:53:19.413Z</time>
      </trkpt>
      <trkpt lat="43.671" lon="2.16066">
        <ele>209.382198</ele>
        <time>2022-05-03T16:53:38.085Z</time>
      </trkpt>
      <trkpt lat="43.67073" lon="2.16144">
        <ele>211.107844</ele>
        <time>2022-05-03T16:53:56.779Z</time>
      </trkpt>
      <trkpt lat="43.67047" lon="2.16197">
        <ele>212.419282</ele>
        <time>2022-05-03T16:54:10.605Z</time>
      </trkpt>
      <trkpt lat="43.66923" lon="2.16416">
        <ele>217.713914</ele>
        <time>2022-05-03T16:55:07.404Z</time>
      </trkpt>
      <trkpt lat="43.66884" lon="2.16466">
        <ele>218.959182</ele>
        <time>2022-05-03T16:55:21.427Z</time>
      </trkpt>
      <trkpt lat="43.6685" lon="2.16495">
        <ele>219.888801</ele>
        <time>2022-05-03T16:55:32.137Z</time>
      </trkpt>
      <trkpt lat="43.6681" lon="2.1652">
        <ele>220.697038</ele>
        <time>2022-05-03T16:55:43.504Z</time>
      </trkpt>
      <trkpt lat="43.66564" lon="2.16648">
        <ele>225.38421</ele>
        <time>2022-05-03T16:56:50.649Z</time>
      </trkpt>
      <trkpt lat="43.66342" lon="2.1676">
        <ele>228.431368</ele>
        <time>2022-05-03T16:57:48.574Z</time>
      </trkpt>
      <trkpt lat="43.66285" lon="2.16778">
        <ele>228.057499</ele>
        <time>2022-05-03T16:57:59.298Z</time>
      </trkpt>
      <trkpt lat="43.66244" lon="2.16782">
        <ele>227.79579</ele>
        <time>2022-05-03T16:58:06.415Z</time>
      </trkpt>
      <trkpt lat="43.66202" lon="2.16775">
        <ele>227.527706</ele>
        <time>2022-05-03T16:58:13.454Z</time>
      </trkpt>
      <trkpt lat="43.66149" lon="2.16753">
        <ele>227.120818</ele>
        <time>2022-05-03T16:58:22.528Z</time>
      </trkpt>
      <trkpt lat="43.66002" lon="2.16659">
        <ele>225.821167</ele>
        <time>2022-05-03T16:58:51.740Z</time>
      </trkpt>
      <trkpt lat="43.65972" lon="2.1665">
        <ele>225.656815</ele>
        <time>2022-05-03T16:58:57.709Z</time>
      </trkpt>
      <trkpt lat="43.65925" lon="2.16646">
        <ele>225.405437</ele>
        <time>2022-05-03T16:59:06.686Z</time>
      </trkpt>
      <trkpt lat="43.65845" lon="2.16657">
        <ele>224.980398</ele>
        <time>2022-05-03T16:59:21.439Z</time>
      </trkpt>
      <trkpt lat="43.65519" lon="2.16742">
        <ele>220.895356</ele>
        <time>2022-05-03T17:00:17.451Z</time>
      </trkpt>
      <trkpt lat="43.6538" lon="2.16777">
        <ele>218.52531</ele>
        <time>2022-05-03T17:00:40.809Z</time>
      </trkpt>
      <trkpt lat="43.6534" lon="2.168">
        <ele>217.755731</ele>
        <time>2022-05-03T17:00:47.529Z</time>
      </trkpt>
      <trkpt lat="43.65284" lon="2.1685">
        <ele>216.498515</ele>
        <time>2022-05-03T17:00:58.053Z</time>
      </trkpt>
      <trkpt lat="43.65234" lon="2.1692">
        <ele>215.095332</ele>
        <time>2022-05-03T17:01:09.294Z</time>
      </trkpt>
      <trkpt lat="43.65224" lon="2.16936">
        <ele>214.801024</ele>
        <time>2022-05-03T17:01:11.659Z</time>
      </trkpt>
      <trkpt lat="43.65103" lon="2.17128">
        <ele>211.559242</ele>
        <time>2022-05-03T17:01:41.716Z</time>
      </trkpt>
      <trkpt lat="43.65067" lon="2.17174">
        <ele>210.751688</ele>
        <time>2022-05-03T17:01:49.914Z</time>
      </trkpt>
      <trkpt lat="43.64904" lon="2.17305">
        <ele>207.567506</ele>
        <time>2022-05-03T17:02:20.469Z</time>
      </trkpt>
      <trkpt lat="43.64752" lon="2.1742">
        <ele>204.428662</ele>
        <time>2022-05-03T17:02:48.355Z</time>
      </trkpt>
      <trkpt lat="43.64692" lon="2.17447">
        <ele>203.388737</ele>
        <time>2022-05-03T17:02:58.640Z</time>
      </trkpt>
      <trkpt lat="43.64638" lon="2.17455">
        <ele>202.513383</ele>
        <time>2022-05-03T17:03:07.461Z</time>
      </trkpt>
      <trkpt lat="43.64411" lon="2.17457">
        <ele>199.296326</ele>
        <time>2022-05-03T17:03:45.029Z</time>
      </trkpt>
      <trkpt lat="43.6423" lon="2.17419">
        <ele>197.59326</ele>
        <time>2022-05-03T17:04:17.591Z</time>
      </trkpt>
      <trkpt lat="43.64172" lon="2.17429">
        <ele>196.802621</ele>
        <time>2022-05-03T17:04:27.974Z</time>
      </trkpt>
      <trkpt lat="43.64131" lon="2.17448">
        <ele>196.134067</ele>
        <time>2022-05-03T17:04:35.308Z</time>
      </trkpt>
      <trkpt lat="43.63719" lon="2.17703">
        <ele>188.804175</ele>
        <time>2022-05-03T17:05:48.445Z</time>
      </trkpt>
      <trkpt lat="43.63677" lon="2.17741">
        <ele>188.209654</ele>
        <time>2022-05-03T17:05:56.734Z</time>
      </trkpt>
      <trkpt lat="43.63638" lon="2.1779">
        <ele>187.605634</ele>
        <time>2022-05-03T17:06:05.850Z</time>
      </trkpt>
      <trkpt lat="43.63597" lon="2.17857">
        <ele>186.882763</ele>
        <time>2022-05-03T17:06:16.978Z</time>
      </trkpt>
      <trkpt lat="43.63563" lon="2.17943">
        <ele>186.478758</ele>
        <time>2022-05-03T17:06:29.600Z</time>
      </trkpt>
      <trkpt lat="43.63537" lon="2.18072">
        <ele>186.115759</ele>
        <time>2022-05-03T17:06:47.445Z</time>
      </trkpt>
      <trkpt lat="43.63536" lon="2.18096">
        <ele>186.049995</ele>
        <time>2022-05-03T17:06:50.945Z</time>
      </trkpt>
      <trkpt lat="43.63547" lon="2.18507">
        <ele>187.694426</ele>
        <time>2022-05-03T17:07:54.913Z</time>
      </trkpt>
      <trkpt lat="43.63541" lon="2.18606">
        <ele>188.286421</ele>
        <time>2022-05-03T17:08:11.795Z</time>
      </trkpt>
      <trkpt lat="43.6352" lon="2.1872">
        <ele>189.588553</ele>
        <time>2022-05-03T17:08:32.457Z</time>
      </trkpt>
      <trkpt lat="43.63363" lon="2.19209">
        <ele>195.763055</ele>
        <time>2022-05-03T17:10:09.078Z</time>
      </trkpt>
      <trkpt lat="43.63336" lon="2.19273">
        <ele>196.666542</ele>
        <time>2022-05-03T17:10:22.653Z</time>
      </trkpt>
      <trkpt lat="43.63278" lon="2.1938">
        <ele>198.277508</ele>
        <time>2022-05-03T17:10:47.182Z</time>
      </trkpt>
      <trkpt lat="43.63161" lon="2.19538">
        <ele>200.843382</ele>
        <time>2022-05-03T17:11:28.101Z</time>
      </trkpt>
      <trkpt lat="43.63112" lon="2.19616">
        <ele>201.898708</ele>
        <time>2022-05-03T17:11:46.043Z</time>
      </trkpt>
      <trkpt lat="43.63096" lon="2.1965">
        <ele>202.30927</ele>
        <time>2022-05-03T17:11:52.966Z</time>
      </trkpt>
      <trkpt lat="43.63078" lon="2.19709">
        <ele>202.889403</ele>
        <time>2022-05-03T17:12:03.793Z</time>
      </trkpt>
      <trkpt lat="43.63067" lon="2.19787">
        <ele>203.583596</ele>
        <time>2022-05-03T17:12:17.336Z</time>
      </trkpt>
      <trkpt lat="43.63055" lon="2.19962">
        <ele>205.290694</ele>
        <time>2022-05-03T17:12:47.534Z</time>
      </trkpt>
      <trkpt lat="43.63028" lon="2.20078">
        <ele>206.758989</ele>
        <time>2022-05-03T17:13:09.771Z</time>
      </trkpt>
      <trkpt lat="43.63007" lon="2.20124">
        <ele>207.414241</ele>
        <time>2022-05-03T17:13:19.972Z</time>
      </trkpt>
      <trkpt lat="43.62977" lon="2.20174">
        <ele>208.225406</ele>
        <time>2022-05-03T17:13:32.204Z</time>
      </trkpt>
      <trkpt lat="43.62696" lon="2.20588">
        <ele>214.125279</ele>
        <time>2022-05-03T17:15:16.243Z</time>
      </trkpt>
      <trkpt lat="43.62631" lon="2.20681">
        <ele>214.338756</ele>
        <time>2022-05-03T17:15:32.781Z</time>
      </trkpt>
      <trkpt lat="43.62588" lon="2.20728">
        <ele>213.217528</ele>
        <time>2022-05-03T17:15:41.609Z</time>
      </trkpt>
      <trkpt lat="43.6256" lon="2.20751">
        <ele>212.548972</ele>
        <time>2022-05-03T17:15:46.484Z</time>
      </trkpt>
      <trkpt lat="43.62489" lon="2.20785">
        <ele>210.976257</ele>
        <time>2022-05-03T17:15:58.038Z</time>
      </trkpt>
      <trkpt lat="43.6237" lon="2.20823">
        <ele>208.562068</ele>
        <time>2022-05-03T17:16:17.375Z</time>
      </trkpt>
      <trkpt lat="43.62339" lon="2.20839">
        <ele>207.909898</ele>
        <time>2022-05-03T17:16:22.739Z</time>
      </trkpt>
      <trkpt lat="43.62284" lon="2.20878">
        <ele>206.839687</ele>
        <time>2022-05-03T17:16:32.654Z</time>
      </trkpt>
      <trkpt lat="43.62232" lon="2.20932">
        <ele>206.023898</ele>
        <time>2022-05-03T17:16:43.527Z</time>
      </trkpt>
      <trkpt lat="43.62201" lon="2.20977">
        <ele>205.472075</ele>
        <time>2022-05-03T17:16:51.157Z</time>
      </trkpt>
      <trkpt lat="43.62162" lon="2.21053">
        <ele>204.746304</ele>
        <time>2022-05-03T17:17:03.095Z</time>
      </trkpt>
      <trkpt lat="43.6206" lon="2.21301">
        <ele>203.378611</ele>
        <time>2022-05-03T17:17:41.407Z</time>
      </trkpt>
      <trkpt lat="43.6202" lon="2.21396">
        <ele>202.348883</ele>
        <time>2022-05-03T17:17:55.272Z</time>
      </trkpt>
      <trkpt lat="43.61799" lon="2.21925">
        <ele>192.931242</ele>
        <time>2022-05-03T17:19:03.807Z</time>
      </trkpt>
      <trkpt lat="43.61782" lon="2.21964">
        <ele>192.484203</ele>
        <time>2022-05-03T17:19:09.249Z</time>
      </trkpt>
      <trkpt lat="43.61724" lon="2.2207">
        <ele>191.190643</ele>
        <time>2022-05-03T17:19:25.631Z</time>
      </trkpt>
      <trkpt lat="43.61658" lon="2.22166">
        <ele>190.670204</ele>
        <time>2022-05-03T17:19:43.227Z</time>
      </trkpt>
      <trkpt lat="43.61308" lon="2.22603">
        <ele>189.82707</ele>
        <time>2022-05-03T17:21:14.163Z</time>
      </trkpt>
      <trkpt lat="43.61236" lon="2.22688">
        <ele>189.894882</ele>
        <time>2022-05-03T17:21:34.246Z</time>
      </trkpt>
      <trkpt lat="43.61173" lon="2.22744">
        <ele>189.948672</ele>
        <time>2022-05-03T17:21:49.540Z</time>
      </trkpt>
      <trkpt lat="43.60935" lon="2.22908">
        <ele>187.893693</ele>
        <time>2022-05-03T17:22:36.379Z</time>
      </trkpt>
      <trkpt lat="43.60768" lon="2.23024">
        <ele>185.650931</ele>
        <time>2022-05-03T17:23:08.713Z</time>
      </trkpt>
      <trkpt lat="43.60731" lon="2.23049">
        <ele>185.043947</ele>
        <time>2022-05-03T17:23:15.480Z</time>
      </trkpt>
      <trkpt lat="43.60704" lon="2.23066">
        <ele>184.613014</ele>
        <time>2022-05-03T17:23:20.222Z</time>
      </trkpt>
      <trkpt lat="43.60592" lon="2.23144">
        <ele>182.136669</ele>
        <time>2022-05-03T17:23:40.054Z</time>
      </trkpt>
      <trkpt lat="43.60439" lon="2.23248">
        <ele>179.048988</ele>
        <time>2022-05-03T17:24:06.778Z</time>
      </trkpt>
      <trkpt lat="43.60405" lon="2.23275">
        <ele>178.429846</ele>
        <time>2022-05-03T17:24:13.379Z</time>
      </trkpt>
      <trkpt lat="43.60371" lon="2.23298">
        <ele>177.826809</ele>
        <time>2022-05-03T17:24:20.017Z</time>
      </trkpt>
      <trkpt lat="43.60314" lon="2.23338">
        <ele>177.666829</ele>
        <time>2022-05-03T17:24:31.514Z</time>
      </trkpt>
      <trkpt lat="43.60293" lon="2.2335">
        <ele>177.666641</ele>
        <time>2022-05-03T17:24:36.731Z</time>
      </trkpt>
      <trkpt lat="43.60289" lon="2.23353">
        <ele>177.666602</ele>
        <time>2022-05-03T17:24:37.816Z</time>
      </trkpt>
      <trkpt lat="43.60296" lon="2.23368">
        <ele>177.666496</ele>
        <time>2022-05-03T17:24:40.160Z</time>
      </trkpt>
      <trkpt lat="43.60304" lon="2.23373">
        <ele>177.666424</ele>
        <time>2022-05-03T17:24:41.718Z</time>
      </trkpt>
      <trkpt lat="43.60419" lon="2.23572">
        <ele>178.495778</ele>
        <time>2022-05-03T17:25:18.033Z</time>
      </trkpt>
      <trkpt lat="43.60429" lon="2.23553">
        <ele>178.62602</ele>
        <time>2022-05-03T17:25:21.336Z</time>
      </trkpt>
      <trkpt lat="43.605" lon="2.23605">
        <ele>179.340296</ele>
        <time>2022-05-03T17:25:38.511Z</time>
      </trkpt>
      <trkpt lat="43.6051" lon="2.23562">
        <ele>179.718376</ele>
        <time>2022-05-03T17:25:45.538Z</time>
      </trkpt>
      <trkpt lat="43.60523" lon="2.23572">
        <ele>179.893103</ele>
        <time>2022-05-03T17:25:49.028Z</time>
      </trkpt>
      <trkpt lat="43.60588" lon="2.236">
        <ele>180.679582</ele>
        <time>2022-05-03T17:26:04.072Z</time>
      </trkpt>
      <trkpt lat="43.60693" lon="2.23674">
        <ele>181.454717</ele>
        <time>2022-05-03T17:26:28.275Z</time>
      </trkpt>
      <trkpt lat="43.6069" lon="2.23685">
        <ele>181.487053</ele>
        <time>2022-05-03T17:26:29.825Z</time>
      </trkpt>
      <trkpt lat="43.60682" lon="2.23711">
        <ele>181.568824</ele>
        <time>2022-05-03T17:26:33.623Z</time>
      </trkpt>
      <trkpt lat="43.60677" lon="2.23728">
        <ele>181.623657</ele>
        <time>2022-05-03T17:26:36.257Z</time>
      </trkpt>
      <trkpt lat="43.60627" lon="2.23847">
        <ele>181.741379</ele>
        <time>2022-05-03T17:26:54.324Z</time>
      </trkpt>
      <trkpt lat="43.60578" lon="2.23819">
        <ele>181.577355</ele>
        <time>2022-05-03T17:27:03.805Z</time>
      </trkpt>
      <trkpt lat="43.60548" lon="2.23799">
        <ele>181.475052</ele>
        <time>2022-05-03T17:27:09.619Z</time>
      </trkpt>
      <trkpt lat="43.60538" lon="2.23787">
        <ele>181.437119</ele>
        <time>2022-05-03T17:27:11.769Z</time>
      </trkpt>
      <trkpt lat="43.60475" lon="2.23828">
        <ele>180.929267</ele>
        <time>2022-05-03T17:27:23.919Z</time>
      </trkpt>
      <trkpt lat="43.60449" lon="2.23852">
        <ele>180.527485</ele>
        <time>2022-05-03T17:27:29.294Z</time>
      </trkpt>
      <trkpt lat="43.60417" lon="2.23902">
        <ele>179.888424</ele>
        <time>2022-05-03T17:27:37.267Z</time>
      </trkpt>
      <trkpt lat="43.60391" lon="2.2399">
        <ele>179.000471</ele>
        <time>2022-05-03T17:27:47.386Z</time>
      </trkpt>
      <trkpt lat="43.60388" lon="2.24003">
        <ele>178.758257</ele>
        <time>2022-05-03T17:27:48.834Z</time>
      </trkpt>
      <trkpt lat="43.60376" lon="2.24032">
        <ele>178.136137</ele>
        <time>2022-05-03T17:27:52.156Z</time>
      </trkpt>
      <trkpt lat="43.60361" lon="2.24058">
        <ele>177.505244</ele>
        <time>2022-05-03T17:27:55.384Z</time>
      </trkpt>
      <trkpt lat="43.60364" lon="2.24068">
        <ele>177.297279</ele>
        <time>2022-05-03T17:27:56.478Z</time>
      </trkpt>
      <trkpt lat="43.6036" lon="2.24101">
        <ele>176.668871</ele>
        <time>2022-05-03T17:28:00.778Z</time>
      </trkpt>
      <trkpt lat="43.60356" lon="2.24125">
        <ele>176.192567</ele>
        <time>2022-05-03T17:28:04.110Z</time>
      </trkpt>
      <trkpt lat="43.60359" lon="2.24138">
        <ele>175.944477</ele>
        <time>2022-05-03T17:28:05.818Z</time>
      </trkpt>
      <trkpt lat="43.604" lon="2.24145">
        <ele>174.866952</ele>
        <time>2022-05-03T17:28:13.506Z</time>
      </trkpt>
      <trkpt lat="43.60401" lon="2.24203">
        <ele>174.088387</ele>
        <time>2022-05-03T17:28:21.406Z</time>
      </trkpt>
      <trkpt lat="43.60403" lon="2.24226">
        <ele>173.931384</ele>
        <time>2022-05-03T17:28:24.740Z</time>
      </trkpt>
      <trkpt lat="43.60466" lon="2.24235">
        <ele>173.356812</ele>
        <time>2022-05-03T17:28:34.183Z</time>
      </trkpt>
      <trkpt lat="43.60484" lon="2.2424">
        <ele>173.188159</ele>
        <time>2022-05-03T17:28:37.221Z</time>
      </trkpt>
      <trkpt lat="43.60524" lon="2.24243">
        <ele>172.820441</ele>
        <time>2022-05-03T17:28:43.857Z</time>
      </trkpt>
      <trkpt lat="43.60529" lon="2.24243">
        <ele>172.782924</ele>
        <time>2022-05-03T17:28:44.595Z</time>
      </trkpt>
      <trkpt lat="43.60555" lon="2.24245">
        <ele>172.698482</ele>
        <time>2022-05-03T17:28:50.445Z</time>
      </trkpt>
      <trkpt lat="43.6057" lon="2.24252">
        <ele>172.803643</ele>
        <time>2022-05-03T17:28:53.715Z</time>
      </trkpt>
      <trkpt lat="43.60577" lon="2.24257">
        <ele>172.861009</ele>
        <time>2022-05-03T17:28:55.578Z</time>
      </trkpt>
      <trkpt lat="43.60645" lon="2.24258">
        <ele>173.33732</ele>
        <time>2022-05-03T17:29:10.047Z</time>
      </trkpt>
      <trkpt lat="43.60646" lon="2.24271">
        <ele>173.40073</ele>
        <time>2022-05-03T17:29:11.966Z</time>
      </trkpt>
      <trkpt lat="43.6065" lon="2.24306">
        <ele>173.581696</ele>
        <time>2022-05-03T17:29:17.269Z</time>
      </trkpt>
      <trkpt lat="43.6065" lon="2.2431">
        <ele>173.599467</ele>
        <time>2022-05-03T17:29:17.828Z</time>
      </trkpt>
      <trkpt lat="43.60651" lon="2.24313">
        <ele>173.619237</ele>
        <time>2022-05-03T17:29:18.434Z</time>
      </trkpt>
      <trkpt lat="43.60588" lon="2.2432">
        <ele>173.828823</ele>
        <time>2022-05-03T17:29:30.921Z</time>
      </trkpt>
      <trkpt lat="43.60578" lon="2.24321">
        <ele>173.808813</ele>
        <time>2022-05-03T17:29:32.797Z</time>
      </trkpt>
      <trkpt lat="43.60552" lon="2.24324">
        <ele>173.75439</ele>
        <time>2022-05-03T17:29:37.848Z</time>
      </trkpt>
      <trkpt lat="43.60533" lon="2.2432">
        <ele>173.713187</ele>
        <time>2022-05-03T17:29:41.549Z</time>
      </trkpt>
      <trkpt lat="43.60521" lon="2.24316">
        <ele>173.689181</ele>
        <time>2022-05-03T17:29:43.702Z</time>
      </trkpt>
      <trkpt lat="43.6049" lon="2.24314">
        <ele>173.623826</ele>
        <time>2022-05-03T17:29:48.935Z</time>
      </trkpt>
      <trkpt lat="43.60474" lon="2.24314">
        <ele>173.591609</ele>
        <time>2022-05-03T17:29:51.427Z</time>
      </trkpt>
      <trkpt lat="43.6047" lon="2.24314">
        <ele>173.58183</ele>
        <time>2022-05-03T17:29:52.141Z</time>
      </trkpt>
      <trkpt lat="43.60438" lon="2.24312">
        <ele>173.514843</ele>
        <time>2022-05-03T17:29:57.381Z</time>
      </trkpt>
      <trkpt lat="43.60421" lon="2.24311">
        <ele>173.612607</ele>
        <time>2022-05-03T17:29:59.922Z</time>
      </trkpt>
      <trkpt lat="43.60365" lon="2.24306">
        <ele>174.079214</ele>
        <time>2022-05-03T17:30:09.557Z</time>
      </trkpt>
      <trkpt lat="43.60338" lon="2.24308">
        <ele>174.297</ele>
        <time>2022-05-03T17:30:14.697Z</time>
      </trkpt>
      <trkpt lat="43.60312" lon="2.24318">
        <ele>174.523799</ele>
        <time>2022-05-03T17:30:20.650Z</time>
      </trkpt>
      <trkpt lat="43.60273" lon="2.24318">
        <ele>174.844501</ele>
        <time>2022-05-03T17:30:30.536Z</time>
      </trkpt>
      <trkpt lat="43.6026" lon="2.24326">
        <ele>174.961828</ele>
        <time>2022-05-03T17:30:34.524Z</time>
      </trkpt>
      <trkpt lat="43.60257" lon="2.24321">
        <ele>175.055648</ele>
        <time>2022-05-03T17:30:35.776Z</time>
      </trkpt>
      <trkpt lat="43.60246" lon="2.24327">
        <ele>175.517432</ele>
        <time>2022-05-03T17:30:39.071Z</time>
      </trkpt>
      <trkpt lat="43.60223" lon="2.24324">
        <ele>176.44703</ele>
        <time>2022-05-03T17:30:45.743Z</time>
      </trkpt>
      <trkpt lat="43.60219" lon="2.24357">
        <ele>177.425899</ele>
        <time>2022-05-03T17:30:53.394Z</time>
      </trkpt>
      <trkpt lat="43.60214" lon="2.24356">
        <ele>177.60896</ele>
        <time>2022-05-03T17:30:54.773Z</time>
      </trkpt>
      <trkpt lat="43.60196" lon="2.24358">
        <ele>178.32778</ele>
        <time>2022-05-03T17:31:00.493Z</time>
      </trkpt>
      <trkpt lat="43.60169" lon="2.24361">
        <ele>179.438103</ele>
        <time>2022-05-03T17:31:09.762Z</time>
      </trkpt>
      <trkpt lat="43.60146" lon="2.24359">
        <ele>180.323947</ele>
        <time>2022-05-03T17:31:17.638Z</time>
      </trkpt>
      <trkpt lat="43.60086" lon="2.24565">
        <ele>185.064328</ele>
        <time>2022-05-03T17:32:06.953Z</time>
      </trkpt>
      <trkpt lat="43.60077" lon="2.24573">
        <ele>185.310045</ele>
        <time>2022-05-03T17:32:08.966Z</time>
      </trkpt>
      <trkpt lat="43.60035" lon="2.2457">
        <ele>186.369246</ele>
        <time>2022-05-03T17:32:16.583Z</time>
      </trkpt>
      <trkpt lat="43.60003" lon="2.24568">
        <ele>186.499897</ele>
        <time>2022-05-03T17:32:21.875Z</time>
      </trkpt>
      <trkpt lat="43.5998" lon="2.2456">
        <ele>186.276397</ele>
        <time>2022-05-03T17:32:25.791Z</time>
      </trkpt>
      <trkpt lat="43.59967" lon="2.24543">
        <ele>186.11083</ele>
        <time>2022-05-03T17:32:28.709Z</time>
      </trkpt>
      <trkpt lat="43.59956" lon="2.24429">
        <ele>185.34172</ele>
        <time>2022-05-03T17:32:41.265Z</time>
      </trkpt>
      <trkpt lat="43.59911" lon="2.24458">
        <ele>184.884</ele>
        <time>2022-05-03T17:32:48.681Z</time>
      </trkpt>
      <trkpt lat="43.59853" lon="2.24493">
        <ele>184.332907</ele>
        <time>2022-05-03T17:32:57.985Z</time>
      </trkpt>
      <trkpt lat="43.59807" lon="2.24531">
        <ele>183.859825</ele>
        <time>2022-05-03T17:33:06.901Z</time>
      </trkpt>
      <trkpt lat="43.59774" lon="2.24554">
        <ele>183.532319</ele>
        <time>2022-05-03T17:33:13.112Z</time>
      </trkpt>
      <trkpt lat="43.59721" lon="2.24585">
        <ele>183.194283</ele>
        <time>2022-05-03T17:33:22.583Z</time>
      </trkpt>
      <trkpt lat="43.59672" lon="2.24605">
        <ele>182.929414</ele>
        <time>2022-05-03T17:33:30.832Z</time>
      </trkpt>
      <trkpt lat="43.59549" lon="2.24652">
        <ele>182.921731</ele>
        <time>2022-05-03T17:33:53.798Z</time>
      </trkpt>
      <trkpt lat="43.59534" lon="2.24663">
        <ele>183.081578</ele>
        <time>2022-05-03T17:33:57.217Z</time>
      </trkpt>
      <trkpt lat="43.59515" lon="2.24677">
        <ele>183.278498</ele>
        <time>2022-05-03T17:34:01.953Z</time>
      </trkpt>
      <trkpt lat="43.59516" lon="2.2468">
        <ele>183.302778</ele>
        <time>2022-05-03T17:34:02.677Z</time>
      </trkpt>
      <trkpt lat="43.59504" lon="2.24701">
        <ele>183.477503</ele>
        <time>2022-05-03T17:34:06.606Z</time>
      </trkpt>
      <trkpt lat="43.59494" lon="2.24707">
        <ele>183.575276</ele>
        <time>2022-05-03T17:34:08.975Z</time>
      </trkpt>
      <trkpt lat="43.59496" lon="2.24723">
        <ele>183.682477</ele>
        <time>2022-05-03T17:34:11.606Z</time>
      </trkpt>
      <trkpt lat="43.59494" lon="2.2473">
        <ele>183.727391</ele>
        <time>2022-05-03T17:34:12.679Z</time>
      </trkpt>
      <trkpt lat="43.59485" lon="2.24754">
        <ele>183.908356</ele>
        <time>2022-05-03T17:34:17.175Z</time>
      </trkpt>
      <trkpt lat="43.59481" lon="2.24787">
        <ele>184.130575</ele>
        <time>2022-05-03T17:34:22.862Z</time>
      </trkpt>
      <trkpt lat="43.59468" lon="2.24822">
        <ele>184.647181</ele>
        <time>2022-05-03T17:34:29.727Z</time>
      </trkpt>
      <trkpt lat="43.59467" lon="2.24837">
        <ele>184.874205</ele>
        <time>2022-05-03T17:34:32.539Z</time>
      </trkpt>
      <trkpt lat="43.59464" lon="2.24859">
        <ele>185.18231</ele>
        <time>2022-05-03T17:34:36.641Z</time>
      </trkpt>
      <trkpt lat="43.59456" lon="2.24874">
        <ele>185.453461</ele>
        <time>2022-05-03T17:34:39.917Z</time>
      </trkpt>
      <trkpt lat="43.59438" lon="2.24887">
        <ele>185.855936</ele>
        <time>2022-05-03T17:34:45.031Z</time>
      </trkpt>
      <trkpt lat="43.59387" lon="2.24953">
        <ele>187.213924</ele>
        <time>2022-05-03T17:35:01.462Z</time>
      </trkpt>
      <trkpt lat="43.59389" lon="2.24957">
        <ele>187.294036</ele>
        <time>2022-05-03T17:35:02.435Z</time>
      </trkpt>
      <trkpt lat="43.59364" lon="2.24985">
        <ele>187.915553</ele>
        <time>2022-05-03T17:35:10.156Z</time>
      </trkpt>
      <trkpt lat="43.59362" lon="2.24984">
        <ele>187.950947</ele>
        <time>2022-05-03T17:35:10.610Z</time>
      </trkpt>
      <trkpt lat="43.5936" lon="2.24983">
        <ele>187.997078</ele>
        <time>2022-05-03T17:35:11.206Z</time>
      </trkpt>
      <trkpt lat="43.59357" lon="2.24982">
        <ele>188.051756</ele>
        <time>2022-05-03T17:35:11.876Z</time>
      </trkpt>
      <trkpt lat="43.59353" lon="2.24979">
        <ele>188.137816</ele>
        <time>2022-05-03T17:35:12.902Z</time>
      </trkpt>
      <trkpt lat="43.59343" lon="2.2499">
        <ele>188.39942</ele>
        <time>2022-05-03T17:35:16.196Z</time>
      </trkpt>
      <trkpt lat="43.5934" lon="2.24991">
        <ele>188.461483</ele>
        <time>2022-05-03T17:35:17.175Z</time>
      </trkpt>
      <trkpt lat="43.59336" lon="2.24993">
        <ele>188.533972</ele>
        <time>2022-05-03T17:35:18.310Z</time>
      </trkpt>
      <trkpt lat="43.59328" lon="2.24996">
        <ele>188.702714</ele>
        <time>2022-05-03T17:35:20.923Z</time>
      </trkpt>
      <trkpt lat="43.59331" lon="2.25061">
        <ele>189.604507</ele>
        <time>2022-05-03T17:35:32.594Z</time>
      </trkpt>
      <trkpt lat="43.59318" lon="2.25115">
        <ele>190.408153</ele>
        <time>2022-05-03T17:35:42.616Z</time>
      </trkpt>
      <trkpt lat="43.59286" lon="2.25175">
        <ele>191.387163</ele>
        <time>2022-05-03T17:35:54.990Z</time>
      </trkpt>
      <trkpt lat="43.59272" lon="2.252">
        <ele>191.749661</ele>
        <time>2022-05-03T17:36:00.344Z</time>
      </trkpt>
      <trkpt lat="43.59146" lon="2.25415">
        <ele>194.691909</ele>
        <time>2022-05-03T17:36:45.684Z</time>
      </trkpt>
      <trkpt lat="43.59138" lon="2.25423">
        <ele>194.803182</ele>
        <time>2022-05-03T17:36:47.718Z</time>
      </trkpt>
      <trkpt lat="43.5913" lon="2.25428">
        <ele>194.918839</ele>
        <time>2022-05-03T17:36:49.717Z</time>
      </trkpt>
      <trkpt lat="43.59121" lon="2.25429">
        <ele>195.032546</ele>
        <time>2022-05-03T17:36:51.696Z</time>
      </trkpt>
      <trkpt lat="43.59117" lon="2.25433">
        <ele>195.084422</ele>
        <time>2022-05-03T17:36:52.860Z</time>
      </trkpt>
      <trkpt lat="43.59115" lon="2.25435">
        <ele>195.121109</ele>
        <time>2022-05-03T17:36:53.685Z</time>
      </trkpt>
      <trkpt lat="43.59112" lon="2.25447">
        <ele>195.235549</ele>
        <time>2022-05-03T17:36:55.775Z</time>
      </trkpt>
      <trkpt lat="43.59093" lon="2.25482">
        <ele>195.619968</ele>
        <time>2022-05-03T17:37:02.485Z</time>
      </trkpt>
      <trkpt lat="43.59074" lon="2.25505">
        <ele>195.92982</ele>
        <time>2022-05-03T17:37:07.838Z</time>
      </trkpt>
      <trkpt lat="43.59036" lon="2.25535">
        <ele>196.430356</ele>
        <time>2022-05-03T17:37:17.095Z</time>
      </trkpt>
      <trkpt lat="43.59033" lon="2.25536">
        <ele>196.461963</ele>
        <time>2022-05-03T17:37:17.896Z</time>
      </trkpt>
      <trkpt lat="43.59032" lon="2.25537">
        <ele>196.476281</ele>
        <time>2022-05-03T17:37:18.262Z</time>
      </trkpt>
      <trkpt lat="43.5903" lon="2.25538">
        <ele>196.491906</ele>
        <time>2022-05-03T17:37:18.661Z</time>
      </trkpt>
      <trkpt lat="43.58968" lon="2.25576">
        <ele>197.220468</ele>
        <time>2022-05-03T17:37:32.745Z</time>
      </trkpt>
      <trkpt lat="43.58951" lon="2.25587">
        <ele>197.430647</ele>
        <time>2022-05-03T17:37:36.805Z</time>
      </trkpt>
      <trkpt lat="43.58888" lon="2.25622">
        <ele>198.217107</ele>
        <time>2022-05-03T17:37:51.253Z</time>
      </trkpt>
      <trkpt lat="43.58848" lon="2.25637">
        <ele>199.105033</ele>
        <time>2022-05-03T17:38:00.450Z</time>
      </trkpt>
      <trkpt lat="43.58821" lon="2.25643">
        <ele>199.692726</ele>
        <time>2022-05-03T17:38:06.700Z</time>
      </trkpt>
      <trkpt lat="43.58772" lon="2.25646">
        <ele>200.756246</ele>
        <time>2022-05-03T17:38:18.804Z</time>
      </trkpt>
      <trkpt lat="43.58764" lon="2.25646">
        <ele>200.926086</ele>
        <time>2022-05-03T17:38:21.283Z</time>
      </trkpt>
      <trkpt lat="43.58758" lon="2.25646">
        <ele>201.04863</ele>
        <time>2022-05-03T17:38:23.100Z</time>
      </trkpt>
      <trkpt lat="43.58684" lon="2.25645">
        <ele>203.223984</ele>
        <time>2022-05-03T17:38:43.624Z</time>
      </trkpt>
      <trkpt lat="43.58519" lon="2.25643">
        <ele>209.876894</ele>
        <time>2022-05-03T17:39:35.419Z</time>
      </trkpt>
      <trkpt lat="43.58506" lon="2.25643">
        <ele>210.414915</ele>
        <time>2022-05-03T17:39:39.568Z</time>
      </trkpt>
      <trkpt lat="43.58499" lon="2.25643">
        <ele>210.741895</ele>
        <time>2022-05-03T17:39:42.503Z</time>
      </trkpt>
      <trkpt lat="43.58491" lon="2.25643">
        <ele>211.064572</ele>
        <time>2022-05-03T17:39:45.414Z</time>
      </trkpt>
      <trkpt lat="43.58427" lon="2.25645">
        <ele>213.853424</ele>
        <time>2022-05-03T17:40:06.486Z</time>
      </trkpt>
      <trkpt lat="43.58391" lon="2.25659">
        <ele>215.458414</ele>
        <time>2022-05-03T17:40:18.273Z</time>
      </trkpt>
      <trkpt lat="43.58355" lon="2.25686">
        <ele>217.093288</ele>
        <time>2022-05-03T17:40:30.882Z</time>
      </trkpt>
      <trkpt lat="43.58331" lon="2.25669">
        <ele>217.849649</ele>
        <time>2022-05-03T17:40:38.646Z</time>
      </trkpt>
      <trkpt lat="43.58328" lon="2.25672">
        <ele>217.96</ele>
        <time>2022-05-03T17:40:39.763Z</time>
      </trkpt>
      <trkpt lat="43.58321" lon="2.25679">
        <ele>218.211351</ele>
        <time>2022-05-03T17:40:42.363Z</time>
      </trkpt>
      <trkpt lat="43.58317" lon="2.25683">
        <ele>218.348846</ele>
        <time>2022-05-03T17:40:43.713Z</time>
      </trkpt>
      <trkpt lat="43.58317" lon="2.25708">
        <ele>218.865402</ele>
        <time>2022-05-03T17:40:48.638Z</time>
      </trkpt>
      <trkpt lat="43.58317" lon="2.25716">
        <ele>219.02976</ele>
        <time>2022-05-03T17:40:50.226Z</time>
      </trkpt>
      <trkpt lat="43.58312" lon="2.25721">
        <ele>219.212027</ele>
        <time>2022-05-03T17:40:52.003Z</time>
      </trkpt>
      <trkpt lat="43.58282" lon="2.25782">
        <ele>220.738055</ele>
        <time>2022-05-03T17:41:05.801Z</time>
      </trkpt>
      <trkpt lat="43.5825" lon="2.25815">
        <ele>221.870395</ele>
        <time>2022-05-03T17:41:15.478Z</time>
      </trkpt>
      <trkpt lat="43.58197" lon="2.25839">
        <ele>223.068489</ele>
        <time>2022-05-03T17:41:28.557Z</time>
      </trkpt>
      <trkpt lat="43.58175" lon="2.25856">
        <ele>223.603271</ele>
        <time>2022-05-03T17:41:35.324Z</time>
      </trkpt>
      <trkpt lat="43.58171" lon="2.25848">
        <ele>223.736023</ele>
        <time>2022-05-03T17:41:37.508Z</time>
      </trkpt>
      <trkpt lat="43.5816" lon="2.25825">
        <ele>224.162401</ele>
        <time>2022-05-03T17:41:45.310Z</time>
      </trkpt>
      <trkpt lat="43.58096" lon="2.25927">
        <ele>225.971294</ele>
        <time>2022-05-03T17:42:09.545Z</time>
      </trkpt>
      <trkpt lat="43.58096" lon="2.25927">
        <ele>225.971294</ele>
        <time>2022-05-03T17:42:09.743Z</time>
      </trkpt>
      <trkpt lat="43.57999" lon="2.26052">
        <ele>227.294981</ele>
        <time>2022-05-03T17:42:39.409Z</time>
      </trkpt>
      <trkpt lat="43.57963" lon="2.26002">
        <ele>227.212681</ele>
        <time>2022-05-03T17:42:53.769Z</time>
      </trkpt>
      <trkpt lat="43.57899" lon="2.25895">
        <ele>225.854007</ele>
        <time>2022-05-03T17:43:19.488Z</time>
      </trkpt>
      <trkpt lat="43.57896" lon="2.25874">
        <ele>225.646319</ele>
        <time>2022-05-03T17:43:23.291Z</time>
      </trkpt>
      <trkpt lat="43.57901" lon="2.25809">
        <ele>225.07599</ele>
        <time>2022-05-03T17:43:35.410Z</time>
      </trkpt>
      <trkpt lat="43.57787" lon="2.25827">
        <ele>224.496237</ele>
        <time>2022-05-03T17:43:54.029Z</time>
      </trkpt>
      <trkpt lat="43.57654" lon="2.25808">
        <ele>225.402955</ele>
        <time>2022-05-03T17:44:22.768Z</time>
      </trkpt>
      <trkpt lat="43.57623" lon="2.25827">
        <ele>225.921965</ele>
        <time>2022-05-03T17:44:31.201Z</time>
      </trkpt>
      <trkpt lat="43.57531" lon="2.25903">
        <ele>226.74956</ele>
        <time>2022-05-03T17:44:58.364Z</time>
      </trkpt>
      <trkpt lat="43.57484" lon="2.25933">
        <ele>226.445915</ele>
        <time>2022-05-03T17:45:09.386Z</time>
      </trkpt>
      <trkpt lat="43.57476" lon="2.25939">
        <ele>226.395727</ele>
        <time>2022-05-03T17:45:10.863Z</time>
      </trkpt>
      <trkpt lat="43.57459" lon="2.25918">
        <ele>226.265174</ele>
        <time>2022-05-03T17:45:14.767Z</time>
      </trkpt>
      <trkpt lat="43.57252" lon="2.25731">
        <ele>218.192463</ele>
        <time>2022-05-03T17:45:46.222Z</time>
      </trkpt>
      <trkpt lat="43.57242" lon="2.25718">
        <ele>217.398026</ele>
        <time>2022-05-03T17:45:47.823Z</time>
      </trkpt>
      <trkpt lat="43.57236" lon="2.25677">
        <ele>215.623954</ele>
        <time>2022-05-03T17:45:51.266Z</time>
      </trkpt>
      <trkpt lat="43.57228" lon="2.25672">
        <ele>215.122858</ele>
        <time>2022-05-03T17:45:52.244Z</time>
      </trkpt>
      <trkpt lat="43.57218" lon="2.25676">
        <ele>214.527091</ele>
        <time>2022-05-03T17:45:53.390Z</time>
      </trkpt>
      <trkpt lat="43.57192" lon="2.25684">
        <ele>212.912571</ele>
        <time>2022-05-03T17:45:56.567Z</time>
      </trkpt>
      <trkpt lat="43.5717" lon="2.2567">
        <ele>211.52967</ele>
        <time>2022-05-03T17:45:59.287Z</time>
      </trkpt>
      <trkpt lat="43.57139" lon="2.25648">
        <ele>209.467229</ele>
        <time>2022-05-03T17:46:03.406Z</time>
      </trkpt>
      <trkpt lat="43.57095" lon="2.2562">
        <ele>207.018515</ele>
        <time>2022-05-03T17:46:09.190Z</time>
      </trkpt>
      <trkpt lat="43.57066" lon="2.25617">
        <ele>205.738135</ele>
        <time>2022-05-03T17:46:12.649Z</time>
      </trkpt>
      <trkpt lat="43.57031" lon="2.25627">
        <ele>204.182482</ele>
        <time>2022-05-03T17:46:16.957Z</time>
      </trkpt>
      <trkpt lat="43.56998" lon="2.25653">
        <ele>202.498096</ele>
        <time>2022-05-03T17:46:21.739Z</time>
      </trkpt>
      <trkpt lat="43.56976" lon="2.25687">
        <ele>201.056874</ele>
        <time>2022-05-03T17:46:25.942Z</time>
      </trkpt>
      <trkpt lat="43.56881" lon="2.25922">
        <ele>195.986839</ele>
        <time>2022-05-03T17:46:52.642Z</time>
      </trkpt>
      <trkpt lat="43.56874" lon="2.25933">
        <ele>195.818935</ele>
        <time>2022-05-03T17:46:54.118Z</time>
      </trkpt>
      <trkpt lat="43.56856" lon="2.25944">
        <ele>195.548882</ele>
        <time>2022-05-03T17:46:56.974Z</time>
      </trkpt>
      <trkpt lat="43.56846" lon="2.25965">
        <ele>195.311833</ele>
        <time>2022-05-03T17:46:59.416Z</time>
      </trkpt>
      <trkpt lat="43.56846" lon="2.2598">
        <ele>195.161036</ele>
        <time>2022-05-03T17:47:01.083Z</time>
      </trkpt>
      <trkpt lat="43.56847" lon="2.2602">
        <ele>194.771795</ele>
        <time>2022-05-03T17:47:05.235Z</time>
      </trkpt>
      <trkpt lat="43.56832" lon="2.26065">
        <ele>194.293544</ele>
        <time>2022-05-03T17:47:10.553Z</time>
      </trkpt>
      <trkpt lat="43.5681" lon="2.261">
        <ele>193.843704</ele>
        <time>2022-05-03T17:47:15.722Z</time>
      </trkpt>
      <trkpt lat="43.56703" lon="2.2632">
        <ele>193.556383</ele>
        <time>2022-05-03T17:47:49.939Z</time>
      </trkpt>
      <trkpt lat="43.56692" lon="2.26335">
        <ele>193.571381</ele>
        <time>2022-05-03T17:47:52.847Z</time>
      </trkpt>
      <trkpt lat="43.5668" lon="2.26341">
        <ele>193.621737</ele>
        <time>2022-05-03T17:47:55.454Z</time>
      </trkpt>
      <trkpt lat="43.56663" lon="2.2636">
        <ele>193.702901</ele>
        <time>2022-05-03T17:47:59.794Z</time>
      </trkpt>
      <trkpt lat="43.56655" lon="2.26389">
        <ele>193.785283</ele>
        <time>2022-05-03T17:48:04.181Z</time>
      </trkpt>
      <trkpt lat="43.56656" lon="2.26406">
        <ele>193.833013</ele>
        <time>2022-05-03T17:48:06.630Z</time>
      </trkpt>
      <trkpt lat="43.56662" lon="2.26414">
        <ele>193.865782</ele>
        <time>2022-05-03T17:48:08.290Z</time>
      </trkpt>
      <trkpt lat="43.56668" lon="2.26421">
        <ele>193.89274</ele>
        <time>2022-05-03T17:48:09.691Z</time>
      </trkpt>
      <trkpt lat="43.56671" lon="2.26431">
        <ele>193.923436</ele>
        <time>2022-05-03T17:48:11.429Z</time>
      </trkpt>
      <trkpt lat="43.56624" lon="2.265">
        <ele>194.179305</ele>
        <time>2022-05-03T17:48:24.361Z</time>
      </trkpt>
      <trkpt lat="43.56594" lon="2.26523">
        <ele>194.279292</ele>
        <time>2022-05-03T17:48:30.638Z</time>
      </trkpt>
      <trkpt lat="43.5655" lon="2.26542">
        <ele>194.388644</ele>
        <time>2022-05-03T17:48:38.872Z</time>
      </trkpt>
      <trkpt lat="43.56532" lon="2.26559">
        <ele>194.440447</ele>
        <time>2022-05-03T17:48:42.562Z</time>
      </trkpt>
      <trkpt lat="43.56466" lon="2.2668">
        <ele>194.876925</ele>
        <time>2022-05-03T17:49:03.006Z</time>
      </trkpt>
      <trkpt lat="43.56398" lon="2.26811">
        <ele>196.237258</ele>
        <time>2022-05-03T17:49:29.321Z</time>
      </trkpt>
      <trkpt lat="43.56391" lon="2.26825">
        <ele>196.383842</ele>
        <time>2022-05-03T17:49:32.057Z</time>
      </trkpt>
      <trkpt lat="43.56386" lon="2.26833">
        <ele>196.473572</ele>
        <time>2022-05-03T17:49:33.694Z</time>
      </trkpt>
      <trkpt lat="43.5636" lon="2.26881">
        <ele>196.707994</ele>
        <time>2022-05-03T17:49:43.359Z</time>
      </trkpt>
      <trkpt lat="43.5635" lon="2.26881">
        <ele>196.6831</ele>
        <time>2022-05-03T17:49:45.436Z</time>
      </trkpt>
      <trkpt lat="43.56339" lon="2.26886">
        <ele>196.653024</ele>
        <time>2022-05-03T17:49:47.689Z</time>
      </trkpt>
      <trkpt lat="43.56302" lon="2.26956">
        <ele>196.489229</ele>
        <time>2022-05-03T17:49:59.837Z</time>
      </trkpt>
      <trkpt lat="43.56292" lon="2.26962">
        <ele>196.460341</ele>
        <time>2022-05-03T17:50:01.480Z</time>
      </trkpt>
      <trkpt lat="43.56176" lon="2.26953">
        <ele>194.900438</ele>
        <time>2022-05-03T17:50:18.339Z</time>
      </trkpt>
      <trkpt lat="43.56127" lon="2.2708">
        <ele>192.033938</ele>
        <time>2022-05-03T17:50:31.711Z</time>
      </trkpt>
      <trkpt lat="43.56095" lon="2.27148">
        <ele>190.593745</ele>
        <time>2022-05-03T17:50:39.741Z</time>
      </trkpt>
      <trkpt lat="43.56082" lon="2.2715">
        <ele>190.310298</ele>
        <time>2022-05-03T17:50:41.481Z</time>
      </trkpt>
      <trkpt lat="43.56078" lon="2.2715">
        <ele>190.225045</ele>
        <time>2022-05-03T17:50:42.204Z</time>
      </trkpt>
      <trkpt lat="43.56063" lon="2.27168">
        <ele>189.77408</ele>
        <time>2022-05-03T17:50:44.972Z</time>
      </trkpt>
      <trkpt lat="43.56047" lon="2.27188">
        <ele>189.303283</ele>
        <time>2022-05-03T17:50:47.895Z</time>
      </trkpt>
      <trkpt lat="43.56034" lon="2.27206">
        <ele>188.879054</ele>
        <time>2022-05-03T17:50:50.470Z</time>
      </trkpt>
      <trkpt lat="43.5602" lon="2.27227">
        <ele>188.421767</ele>
        <time>2022-05-03T17:50:53.350Z</time>
      </trkpt>
      <trkpt lat="43.55999" lon="2.27272">
        <ele>187.552017</ele>
        <time>2022-05-03T17:50:58.817Z</time>
      </trkpt>
      <trkpt lat="43.55986" lon="2.27257">
        <ele>187.233513</ele>
        <time>2022-05-03T17:51:03.046Z</time>
      </trkpt>
      <trkpt lat="43.55932" lon="2.27155">
        <ele>185.916624</ele>
        <time>2022-05-03T17:51:27.626Z</time>
      </trkpt>
      <trkpt lat="43.55916" lon="2.27091">
        <ele>185.212374</ele>
        <time>2022-05-03T17:51:40.259Z</time>
      </trkpt>
      <trkpt lat="43.55887" lon="2.27064">
        <ele>184.711894</ele>
        <time>2022-05-03T17:51:49.417Z</time>
      </trkpt>
      <trkpt lat="43.55857" lon="2.27064">
        <ele>184.402843</ele>
        <time>2022-05-03T17:51:57.130Z</time>
      </trkpt>
      <trkpt lat="43.55728" lon="2.27105">
        <ele>183.018672</ele>
        <time>2022-05-03T17:52:32.824Z</time>
      </trkpt>
      <trkpt lat="43.55696" lon="2.27106">
        <ele>182.853666</ele>
        <time>2022-05-03T17:52:42.008Z</time>
      </trkpt>
      <trkpt lat="43.55682" lon="2.27112">
        <ele>182.840174</ele>
        <time>2022-05-03T17:52:46.214Z</time>
      </trkpt>
      <trkpt lat="43.55561" lon="2.27163">
        <ele>182.726435</ele>
        <time>2022-05-03T17:53:22.949Z</time>
      </trkpt>
      <trkpt lat="43.55482" lon="2.27239">
        <ele>184.015833</ele>
        <time>2022-05-03T17:53:54.417Z</time>
      </trkpt>
      <trkpt lat="43.55447" lon="2.27288">
        <ele>184.856902</ele>
        <time>2022-05-03T17:54:11.973Z</time>
      </trkpt>
      <trkpt lat="43.55262" lon="2.2765">
        <ele>191.805395</ele>
        <time>2022-05-03T17:56:16.637Z</time>
      </trkpt>
      <trkpt lat="43.551" lon="2.27555">
        <ele>191.375924</ele>
        <time>2022-05-03T17:56:45.049Z</time>
      </trkpt>
      <trkpt lat="43.54895" lon="2.27434">
        <ele>187.060844</ele>
        <time>2022-05-03T17:57:15.138Z</time>
      </trkpt>
      <trkpt lat="43.5487" lon="2.27419">
        <ele>186.45679</ele>
        <time>2022-05-03T17:57:19.010Z</time>
      </trkpt>
      <trkpt lat="43.54855" lon="2.2741">
        <ele>186.112376</ele>
        <time>2022-05-03T17:57:21.436Z</time>
      </trkpt>
      <trkpt lat="43.54841" lon="2.27397">
        <ele>185.959195</ele>
        <time>2022-05-03T17:57:23.841Z</time>
      </trkpt>
      <trkpt lat="43.54838" lon="2.27377">
        <ele>186.110184</ele>
        <time>2022-05-03T17:57:26.379Z</time>
      </trkpt>
      <trkpt lat="43.54831" lon="2.27369">
        <ele>186.20239</ele>
        <time>2022-05-03T17:57:27.752Z</time>
      </trkpt>
      <trkpt lat="43.54823" lon="2.27367">
        <ele>186.278762</ele>
        <time>2022-05-03T17:57:28.968Z</time>
      </trkpt>
      <trkpt lat="43.5481" lon="2.27376">
        <ele>186.423913</ele>
        <time>2022-05-03T17:57:31.594Z</time>
      </trkpt>
      <trkpt lat="43.54807" lon="2.27389">
        <ele>186.522075</ele>
        <time>2022-05-03T17:57:33.261Z</time>
      </trkpt>
      <trkpt lat="43.5481" lon="2.27406">
        <ele>186.650607</ele>
        <time>2022-05-03T17:57:35.443Z</time>
      </trkpt>
      <trkpt lat="43.54818" lon="2.27414">
        <ele>186.752984</ele>
        <time>2022-05-03T17:57:37.431Z</time>
      </trkpt>
      <trkpt lat="43.54812" lon="2.2745">
        <ele>187.024579</ele>
        <time>2022-05-03T17:57:42.879Z</time>
      </trkpt>
      <trkpt lat="43.54805" lon="2.2749">
        <ele>187.321812</ele>
        <time>2022-05-03T17:57:50.606Z</time>
      </trkpt>
      <trkpt lat="43.54809" lon="2.27544">
        <ele>187.73565</ele>
        <time>2022-05-03T17:58:03.947Z</time>
      </trkpt>
      <trkpt lat="43.54821" lon="2.27603">
        <ele>189.408637</ele>
        <time>2022-05-03T17:58:20.109Z</time>
      </trkpt>
      <trkpt lat="43.54833" lon="2.27644">
        <ele>190.602725</ele>
        <time>2022-05-03T17:58:31.692Z</time>
      </trkpt>
      <trkpt lat="43.54849" lon="2.27688">
        <ele>191.944599</ele>
        <time>2022-05-03T17:58:42.611Z</time>
      </trkpt>
      <trkpt lat="43.54864" lon="2.27711">
        <ele>192.771899</ele>
        <time>2022-05-03T17:58:49.316Z</time>
      </trkpt>
      <trkpt lat="43.54927" lon="2.27781">
        <ele>195.944939</ele>
        <time>2022-05-03T17:59:13.444Z</time>
      </trkpt>
      <trkpt lat="43.54938" lon="2.27822">
        <ele>197.24159</ele>
        <time>2022-05-03T17:59:22.667Z</time>
      </trkpt>
      <trkpt lat="43.54941" lon="2.27864">
        <ele>198.494711</ele>
        <time>2022-05-03T17:59:31.637Z</time>
      </trkpt>
      <trkpt lat="43.54935" lon="2.28017">
        <ele>203.363073</ele>
        <time>2022-05-03T18:00:07.377Z</time>
      </trkpt>
      <trkpt lat="43.54981" lon="2.28201">
        <ele>210.548252</ele>
        <time>2022-05-03T18:00:56.959Z</time>
      </trkpt>
      <trkpt lat="43.54981" lon="2.28232">
        <ele>211.50405</ele>
        <time>2022-05-03T18:01:04.471Z</time>
      </trkpt>
      <trkpt lat="43.54977" lon="2.28272">
        <ele>212.660685</ele>
        <time>2022-05-03T18:01:14.555Z</time>
      </trkpt>
      <trkpt lat="43.54932" lon="2.28436">
        <ele>217.663332</ele>
        <time>2022-05-03T18:01:51.451Z</time>
      </trkpt>
      <trkpt lat="43.54968" lon="2.28557">
        <ele>221.845291</ele>
        <time>2022-05-03T18:02:17.867Z</time>
      </trkpt>
      <trkpt lat="43.55168" lon="2.29051">
        <ele>239.811745</ele>
        <time>2022-05-03T18:04:35.007Z</time>
      </trkpt>
      <trkpt lat="43.55171" lon="2.29065">
        <ele>240.258126</ele>
        <time>2022-05-03T18:04:38.094Z</time>
      </trkpt>
      <trkpt lat="43.55154" lon="2.2913">
        <ele>241.781178</ele>
        <time>2022-05-03T18:04:51.305Z</time>
      </trkpt>
      <trkpt lat="43.55146" lon="2.29139">
        <ele>241.857931</ele>
        <time>2022-05-03T18:04:53.855Z</time>
      </trkpt>
      <trkpt lat="43.54939" lon="2.29151">
        <ele>242.27732</ele>
        <time>2022-05-03T18:05:32.208Z</time>
      </trkpt>
      <trkpt lat="43.54729" lon="2.29203">
        <ele>237.995045</ele>
        <time>2022-05-03T18:06:02.064Z</time>
      </trkpt>
      <trkpt lat="43.54446" lon="2.29282">
        <ele>227.330137</ele>
        <time>2022-05-03T18:06:38.845Z</time>
      </trkpt>
      <trkpt lat="43.5441" lon="2.29281">
        <ele>225.112286</ele>
        <time>2022-05-03T18:06:43.058Z</time>
      </trkpt>
      <trkpt lat="43.54209" lon="2.29241">
        <ele>213.033577</ele>
        <time>2022-05-03T18:07:06.266Z</time>
      </trkpt>
      <trkpt lat="43.54119" lon="2.29197">
        <ele>207.755211</ele>
        <time>2022-05-03T18:07:17.722Z</time>
      </trkpt>
      <trkpt lat="43.54098" lon="2.29196">
        <ele>207.233268</ele>
        <time>2022-05-03T18:07:20.392Z</time>
      </trkpt>
      <trkpt lat="43.54085" lon="2.29215">
        <ele>207.202076</ele>
        <time>2022-05-03T18:07:22.986Z</time>
      </trkpt>
      <trkpt lat="43.54053" lon="2.29326">
        <ele>207.061945</ele>
        <time>2022-05-03T18:07:38.248Z</time>
      </trkpt>
      <trkpt lat="43.54032" lon="2.29353">
        <ele>207.015964</ele>
        <time>2022-05-03T18:07:44.178Z</time>
      </trkpt>
      <trkpt lat="43.54011" lon="2.29395">
        <ele>207.106318</ele>
        <time>2022-05-03T18:07:53.424Z</time>
      </trkpt>
      <trkpt lat="43.54005" lon="2.29412">
        <ele>207.62988</ele>
        <time>2022-05-03T18:07:57.843Z</time>
      </trkpt>
      <trkpt lat="43.54" lon="2.29483">
        <ele>209.60983</ele>
        <time>2022-05-03T18:08:12.353Z</time>
      </trkpt>
      <trkpt lat="43.53983" lon="2.29549">
        <ele>211.576655</ele>
        <time>2022-05-03T18:08:28.792Z</time>
      </trkpt>
      <trkpt lat="43.53983" lon="2.29689">
        <ele>215.635137</ele>
        <time>2022-05-03T18:09:01.604Z</time>
      </trkpt>
      <trkpt lat="43.53954" lon="2.29802">
        <ele>219.274767</ele>
        <time>2022-05-03T18:09:28.273Z</time>
      </trkpt>
      <trkpt lat="43.5394" lon="2.2983">
        <ele>220.303557</ele>
        <time>2022-05-03T18:09:35.842Z</time>
      </trkpt>
      <trkpt lat="43.5391" lon="2.29876">
        <ele>222.178741</ele>
        <time>2022-05-03T18:09:50.041Z</time>
      </trkpt>
      <trkpt lat="43.53872" lon="2.29927">
        <ele>224.293709</ele>
        <time>2022-05-03T18:10:06.440Z</time>
      </trkpt>
      <trkpt lat="43.53728" lon="2.30038">
        <ele>230.557026</ele>
        <time>2022-05-03T18:10:56.485Z</time>
      </trkpt>
      <trkpt lat="43.53699" lon="2.30053">
        <ele>231.581115</ele>
        <time>2022-05-03T18:11:05.566Z</time>
      </trkpt>
      <trkpt lat="43.53621" lon="2.30133">
        <ele>234.711062</ele>
        <time>2022-05-03T18:11:32.619Z</time>
      </trkpt>
      <trkpt lat="43.53518" lon="2.30186">
        <ele>235.281083</ele>
        <time>2022-05-03T18:11:58.793Z</time>
      </trkpt>
      <trkpt lat="43.53418" lon="2.3026">
        <ele>233.334552</ele>
        <time>2022-05-03T18:12:14.833Z</time>
      </trkpt>
      <trkpt lat="43.53382" lon="2.30289">
        <ele>231.31349</ele>
        <time>2022-05-03T18:12:19.779Z</time>
      </trkpt>
      <trkpt lat="43.53375" lon="2.30295">
        <ele>230.93239</ele>
        <time>2022-05-03T18:12:20.675Z</time>
      </trkpt>
      <trkpt lat="43.53329" lon="2.30329">
        <ele>228.399433</ele>
        <time>2022-05-03T18:12:26.946Z</time>
      </trkpt>
      <trkpt lat="43.53311" lon="2.30336">
        <ele>227.533347</ele>
        <time>2022-05-03T18:12:28.968Z</time>
      </trkpt>
      <trkpt lat="43.53295" lon="2.30326">
        <ele>226.698117</ele>
        <time>2022-05-03T18:12:31.200Z</time>
      </trkpt>
      <trkpt lat="43.53289" lon="2.30325">
        <ele>226.451834</ele>
        <time>2022-05-03T18:12:31.901Z</time>
      </trkpt>
      <trkpt lat="43.53279" lon="2.30328">
        <ele>225.989547</ele>
        <time>2022-05-03T18:12:33.077Z</time>
      </trkpt>
      <trkpt lat="43.53237" lon="2.30365">
        <ele>223.863024</ele>
        <time>2022-05-03T18:12:38.977Z</time>
      </trkpt>
      <trkpt lat="43.53201" lon="2.30368">
        <ele>222.307265</ele>
        <time>2022-05-03T18:12:43.341Z</time>
      </trkpt>
      <trkpt lat="43.53186" lon="2.30365">
        <ele>221.638727</ele>
        <time>2022-05-03T18:12:45.283Z</time>
      </trkpt>
      <trkpt lat="43.5316" lon="2.30347">
        <ele>220.392702</ele>
        <time>2022-05-03T18:12:49.271Z</time>
      </trkpt>
      <trkpt lat="43.5315" lon="2.30317">
        <ele>219.359427</ele>
        <time>2022-05-03T18:12:52.510Z</time>
      </trkpt>
      <trkpt lat="43.53115" lon="2.30196">
        <ele>217.481373</ele>
        <time>2022-05-03T18:13:07.265Z</time>
      </trkpt>
      <trkpt lat="43.53084" lon="2.30144">
        <ele>216.540329</ele>
        <time>2022-05-03T18:13:14.130Z</time>
      </trkpt>
      <trkpt lat="43.53043" lon="2.301">
        <ele>215.189124</ele>
        <time>2022-05-03T18:13:21.170Z</time>
      </trkpt>
      <trkpt lat="43.53021" lon="2.30093">
        <ele>214.169038</ele>
        <time>2022-05-03T18:13:23.986Z</time>
      </trkpt>
      <trkpt lat="43.52947" lon="2.30072">
        <ele>210.66267</ele>
        <time>2022-05-03T18:13:33.296Z</time>
      </trkpt>
      <trkpt lat="43.52916" lon="2.30075">
        <ele>209.23442</ele>
        <time>2022-05-03T18:13:36.862Z</time>
      </trkpt>
      <trkpt lat="43.52892" lon="2.30082">
        <ele>208.080958</ele>
        <time>2022-05-03T18:13:39.766Z</time>
      </trkpt>
      <trkpt lat="43.52828" lon="2.30115">
        <ele>206.026833</ele>
        <time>2022-05-03T18:13:48.000Z</time>
      </trkpt>
      <trkpt lat="43.52782" lon="2.30149">
        <ele>204.6796</ele>
        <time>2022-05-03T18:13:54.677Z</time>
      </trkpt>
      <trkpt lat="43.52775" lon="2.30146">
        <ele>204.507307</ele>
        <time>2022-05-03T18:13:55.564Z</time>
      </trkpt>
      <trkpt lat="43.52452" lon="2.30326">
        <ele>202.458296</ele>
        <time>2022-05-03T18:15:03.395Z</time>
      </trkpt>
      <trkpt lat="43.52358" lon="2.30384">
        <ele>200.74112</ele>
        <time>2022-05-03T18:15:16.871Z</time>
      </trkpt>
      <trkpt lat="43.52342" lon="2.304">
        <ele>200.119348</ele>
        <time>2022-05-03T18:15:19.315Z</time>
      </trkpt>
      <trkpt lat="43.52322" lon="2.30433">
        <ele>199.150572</ele>
        <time>2022-05-03T18:15:23.083Z</time>
      </trkpt>
      <trkpt lat="43.52296" lon="2.30502">
        <ele>197.376991</ele>
        <time>2022-05-03T18:15:30.286Z</time>
      </trkpt>
      <trkpt lat="43.52279" lon="2.30531">
        <ele>196.534621</ele>
        <time>2022-05-03T18:15:33.950Z</time>
      </trkpt>
      <trkpt lat="43.52269" lon="2.3054">
        <ele>196.178452</ele>
        <time>2022-05-03T18:15:35.648Z</time>
      </trkpt>
      <trkpt lat="43.52226" lon="2.30581">
        <ele>196.002894</ele>
        <time>2022-05-03T18:15:44.591Z</time>
      </trkpt>
      <trkpt lat="43.52223" lon="2.30583">
        <ele>196.007536</ele>
        <time>2022-05-03T18:15:45.297Z</time>
      </trkpt>
      <trkpt lat="43.522" lon="2.30598">
        <ele>196.051318</ele>
        <time>2022-05-03T18:15:50.133Z</time>
      </trkpt>
      <trkpt lat="43.52137" lon="2.30623">
        <ele>196.16401</ele>
        <time>2022-05-03T18:16:02.931Z</time>
      </trkpt>
      <trkpt lat="43.52126" lon="2.30649">
        <ele>196.201804</ele>
        <time>2022-05-03T18:16:07.588Z</time>
      </trkpt>
      <trkpt lat="43.52126" lon="2.30688">
        <ele>196.307535</ele>
        <time>2022-05-03T18:16:13.568Z</time>
      </trkpt>
      <trkpt lat="43.52143" lon="2.30767">
        <ele>196.803873</ele>
        <time>2022-05-03T18:16:26.413Z</time>
      </trkpt>
      <trkpt lat="43.52135" lon="2.30793">
        <ele>196.975858</ele>
        <time>2022-05-03T18:16:30.610Z</time>
      </trkpt>
      <trkpt lat="43.52115" lon="2.30845">
        <ele>197.333227</ele>
        <time>2022-05-03T18:16:39.490Z</time>
      </trkpt>
      <trkpt lat="43.52098" lon="2.30868">
        <ele>197.52542</ele>
        <time>2022-05-03T18:16:44.335Z</time>
      </trkpt>
      <trkpt lat="43.52066" lon="2.30941">
        <ele>198.079745</ele>
        <time>2022-05-03T18:16:55.794Z</time>
      </trkpt>
      <trkpt lat="43.52051" lon="2.30988">
        <ele>198.430964</ele>
        <time>2022-05-03T18:17:03.170Z</time>
      </trkpt>
      <trkpt lat="43.52041" lon="2.31021">
        <ele>198.669475</ele>
        <time>2022-05-03T18:17:08.370Z</time>
      </trkpt>
      <trkpt lat="43.52022" lon="2.31081">
        <ele>199.116368</ele>
        <time>2022-05-03T18:17:18.469Z</time>
      </trkpt>
      <trkpt lat="43.51805" lon="2.3095">
        <ele>203.316235</ele>
        <time>2022-05-03T18:18:13.905Z</time>
      </trkpt>
      <trkpt lat="43.51784" lon="2.30938">
        <ele>204.024092</ele>
        <time>2022-05-03T18:18:19.514Z</time>
      </trkpt>
      <trkpt lat="43.51781" lon="2.30936">
        <ele>204.13071</ele>
        <time>2022-05-03T18:18:20.403Z</time>
      </trkpt>
      <trkpt lat="43.51759" lon="2.3099">
        <ele>205.508251</ele>
        <time>2022-05-03T18:18:31.960Z</time>
      </trkpt>
      <trkpt lat="43.51757" lon="2.30999">
        <ele>205.726087</ele>
        <time>2022-05-03T18:18:33.860Z</time>
      </trkpt>
      <trkpt lat="43.51726" lon="2.31084">
        <ele>207.858557</ele>
        <time>2022-05-03T18:18:55.148Z</time>
      </trkpt>
      <trkpt lat="43.51699" lon="2.31065">
        <ele>209.563115</ele>
        <time>2022-05-03T18:19:05.404Z</time>
      </trkpt>
      <trkpt lat="43.51689" lon="2.3106">
        <ele>210.192131</ele>
        <time>2022-05-03T18:19:08.799Z</time>
      </trkpt>
      <trkpt lat="43.5168" lon="2.31058">
        <ele>210.81592</ele>
        <time>2022-05-03T18:19:12.217Z</time>
      </trkpt>
      <trkpt lat="43.51611" lon="2.31032">
        <ele>215.307078</ele>
        <time>2022-05-03T18:19:39.129Z</time>
      </trkpt>
      <trkpt lat="43.51518" lon="2.30976">
        <ele>222.234612</ele>
        <time>2022-05-03T18:20:24.213Z</time>
      </trkpt>
      <trkpt lat="43.51434" lon="2.30975">
        <ele>228.667597</ele>
        <time>2022-05-03T18:20:59.838Z</time>
      </trkpt>
      <trkpt lat="43.51358" lon="2.30956">
        <ele>234.478933</ele>
        <time>2022-05-03T18:21:32.677Z</time>
      </trkpt>
      <trkpt lat="43.51349" lon="2.30958">
        <ele>235.214058</ele>
        <time>2022-05-03T18:21:36.848Z</time>
      </trkpt>
      <trkpt lat="43.51324" lon="2.30984">
        <ele>237.483489</ele>
        <time>2022-05-03T18:21:51.173Z</time>
      </trkpt>
      <trkpt lat="43.51307" lon="2.30985">
        <ele>238.751461</ele>
        <time>2022-05-03T18:21:58.378Z</time>
      </trkpt>
      <trkpt lat="43.51261" lon="2.30958">
        <ele>242.457641</ele>
        <time>2022-05-03T18:22:19.475Z</time>
      </trkpt>
      <trkpt lat="43.51218" lon="2.30923">
        <ele>246.168286</ele>
        <time>2022-05-03T18:22:39.247Z</time>
      </trkpt>
      <trkpt lat="43.51193" lon="2.30905">
        <ele>247.652993</ele>
        <time>2022-05-03T18:22:50.999Z</time>
      </trkpt>
      <trkpt lat="43.51177" lon="2.30886">
        <ele>248.636021</ele>
        <time>2022-05-03T18:22:59.574Z</time>
      </trkpt>
      <trkpt lat="43.51129" lon="2.30857">
        <ele>251.157191</ele>
        <time>2022-05-03T18:23:21.245Z</time>
      </trkpt>
      <trkpt lat="43.51109" lon="2.30852">
        <ele>252.148236</ele>
        <time>2022-05-03T18:23:28.082Z</time>
      </trkpt>
      <trkpt lat="43.51053" lon="2.30865">
        <ele>254.868079</ele>
        <time>2022-05-03T18:23:44.937Z</time>
      </trkpt>
      <trkpt lat="43.51009" lon="2.30865">
        <ele>254.348491</ele>
        <time>2022-05-03T18:23:52.260Z</time>
      </trkpt>
      <trkpt lat="43.50993" lon="2.30906">
        <ele>253.620741</ele>
        <time>2022-05-03T18:24:00.138Z</time>
      </trkpt>
      <trkpt lat="43.50979" lon="2.3096">
        <ele>252.718845</ele>
        <time>2022-05-03T18:24:09.973Z</time>
      </trkpt>
      <trkpt lat="43.50977" lon="2.31008">
        <ele>251.953911</ele>
        <time>2022-05-03T18:24:18.429Z</time>
      </trkpt>
      <trkpt lat="43.50986" lon="2.31076">
        <ele>251.25422</ele>
        <time>2022-05-03T18:24:29.672Z</time>
      </trkpt>
      <trkpt lat="43.50941" lon="2.31114">
        <ele>251.237283</ele>
        <time>2022-05-03T18:24:42.373Z</time>
      </trkpt>
      <trkpt lat="43.50934" lon="2.3112">
        <ele>251.234534</ele>
        <time>2022-05-03T18:24:44.538Z</time>
      </trkpt>
      <trkpt lat="43.50934" lon="2.3112">
        <ele>251.234534</ele>
        <time>2022-05-03T18:24:44.760Z</time>
      </trkpt>
      <trkpt lat="43.50845" lon="2.31221">
        <ele>251.815041</ele>
        <time>2022-05-03T18:25:24.903Z</time>
      </trkpt>
      <trkpt lat="43.50802" lon="2.31263">
        <ele>254.055914</ele>
        <time>2022-05-03T18:25:49.789Z</time>
      </trkpt>
      <trkpt lat="43.50779" lon="2.31285">
        <ele>255.254395</ele>
        <time>2022-05-03T18:26:01.250Z</time>
      </trkpt>
      <trkpt lat="43.50726" lon="2.31319">
        <ele>257.729417</ele>
        <time>2022-05-03T18:26:23.777Z</time>
      </trkpt>
      <trkpt lat="43.50666" lon="2.31381">
        <ele>259.732998</ele>
        <time>2022-05-03T18:26:50.776Z</time>
      </trkpt>
      <trkpt lat="43.50621" lon="2.3145">
        <ele>260.944317</ele>
        <time>2022-05-03T18:27:09.521Z</time>
      </trkpt>
      <trkpt lat="43.50582" lon="2.31521">
        <ele>262.082752</ele>
        <time>2022-05-03T18:27:26.277Z</time>
      </trkpt>
      <trkpt lat="43.50555" lon="2.31574">
        <ele>261.78664</ele>
        <time>2022-05-03T18:27:36.728Z</time>
      </trkpt>
      <trkpt lat="43.50548" lon="2.31591">
        <ele>261.700178</ele>
        <time>2022-05-03T18:27:39.613Z</time>
      </trkpt>
      <trkpt lat="43.50526" lon="2.31651">
        <ele>261.394967</ele>
        <time>2022-05-03T18:27:49.469Z</time>
      </trkpt>
      <trkpt lat="43.50487" lon="2.31718">
        <ele>261.003859</ele>
        <time>2022-05-03T18:28:02.339Z</time>
      </trkpt>
      <trkpt lat="43.50475" lon="2.3175">
        <ele>261.289009</ele>
        <time>2022-05-03T18:28:08.182Z</time>
      </trkpt>
      <trkpt lat="43.50472" lon="2.31756">
        <ele>261.375436</ele>
        <time>2022-05-03T18:28:09.355Z</time>
      </trkpt>
      <trkpt lat="43.50465" lon="2.31774">
        <ele>261.632044</ele>
        <time>2022-05-03T18:28:13.131Z</time>
      </trkpt>
      <trkpt lat="43.50444" lon="2.31796">
        <ele>262.077524</ele>
        <time>2022-05-03T18:28:19.847Z</time>
      </trkpt>
      <trkpt lat="43.50437" lon="2.31789">
        <ele>262.218271</ele>
        <time>2022-05-03T18:28:21.721Z</time>
      </trkpt>
      <trkpt lat="43.50378" lon="2.31777">
        <ele>263.237403</ele>
        <time>2022-05-03T18:28:35.972Z</time>
      </trkpt>
      <trkpt lat="43.50186" lon="2.31835">
        <ele>269.413607</ele>
        <time>2022-05-03T18:29:35.482Z</time>
      </trkpt>
      <trkpt lat="43.50211" lon="2.31903">
        <ele>270.509049</ele>
        <time>2022-05-03T18:29:54.284Z</time>
      </trkpt>
      <trkpt lat="43.50186" lon="2.31965">
        <ele>270.554295</ele>
        <time>2022-05-03T18:30:08.540Z</time>
      </trkpt>
      <trkpt lat="43.50176" lon="2.31965">
        <ele>270.562534</ele>
        <time>2022-05-03T18:30:10.834Z</time>
      </trkpt>
      <trkpt lat="43.50143" lon="2.31934">
        <ele>270.597316</ele>
        <time>2022-05-03T18:30:19.200Z</time>
      </trkpt>
      <trkpt lat="43.50121" lon="2.31977">
        <ele>270.630969</ele>
        <time>2022-05-03T18:30:26.554Z</time>
      </trkpt>
      <trkpt lat="43.50133" lon="2.31978">
        <ele>270.641226</ele>
        <time>2022-05-03T18:30:29.303Z</time>
      </trkpt>
      <trkpt lat="43.50231" lon="2.32138">
        <ele>267.550052</ele>
        <time>2022-05-03T18:31:06.592Z</time>
      </trkpt>
      <trkpt lat="43.50209" lon="2.32207">
        <ele>267.070263</ele>
        <time>2022-05-03T18:31:20.724Z</time>
      </trkpt>
      <trkpt lat="43.50148" lon="2.32367">
        <ele>268.109536</ele>
        <time>2022-05-03T18:32:03.649Z</time>
      </trkpt>
      <trkpt lat="43.50096" lon="2.32431">
        <ele>269.446305</ele>
        <time>2022-05-03T18:32:30.399Z</time>
      </trkpt>
      <trkpt lat="43.50082" lon="2.32448">
        <ele>269.921807</ele>
        <time>2022-05-03T18:32:37.802Z</time>
      </trkpt>
      <trkpt lat="43.4994" lon="2.32728">
        <ele>276.324994</ele>
        <time>2022-05-03T18:34:11.970Z</time>
      </trkpt>
      <trkpt lat="43.4994" lon="2.32735">
        <ele>276.453437</ele>
        <time>2022-05-03T18:34:13.698Z</time>
      </trkpt>
      <trkpt lat="43.49873" lon="2.32766">
        <ele>278.377199</ele>
        <time>2022-05-03T18:34:40.778Z</time>
      </trkpt>
      <trkpt lat="43.49838" lon="2.32822">
        <ele>279.894289</ele>
        <time>2022-05-03T18:35:01.395Z</time>
      </trkpt>
      <trkpt lat="43.49818" lon="2.32855">
        <ele>280.768175</ele>
        <time>2022-05-03T18:35:13.651Z</time>
      </trkpt>
      <trkpt lat="43.49803" lon="2.32866">
        <ele>281.254251</ele>
        <time>2022-05-03T18:35:20.442Z</time>
      </trkpt>
      <trkpt lat="43.49766" lon="2.32878">
        <ele>282.340654</ele>
        <time>2022-05-03T18:35:35.417Z</time>
      </trkpt>
      <trkpt lat="43.49754" lon="2.32893">
        <ele>282.795795</ele>
        <time>2022-05-03T18:35:41.887Z</time>
      </trkpt>
      <trkpt lat="43.49752" lon="2.32911">
        <ele>283.089587</ele>
        <time>2022-05-03T18:35:46.790Z</time>
      </trkpt>
      <trkpt lat="43.49767" lon="2.32963">
        <ele>284.007913</ele>
        <time>2022-05-03T18:36:02.366Z</time>
      </trkpt>
      <trkpt lat="43.49776" lon="2.32989">
        <ele>284.494865</ele>
        <time>2022-05-03T18:36:10.520Z</time>
      </trkpt>
      <trkpt lat="43.49777" lon="2.33056">
        <ele>285.594044</ele>
        <time>2022-05-03T18:36:28.509Z</time>
      </trkpt>
      <trkpt lat="43.49753" lon="2.33216">
        <ele>286.870843</ele>
        <time>2022-05-03T18:37:09.503Z</time>
      </trkpt>
      <trkpt lat="43.49752" lon="2.33253">
        <ele>286.898372</ele>
        <time>2022-05-03T18:37:17.524Z</time>
      </trkpt>
      <trkpt lat="43.49759" lon="2.3336">
        <ele>286.97807</ele>
        <time>2022-05-03T18:37:39.107Z</time>
      </trkpt>
      <trkpt lat="43.49758" lon="2.33407">
        <ele>286.485268</ele>
        <time>2022-05-03T18:37:47.984Z</time>
      </trkpt>
      <trkpt lat="43.49758" lon="2.33424">
        <ele>286.224531</ele>
        <time>2022-05-03T18:37:51.121Z</time>
      </trkpt>
      <trkpt lat="43.49749" lon="2.33459">
        <ele>285.654714</ele>
        <time>2022-05-03T18:37:57.937Z</time>
      </trkpt>
      <trkpt lat="43.49721" lon="2.33541">
        <ele>284.263682</ele>
        <time>2022-05-03T18:38:13.978Z</time>
      </trkpt>
      <trkpt lat="43.49706" lon="2.33609">
        <ele>283.182107</ele>
        <time>2022-05-03T18:38:26.338Z</time>
      </trkpt>
      <trkpt lat="43.49694" lon="2.33707">
        <ele>282.292212</ele>
        <time>2022-05-03T18:38:44.425Z</time>
      </trkpt>
      <trkpt lat="43.49665" lon="2.33773">
        <ele>281.597062</ele>
        <time>2022-05-03T18:38:59.768Z</time>
      </trkpt>
      <trkpt lat="43.49659" lon="2.33788">
        <ele>281.441225</ele>
        <time>2022-05-03T18:39:02.082Z</time>
      </trkpt>
      <trkpt lat="43.49676" lon="2.33833">
        <ele>280.982948</ele>
        <time>2022-05-03T18:39:08.462Z</time>
      </trkpt>
      <trkpt lat="43.49681" lon="2.33882">
        <ele>280.954902</ele>
        <time>2022-05-03T18:39:14.737Z</time>
      </trkpt>
      <trkpt lat="43.49685" lon="2.33941">
        <ele>280.953972</ele>
        <time>2022-05-03T18:39:27.211Z</time>
      </trkpt>
      <trkpt lat="43.4968" lon="2.33943">
        <ele>280.953863</ele>
        <time>2022-05-03T18:39:29.449Z</time>
      </trkpt>
      <trkpt lat="43.49685" lon="2.33941">
        <ele>280.953754</ele>
        <time>2022-05-03T18:39:30.545Z</time>
      </trkpt>
      <trkpt lat="43.49702" lon="2.33979">
        <ele>280.953072</ele>
        <time>2022-05-03T18:39:40.863Z</time>
      </trkpt>
      <trkpt lat="43.49715" lon="2.34028">
        <ele>280.952247</ele>
        <time>2022-05-03T18:39:47.448Z</time>
      </trkpt>
      <trkpt lat="43.49719" lon="2.34068">
        <ele>281.111192</ele>
        <time>2022-05-03T18:39:53.636Z</time>
      </trkpt>
      <trkpt lat="43.4972" lon="2.3411">
        <ele>281.850568</ele>
        <time>2022-05-03T18:39:59.777Z</time>
      </trkpt>
      <trkpt lat="43.49715" lon="2.34133">
        <ele>282.259863</ele>
        <time>2022-05-03T18:40:02.786Z</time>
      </trkpt>
      <trkpt lat="43.49708" lon="2.3418">
        <ele>283.098802</ele>
        <time>2022-05-03T18:40:14.846Z</time>
      </trkpt>
      <trkpt lat="43.49708" lon="2.34235">
        <ele>284.061141</ele>
        <time>2022-05-03T18:40:31.033Z</time>
      </trkpt>
      <trkpt lat="43.49703" lon="2.34234">
        <ele>284.184942</ele>
        <time>2022-05-03T18:40:34.078Z</time>
      </trkpt>
      <trkpt lat="43.49623" lon="2.34219">
        <ele>286.449063</ele>
        <time>2022-05-03T18:41:08.829Z</time>
      </trkpt>
      <trkpt lat="43.49561" lon="2.34207">
        <ele>288.531544</ele>
        <time>2022-05-03T18:41:37.047Z</time>
      </trkpt>
      <trkpt lat="43.49557" lon="2.34246">
        <ele>289.465632</ele>
        <time>2022-05-03T18:41:45.605Z</time>
      </trkpt>
      <trkpt lat="43.49559" lon="2.34271">
        <ele>290.073569</ele>
        <time>2022-05-03T18:41:50.915Z</time>
      </trkpt>
      <trkpt lat="43.49619" lon="2.34451">
        <ele>290.20519</ele>
        <time>2022-05-03T18:42:19.611Z</time>
      </trkpt>
      <trkpt lat="43.49656" lon="2.34531">
        <ele>289.569764</ele>
        <time>2022-05-03T18:42:28.791Z</time>
      </trkpt>
      <trkpt lat="43.49673" lon="2.34628">
        <ele>288.030782</ele>
        <time>2022-05-03T18:42:38.702Z</time>
      </trkpt>
      <trkpt lat="43.49676" lon="2.34635">
        <ele>287.901097</ele>
        <time>2022-05-03T18:42:39.535Z</time>
      </trkpt>
      <trkpt lat="43.49687" lon="2.34649">
        <ele>287.574425</ele>
        <time>2022-05-03T18:42:41.526Z</time>
      </trkpt>
      <trkpt lat="43.49704" lon="2.34654">
        <ele>287.196071</ele>
        <time>2022-05-03T18:42:44.080Z</time>
      </trkpt>
      <trkpt lat="43.49714" lon="2.3467">
        <ele>286.858882</ele>
        <time>2022-05-03T18:42:46.264Z</time>
      </trkpt>
      <trkpt lat="43.49736" lon="2.34745">
        <ele>285.715773</ele>
        <time>2022-05-03T18:42:55.983Z</time>
      </trkpt>
      <trkpt lat="43.49743" lon="2.34791">
        <ele>286.589661</ele>
        <time>2022-05-03T18:43:02.568Z</time>
      </trkpt>
      <trkpt lat="43.49742" lon="2.34836">
        <ele>287.418211</ele>
        <time>2022-05-03T18:43:09.717Z</time>
      </trkpt>
      <trkpt lat="43.49735" lon="2.34865">
        <ele>287.996056</ele>
        <time>2022-05-03T18:43:15.677Z</time>
      </trkpt>
      <trkpt lat="43.49732" lon="2.34881">
        <ele>288.288036</ele>
        <time>2022-05-03T18:43:18.832Z</time>
      </trkpt>
      <trkpt lat="43.49709" lon="2.34915">
        <ele>289.155686</ele>
        <time>2022-05-03T18:43:28.570Z</time>
      </trkpt>
      <trkpt lat="43.49668" lon="2.3506">
        <ele>293.816633</ele>
        <time>2022-05-03T18:44:09.707Z</time>
      </trkpt>
      <trkpt lat="43.49666" lon="2.35077">
        <ele>294.45387</ele>
        <time>2022-05-03T18:44:15.367Z</time>
      </trkpt>
      <trkpt lat="43.49675" lon="2.35155">
        <ele>297.363505</ele>
        <time>2022-05-03T18:44:37.085Z</time>
      </trkpt>
      <trkpt lat="43.49676" lon="2.35285">
        <ele>299.346335</ele>
        <time>2022-05-03T18:45:03.706Z</time>
      </trkpt>
      <trkpt lat="43.4968" lon="2.35301">
        <ele>299.341621</ele>
        <time>2022-05-03T18:45:06.063Z</time>
      </trkpt>
      <trkpt lat="43.49698" lon="2.35351">
        <ele>299.32576</ele>
        <time>2022-05-03T18:45:13.800Z</time>
      </trkpt>
      <trkpt lat="43.49703" lon="2.35372">
        <ele>299.319654</ele>
        <time>2022-05-03T18:45:16.572Z</time>
      </trkpt>
      <trkpt lat="43.49706" lon="2.35394">
        <ele>299.313283</ele>
        <time>2022-05-03T18:45:18.917Z</time>
      </trkpt>
      <trkpt lat="43.49704" lon="2.35413">
        <ele>299.308035</ele>
        <time>2022-05-03T18:45:20.724Z</time>
      </trkpt>
      <trkpt lat="43.49685" lon="2.35445">
        <ele>299.098325</ele>
        <time>2022-05-03T18:45:24.601Z</time>
      </trkpt>
      <trkpt lat="43.49476" lon="2.35674">
        <ele>285.575808</ele>
        <time>2022-05-03T18:45:56.601Z</time>
      </trkpt>
      <trkpt lat="43.4952" lon="2.35706">
        <ele>282.933561</ele>
        <time>2022-05-03T18:46:02.905Z</time>
      </trkpt>
      <trkpt lat="43.49669" lon="2.35723">
        <ele>276.810669</ele>
        <time>2022-05-03T18:46:21.908Z</time>
      </trkpt>
      <trkpt lat="43.49689" lon="2.35811">
        <ele>274.31071</ele>
        <time>2022-05-03T18:46:31.436Z</time>
      </trkpt>
      <trkpt lat="43.49688" lon="2.35833">
        <ele>274.114658</ele>
        <time>2022-05-03T18:46:34.009Z</time>
      </trkpt>
      <trkpt lat="43.49638" lon="2.35942">
        <ele>273.24924</ele>
        <time>2022-05-03T18:46:49.448Z</time>
      </trkpt>
      <trkpt lat="43.49609" lon="2.35928">
        <ele>272.967646</ele>
        <time>2022-05-03T18:46:54.622Z</time>
      </trkpt>
      <trkpt lat="43.49593" lon="2.35973">
        <ele>272.62884</ele>
        <time>2022-05-03T18:47:05.175Z</time>
      </trkpt>
      <trkpt lat="43.49624" lon="2.35989">
        <ele>272.153618</ele>
        <time>2022-05-03T18:47:10.521Z</time>
      </trkpt>
      <trkpt lat="43.49644" lon="2.36076">
        <ele>271.116714</ele>
        <time>2022-05-03T18:47:21.034Z</time>
      </trkpt>
      <trkpt lat="43.4965" lon="2.36102">
        <ele>270.806995</ele>
        <time>2022-05-03T18:47:24.020Z</time>
      </trkpt>
      <trkpt lat="43.49629" lon="2.36157">
        <ele>270.096107</ele>
        <time>2022-05-03T18:47:30.661Z</time>
      </trkpt>
      <trkpt lat="43.49631" lon="2.36175">
        <ele>269.893348</ele>
        <time>2022-05-03T18:47:32.448Z</time>
      </trkpt>
      <trkpt lat="43.49578" lon="2.36313">
        <ele>266.928694</ele>
        <time>2022-05-03T18:47:47.815Z</time>
      </trkpt>
      <trkpt lat="43.4957" lon="2.36335">
        <ele>266.459572</ele>
        <time>2022-05-03T18:47:50.183Z</time>
      </trkpt>
      <trkpt lat="43.49584" lon="2.36361">
        <ele>265.829453</ele>
        <time>2022-05-03T18:47:53.259Z</time>
      </trkpt>
      <trkpt lat="43.49585" lon="2.36364">
        <ele>265.756764</ele>
        <time>2022-05-03T18:47:53.622Z</time>
      </trkpt>
      <trkpt lat="43.49601" lon="2.36396">
        <ele>265.006589</ele>
        <time>2022-05-03T18:47:57.318Z</time>
      </trkpt>
      <trkpt lat="43.49612" lon="2.36417">
        <ele>264.396256</ele>
        <time>2022-05-03T18:47:59.799Z</time>
      </trkpt>
      <trkpt lat="43.49625" lon="2.36442">
        <ele>263.643063</ele>
        <time>2022-05-03T18:48:02.723Z</time>
      </trkpt>
      <trkpt lat="43.49639" lon="2.36473">
        <ele>262.760846</ele>
        <time>2022-05-03T18:48:06.133Z</time>
      </trkpt>
      <trkpt lat="43.49762" lon="2.3671">
        <ele>255.721228</ele>
        <time>2022-05-03T18:48:33.293Z</time>
      </trkpt>
      <trkpt lat="43.4976" lon="2.36725">
        <ele>255.360011</ele>
        <time>2022-05-03T18:48:34.704Z</time>
      </trkpt>
      <trkpt lat="43.49771" lon="2.36728">
        <ele>254.961251</ele>
        <time>2022-05-03T18:48:36.238Z</time>
      </trkpt>
      <trkpt lat="43.49799" lon="2.36782">
        <ele>253.363078</ele>
        <time>2022-05-03T18:48:42.477Z</time>
      </trkpt>
      <trkpt lat="43.49832" lon="2.36848">
        <ele>251.655142</ele>
        <time>2022-05-03T18:48:50.102Z</time>
      </trkpt>
      <trkpt lat="43.49832" lon="2.36906">
        <ele>250.462107</ele>
        <time>2022-05-03T18:48:55.722Z</time>
      </trkpt>
      <trkpt lat="43.49837" lon="2.3715">
        <ele>246.479497</ele>
        <time>2022-05-03T18:49:19.503Z</time>
      </trkpt>
      <trkpt lat="43.4984" lon="2.37287">
        <ele>244.934118</ele>
        <time>2022-05-03T18:49:35.124Z</time>
      </trkpt>
      <trkpt lat="43.49843" lon="2.37293">
        <ele>244.934118</ele>
        <time>2022-05-03T18:49:36.014Z</time>
      </trkpt>
      <trkpt lat="43.4975" lon="2.37447">
        <ele>244.934118</ele>
        <time>2022-05-03T18:50:00.505Z</time>
      </trkpt>
      <trkpt lat="43.49747" lon="2.37451">
        <ele>244.934118</ele>
        <time>2022-05-03T18:50:01.243Z</time>
      </trkpt>
      <trkpt lat="43.49739" lon="2.37465">
        <ele>244.934118</ele>
        <time>2022-05-03T18:50:03.633Z</time>
      </trkpt>
      <trkpt lat="43.49709" lon="2.37513">
        <ele>244.934118</ele>
        <time>2022-05-03T18:50:11.475Z</time>
      </trkpt>
      <trkpt lat="43.49692" lon="2.37554">
        <ele>244.934118</ele>
        <time>2022-05-03T18:50:17.101Z</time>
      </trkpt>
      <trkpt lat="43.49707" lon="2.37558">
        <ele>244.934118</ele>
        <time>2022-05-03T18:50:19.573Z</time>
      </trkpt>
    </trkseg>
  </trk>
</gpx>